Aviation Digital Data Service (ADDS)

Output produced by METARs form (1518 UTC 31 August 2015)
found at http://aviationweather.gov/adds/metars/
 
K04V 311454Z AUTO 32007KT 10SM CLR 14/07 A3036 RMK AO2 PWINO
K04W 311513Z AUTO 19012KT 10SM OVC011 21/19 A2992 RMK AO2
K06D 311455Z AUTO 33014G20KT 10SM FEW100 18/13 A2978 RMK AO2
K08D 311515Z AUTO 28015G23KT 10SM CLR 18/09 A2986 RMK AO2
K0A9 311515Z AUTO 00000KT 10SM CLR 24/16 A3019 RMK
K0CO 311514Z AUTO 32020G27KT 10SM SCT001 BKN070 OVC085 03/M03 A3063 RMK AO2
K0E0 311515Z AUTO 00000KT 10SM CLR 22/09 A3025 RMK AO2 T02170093
K0F2 311455Z AUTO 18007KT 10SM CLR 27/18 A3004 RMK AO2 T02730178
K0J4 311458Z AUTO 00000KT 10SM CLR 29/21 A3010 RMK AO2 SLP189 T02890211 51013
K0V4 311455Z AUTO 16003KT 10SM SCT050 BKN095 BKN110 A3015 RMK AO1
K0VG 311455Z AUTO 00000KT 10SM CLR 24/10 A3021 RMK AO2
K11R 311455Z AUTO 14004KT 10SM CLR 28/24 A3005 RMK AO2 T02840240
K12N 311454Z AUTO VRB04KT 27/21 A3007 RMK AO1 SLP173 T02670206 58001
K14Y 311521Z AUTO 15013G18KT 10SM CLR 21/18 A2984 RMK AO2
K18A 311515Z AUTO 00000KT 10SM CLR 26/20 A3016 RMK AO2 T02560197
K19A 311515Z AUTO 04004KT 10SM CLR 23/18 A3016 RMK AO2
K1A5 311455Z AUTO 00000KT 10SM 18/18 A3023 RMK AO2 T01770175
K1A6 311455Z AUTO 00000KT 10SM CLR 24/18 A3019 RMK AO2 T02350179
K1A9 311515Z AUTO 00000KT 10SM CLR 27/21 A3010 RMK AO2 T02730212
K1B7 311454Z 04010KT 10SM SCT020 30/24 A3010
K1F0 311450Z AUTO 21005KT 10SM CLR 27/16 A3003 RMK AO2
K1H2 311455Z AUTO 12004KT 4SM TS BR SCT010 BKN044 BKN055 21/20 A3013 RMK AO2 LTG DSNT ALQS 60009 T02130200
K1J0 311458Z AUTO 00000KT 10SM CLR 28/23 A3010 RMK AO2 SLP149 6//// T02830228 $
K1K1 311455Z AUTO 19008KT 10SM CLR 23/20 A2998 RMK AO2 T02330200
K1L0 311455Z AUTO 00000KT 10SM SCT021 31/24 A3008 RMK AO2 T03060235
K1M4 311456Z AUTO 00000KT 9SM OVC013 23/22 A3018 RMK AO2 53014 T02270216 SLP230
K1P1 311515Z AUTO 27009KT 10SM CLR 26/17 A2994 RMK AO2 T02550168
K1QW 311456Z AUTO 18016KT 10SM FEW120 11/04 A2998 RMK AO2 SLP153 T01120043 53002
K1R7 311515Z AUTO 25003KT CLR 29/21 A3013 RMK AO2
K1S5 311515Z AUTO 00000KT 10SM CLR 14/09 A3002 RMK AO2 T01370085
K1V4 311454Z AUTO 23/16 A2992 RMK AO1 SLP123 T02280161 56012
K1V6 311510Z AUTO 28009KT 10SM CLR 25/08 A3012 RMK AO2
K1YT 311456Z AUTO 14003KT 10SM CLR 15/06 A3000 RMK AO2 SLPNO T01450058 53007 $
K20U 311455Z AUTO 28013G17KT 10SM CLR 17/09 A2995 RMK AO2
K20V 311516Z AUTO 10003KT 10SM SCT090 OVC110 13/08 A3034 RMK AO2
K21D 311514Z AUTO 19011KT 7SM OVC010 22/20 A2997 RMK AO2
K24J 311515Z AUTO 02005KT 10SM BKN019 BKN026 28/24 A3010 RMK AO1
K28J 311515Z AUTO 00000KT 10SM BKN015 28/18 A3008 RMK AO2 TSNO
K2C8 311455Z AUTO 32006KT 3SM BR FEW032 FEW047 21/19 A2970 RMK AO2
K2D5 311455Z AUTO 21014G19KT 10SM 22/22 A2974 RMK AO2
K2DP 311456Z AUTO 07004KT 10SM SCT110 26/21 A3012 RMK AO2 LTG DSNT S SLPNO T02640209 50000 $
K2G4 311455Z AUTO 30003KT 10SM SCT011 BKN018 BKN022 21/18 A3025 RMK AO1
K2G9 311455Z AUTO 33006KT 7SM +RA SCT022 SCT027 BKN034 23/19 A3019 RMK AO2 P0002
K2I0 311455Z AUTO 21006KT 10SM CLR 26/19 A3015 RMK AO2 T02570194
K2V5 311515Z AUTO 36009KT 10SM CLR 28/09 A2999 RMK AO2 T02770091
K2W6 311309Z AUTO 00000KT 10SM BKN110 25/18 A3011 RMK AO1
K2WX 311456Z AUTO 30006KT 18/10 A2992 RMK AO1 SLP112 T01780100 51035
K33V 311515Z AUTO 14006KT 10SM CLR 12/08 A3035 RMK AO2
K36U 311515Z AUTO 00000KT 10SM CLR 15/10 A3018 RMK AO2
K3AU 311455Z AUTO 17007KT 10SM CLR 23/20 A2998 RMK AO2
K3D2 311515Z AUTO 26006KT 3/4SM BR OVC003 17/17 A3002 RMK AO2 T01700167
K3J7 311515Z AUTO 00000KT 10SM OVC006 16/ A3013 RMK AO2 LTG DSNT SE
K3K3 311455Z AUTO 00000KT 10SM CLR 22/13 A2996 RMK AO2 PWINO
K3LF 311455Z AUTO 17006KT 10SM TS CLR 24/21 A3010 RMK AO2 LTG DSNT E AND SE T02410207
K3N8 311455Z AUTO 19013G22KT 10SM CLR 23/16 A2972 RMK AO2 T02310156
K3R7 311515Z AUTO 00000KT 10SM BKN021 29/24 A3007 RMK AO2 T02870239
K3T5 311455Z AUTO 14003KT 10SM CLR 28/24 A3002 RMK AO2 T02790241
K40B 311421Z AUTO VRB05G19KT 21/16 A2978 RMK AO1 SLP080 T02110160 56013
K40J 311455Z AUTO 36006KT 10SM OVC007 A3009 RMK AO2 LTG DSNT NE
K42J 311515Z AUTO 00000KT 10SM BKN010 OVC022 26/25 A3010 RMK AO1 TSNO
K49A 311515Z AUTO 33003KT 10SM BKN023 BKN030 BKN037 A3020 RMK AO2
K4A6 311455Z AUTO 00000KT 10SM -RA OVC018 23/19 A3016 RMK AO2
K4A9 311455Z AUTO 00000KT 10SM BKN016 OVC023 22/17 A3015 RMK AO2
K4BM 311516Z AUTO 28008KT 10SM BKN055 OVC085 10/03 A3058 RMK AO2
K4I3 311516Z AUTO 00000KT 10SM CLR 26/22 A3015 RMK AO2
K4I7 311515Z AUTO 20003KT 7SM SCT050 25/18 A3014 RMK AO2
K4M9 311455Z AUTO 19007KT 10SM 26/22 A3011 RMK AO2
K4MR 311456Z AUTO 21015G23KT 10SM CLR 24/12 A3010 RMK AO2 SLP137 T02360116 51011 $
K4O4 311515Z AUTO 00000KT 10SM CLR 28/17 A3006 RMK AO2
K54J 311455Z AUTO 00000KT 10SM CLR 29/21 A3009 RMK AO2 T02860209
K5A6 311455Z AUTO 00000KT 10SM CLR 25/21 A3010 RMK AO2 T02450205
K5C1 311455Z AUTO 16006KT 10SM SCT018 26/20 A3007 RMK AO1
K5H4 311455Z AUTO 34013G19KT 10SM CLR 20/13 A2980 RMK AO2
K5M9 311455Z AUTO 23004KT 10SM CLR 25/20 A3015 RMK AO2 T02470196
K5R8 311515Z AUTO 00000KT 10SM CLR 27/21 A3008 RMK AO2 T02740208
K5SM 311513Z AUTO 00000KT 10SM BKN080 OVC095 11/08 A3055 RMK AO2
K5T9 311500Z AUTO 13006G12KT 10SM CLR 27/22 A3001 RMK A01
K65S 311455Z AUTO 16003KT 10SM FEW044 OVC050 12/07 A3000 RMK AO2
K66R 311455Z AUTO 15004KT 10SM SCT022 SCT028 SCT034 30/24 A3002 RMK AO2 LTG DSNT SW T02970237
K6A1 311455Z AUTO 10SM 25/25 A3014 RMK AO2 T02500250
K6A2 311455Z AUTO 00000KT 10SM OVC004 21/20 A3016 RMK AO2
K6B0 311455Z AUTO 20008KT 160V220 10SM SCT060 SCT070 26/18 A2996 RMK AO2 T02550178
K6I2 311455Z AUTO 22003KT 10SM CLR 25/17 A3018 RMK AO2
K6L4 311515Z AUTO 00000KT 10SM FEW070 24/19 A3019 RMK AO2
K6R3 311455Z AUTO 00000KT 7SM CLR 27/23 A3007 RMK AO2 T02650226
K6R6 311453Z AUTO 17006KT 25/18 A3004 RMK AO1 SLP137 T02500178 51014
K79J 311456Z AUTO 06004KT 10SM CLR 31/21 A3010 RMK AO2 SLP188 T03060211 51019
K7BM 311506Z AUTO 33003KT 10SM SCT120 15/05 A3046 RMK AO2
K7L2 311455Z AUTO 34016G26KT 10SM CLR 22/17 A2983 RMK AO2
K7N0 311515Z AUTO 02005KT 10SM FEW026 29/22 A3009 RMK AO1
K7R3 311330Z 00000KT 10SM CLR 27/23 A3006
K7W4 311455Z AUTO 22004KT 10SM CLR 24/20 A3014 RMK AO1 T02380198
K82C 311515Z AUTO 18006KT 5SM BR OVC011 22/20 A3004 RMK AO2 T02170199
K82V 311515Z AUTO 29008KT 10SM SCT100 23/08 A3009 RMK AO2
K8A0 311455Z AUTO 00000KT 10SM OVC009 21/21 A3015 RMK AO2
K8D3 311456Z AUTO 22018G27KT 26/16 A2970 RMK AO1 PK WND 24033/1423 SLP041 T02560161 50009
K8S0 311440Z 24020G35KT
K8W2 311515Z AUTO 00000KT 10SM SCT120 25/19 A3013 RMK AO1 T02460189
K96D 311455Z AUTO 10SM -RA CLR 20/20 A2971 RMK AO2
K9A5 311455Z AUTO 00000KT 10SM OVC033 24/15 A3017 RMK AO2 T02360145
K9D7 311455Z AUTO 34015G18KT 10SM FEW100 21/15 A2978 RMK AO2
K9F2 311013Z 00000KT 7SM SKC 27/23 A2999
K9L2 311055Z AUTO 26007KT 10SM CLR 19/08 A2988 RMK AO2 SLP099 T01940083 $
K9MN 311513Z AUTO 17007KT 10SM BKN007 BKN012 22/21 A3000 RMK AO1 T02160211
K9V9 311455Z AUTO 22008KT 10SM CLR 23/16 A2981 RMK AO2 T02330155
KA08 311515Z AUTO 35003KT 10SM CLR 25/22 A3010 RMK AO2 T02490216
KAAA 311455Z AUTO 18004KT 10SM CLR 27/22 A3007 RMK AO2 LTG DSNT SE AND S T02650220
KAAF 311453Z AUTO 13004KT 10SM CLR 31/24 A3005 RMK AO2 SLP176 T03060244 51015
KAAO 311454Z AUTO 18010KT 10SM CLR 24/20 A2998 RMK AO2 SLP139 T02390200 51007
KAAT 311455Z AUTO 00000KT 10SM CLR 08/02 A3014 RMK AO2 SLP182 T00830022 53006
KABE 311451Z VRB03KT 10SM CLR 27/20 A3007 RMK AO2 SLP180 T02720200 53002
KABI 311452Z 20010KT 10SM CLR 26/18 A3006 RMK AO2 SLP151 T02560178 50012
KABQ 311452Z 00000KT 10SM FEW140 FEW230 FEW300 23/09 A3021 RMK AO2 SLP137 T02330094 50015
KABR 311453Z AUTO 20016G20KT 10SM CLR 23/18 A2975 RMK AO2 SLP067 T02330178 53019
KABY 311453Z 05004KT 10SM BKN017 BKN027 28/22 A3012 RMK AO2 SLP197 T02780222 53016
KACB 311513Z AUTO 19006KT 10SM OVC010 22/18 A3005 RMK AO2 T02160181
KACJ 311455Z AUTO 00000KT 10SM SCT026 BKN033 25/23 A3013 RMK AO2
KACK 311453Z 26017G22KT 10SM CLR 26/21 A2999 RMK AO2 SLP154 T02560206 58002
KACP 311455Z AUTO 00000KT 10SM 28/23 A3008 RMK AO2 T02780227
KACQ 311515Z AUTO 18009KT 7SM SCT008 22/20 A2997 RMK AO2
KACT 311451Z 23005KT 10SM CLR 27/21 A3005 RMK AO2 SLP166 T02720211 51016
KACV 311453Z AUTO 00000KT 10SM CLR 12/12 A3003 RMK AO2 SLP173 T01220117 52001
KACY 311454Z AUTO 27007KT 10SM CLR 29/20 A3008 RMK AO2 SLP184 T02890200 TSNO
KADC 311514Z AUTO 20009G14KT 10SM CLR 22/17 A2981 RMK AO2
KADF 311456Z AUTO VRB03KT 9SM CLR 28/21 A3007 RMK AO2 51014 T02830211 SLP195
KADG 311453Z AUTO VRB03KT 7SM FEW014 25/20 A3012 RMK AO2 SLP196 T02500200 51008
KADH 311455Z AUTO 18005KT 10SM CLR 28/18 A3004 RMK AO2
KADM 311455Z 18005 10SM SKC 28/20 A3002 RMK RWY 17 / ATIS D
KADS 311347Z 16006KT 13SM SKC 26/18 A3005
KADU 311455Z AUTO 18004KT 7SM CLR 22/21 A3000 RMK AO2
KADW 311458Z AUTO 24008KT 10SM FEW140 28/19 A3010 RMK AO2 SLP197 T02790186 52005
KAEG 311448Z 36007KT 10SM FEW140 24/10 A3024
KAEJ 311515Z AUTO 10003KT 10SM CLR 16/07 A3034 RMK AO2 T01640071
KAEL 311513Z AUTO 18008KT 150V210 10SM CLR 22/20 A2998 RMK AO2
KAEX 311453Z AUTO 21004KT 10SM CLR 28/21 A3007 RMK AO2 SLP184 T02830206 51017
KAFF 311458Z AUTO 34005KT 10SM SCT100 22/07 A3019 RMK AO2 SLP123 T02240072 52019
KAFK 311455Z AUTO 18006KT 7SM CLR 22/22 A2999 RMK AO2 T02230223
KAFN 311452Z AUTO 27008KT 10SM CLR 25/17 A3002 RMK AO2 SLP165 T02500172 58000
KAFO 311455Z AUTO 00000KT 10SM CLR 07/00 A3023 RMK AO2
KAFP 311455Z AUTO 04004KT 10SM OVC007 22/20 A3013 RMK AO2 T02210201
KAFW 311453Z VRB05KT 10SM CLR 29/19 A3003 RMK AO2 SLP153 T02890189 51013
KAGC 311453Z 32005KT 10SM CLR 26/16 A3014 RMK AO2 SLP201 T02560161 53008
KAGS 311453Z 34006KT 10SM OVC009 23/22 A3011 RMK AO2 CIG 007V012 SLP194 T02330217 51016
KAHN 311451Z 06004KT 10SM SCT009 BKN032 23/19 A3015 RMK AO2 SLP206 T02280194 53010
KAHQ 311455Z AUTO 18005KT 10SM CLR 22/22 A2996 RMK AO2 T02230215
KAIA 311453Z AUTO 26005KT 10SM CLR 25/12 A2999 RMK AO2 SLP103 T02500122 51020
KAIB 311515Z AUTO 04003KT 10SM CLR 22/08 A3027 RMK AO2
KAID 311453Z 00000KT 10SM CLR 25/18 A3015
KAIG 311450Z AUTO 26004KT 2SM BR OVC003 18/18 A3005 RMK AO2 T01770177
KAIK 311515Z AUTO 36006KT 10SM OVC007 21/20 A3016 RMK AO2 LTG DSNT SE
KAIO 311455Z AUTO 20006KT 7SM CLR 23/23 A2999 RMK AO2
KAIT 311512Z AUTO 17009G17KT 10SM CLR 22/18 A2984 RMK AO2
KAIZ 311515Z AUTO 17005KT 10SM CLR 27/21 A3006 RMK AO1
KAJG 311455Z AUTO 21007KT 10SM SCT049 25/20 A3013 RMK AO2 LTG DSNT W THRU N
KAJO 311456Z AUTO 00000KT 10SM CLR 21/18 A2990 RMK AO2 52014 T02050177 SLP118 $
KAJZ 311455Z AUTO 00000KT 10SM RA SCT110 19/15 A3022 RMK AO2 T01900146
KAKH 311454Z AUTO 07006KT 10SM SCT020 26/18 A3014 RMK AO2 SLP201 T02560183 53007
KAKO 311453Z AUTO 36014G23KT 10SM CLR 24/09 A3004 RMK AO2 SLP107 T02440094 50016 TSNO
KAKQ 311454Z AUTO 21003KT 5SM -RA SCT045 SCT060 BKN100 23/21 A3015 RMK AO2 SLP208 P0001 60003 T02330206 51005 TSNO
KAKR 311454Z AUTO VRB03KT 10SM CLR 28/19 A3012 RMK AO2 SLP190 T02780194 51006
KALB 311451Z 22005KT 10SM FEW025 FEW260 26/19 A3001 RMK AO2 SLP160 T02610194 58001
KALI 311453Z AUTO 14007KT 10SM CLR 29/24 A2999 RMK AO2 SLP152 T02890239 51015
KALK 311456Z AUTO VRB05KT 10SM CLR 26/14 A3018 RMK AO2 SLP125 T02560144 53012
KALM 311515Z AUTO 15003KT 10SM CLR 24/09 A3012 RMK AO2
KALN 311150Z 00000KT 5SM BR BKN200 20/20 A3006
KALO 311454Z 14006KT 6SM BR CLR 21/19 A3001 RMK AO2 SLP159 T02110194 51002
KALS 311452Z AUTO 00000KT 10SM CLR 16/07 A3032 RMK AO2 SLP172 T01560072 51014
KALW 311453Z 21008KT 10SM CLR 17/07 A3005 RMK AO2 SLP173 T01670072 53004
KALX 311455Z AUTO 00000KT 10SM BKN015 BKN022 26/22 A3013 RMK AO2 LTG DSNT SE T02620224
KAMA 311453Z 20018KT 10SM CLR 24/13 A3007 RMK AO2 SLP132 T02390128 50010
KAMG 311453Z AUTO 34005KT 10SM OVC031 27/23 A3009 RMK AO2 SLP187 T02670228 51011
KAMN 311512Z AUTO 23004KT 5SM BR OVC006 19/18 A3011 RMK AO2 T01930184
KAMW 311506Z AUTO 13004KT 6SM BR FEW007 23/21 A3000 RMK AO2 T02330211
KANB 311505Z AUTO 08003KT 10SM OVC009 23/20 A3015 RMK AO2 T02280200
KAND 311456Z AUTO 00000KT 10SM CLR 25/18 A3015 RMK AO2 SLP202 T02500183 53009
KANE 311445Z 18009G14KT 7SM BKN015 24/21 A2993
KANJ 311455Z AUTO 18003KT 7SM OVC007 20/18 A3000 RMK AO2 SLP156 T02000178 53006
KANK 311515Z AUTO 00000KT 10SM SCT100 17/08 A3038 RMK AO1 T01730078
KANQ 311515Z AUTO 00000KT 10SM CLR 26/22 A3011 RMK
KANW 311515Z AUTO 22009KT 10SM SCT120 23/13 A2990 RMK AO2 T02250131
KAOH 311453Z AUTO 24005KT 9SM CLR 26/21 A3013 RMK AO2 SLP195 T02560206 51007
KAOO 311453Z AUTO 33004KT 10SM CLR 28/18 A3015 RMK AO2 SLP195 T02780178 52003
KAPA 311453Z 17004KT 10SM BKN080 BKN120 22/10 A3016 RMK AO2 SLP135 T02170100 53022
KAPC 311454Z 36004KT 10SM CLR 16/13 A2994 RMK AO2 SLP128 T01560128 53006
KAPF 311501Z 23016KT 9SM VCTS BKN023 BKN029 BKN039 28/23 A3004 RMK AO2 LTG DSNT S-NW T02780233
KAPG 311356Z 23006KT 7SM BKN150 27/21 A3007
KAPN 311454Z AUTO 24007KT 10SM OVC008 21/18 A3004 RMK AO2 SLP173 T02060178 53007
KAPY 311455Z AUTO 13007KT 10SM OVC016 29/22 A2998 RMK AO2 T02920225
KAQO 311455Z AUTO 00000KT 10SM CLR 27/21 A3008 RMK AO2 PWINO
KAQP 311515Z AUTO 20010G15KT 10SM CLR 24/19 A2981 RMK AO2
KAQR 311515Z AUTO 19005KT CLR 28/19 A3005 RMK AO2
KAQV 311456Z AUTO VRB03KT 10SM FEW029 28/20 A3007 RMK AO2 SLP180 T02830200 51016
KAQW 311452Z AUTO 27005KT 10SM SCT034 26/19 A3001 RMK AO2 SLP161 T02560194 58006
KAQX 311515Z AUTO 01005KT 9SM OVC007 24/22 A3010 RMK AO2 LTG DSNT E-S
KARA 311502Z 32003KT 10SM BKN020 29/24 A3007 RMK AO2 T02940244
KARB 311453Z 29007KT 6SM HZ SCT012 24/19 A3011 RMK AO2 SLP192 T02390194 51010
KARG 311515Z AUTO 20005KT 10SM CLR 26/20 A3010 RMK AO1
KARM 311455Z AUTO 11006KT 10SM CLR 29/23 A3003 RMK AO2 LTG DSNT S AND SW T02900230
KARR 311452Z 00000KT 5SM HZ CLR 23/20 A3010 RMK AO2 SLP188 T02330200 53006
KART 311456Z AUTO 24008KT 3SM HZ FEW013 BKN050 23/19 A3001 RMK AO2 SLP156 T02330194 51005
KARV 311450Z AUTO 20009KT 10SM SCT011 22/19 A3001 RMK AO2 T02220194
KARW 311515Z AUTO 34008KT 7SM OVC011 26/24 A3006 RMK AO2 LTG DSNT E AND SE P0001
KASD 311453Z AUTO 02007KT 10SM CLR 29/23 A3008 RMK AO2 SLP184 T02890233 51012
KASE 311453Z 33004KT 10SM BKN085 13/11 A3034 RMK AO2 RAB1358E08 SLP162 P0000 60000 T01280106 51013
KASG 311448Z 19010KT 10SM SKC 27/20 A3010
KASH 311451Z AUTO 10SM CLR 28/18 RMK AO2 SLPNO 6//// T02830178 $
KASJ 311515Z AUTO 01004KT 3/4SM +RA VV005 21/20 A3016 RMK AO2 P0003 T02050197
KASL 311455Z AUTO 00000KT 10SM CLR 26/22 A3009 RMK AO1 T02580221
KASN 311515Z AUTO 00000KT 10SM OVC011 A3015 RMK AO2 LTG DSNT N
KAST 311455Z AUTO 19008KT 9SM BKN027 BKN035 OVC060 16/15 A3000 RMK AO2 SLP158 60008 T01610150 53005
KASW 311515Z AUTO 24005KT 10SM CLR 24/21 A3012 RMK AO2
KASX 311453Z AUTO 20011G18KT 10SM CLR 23/19 A2992 RMK AO2 SLP128 T02280189 56002
KATL 311452Z 09004KT 9SM BKN012 BKN025 BKN030 23/19 A3015 RMK AO2 SLP203 60000 T02280189 53009
KATP 311455Z AUTO 10009KT 10SM FEW032 FEW039 30/22 A3007 RMK A01
KATS 311515Z AUTO 15013KT 10SM CLR 24/14 A3009 RMK AO2
KATT 311451Z AUTO 23004KT 10SM FEW017 28/22 A3005 RMK AO2 SLP162 T02830222 51013
KATW 311445Z 21007KT 7SM BKN005 OVC016 19/19 A3003
KATY 311453Z AUTO 18015G23KT 10SM CLR 22/18 A2981 RMK AO2 SLP087 T02220178 53003
KAUG 311453Z AUTO 24010G17KT 10SM CLR 24/16 A2989 RMK AO2 SLP119 T02440156 58012
KAUH 311515Z AUTO 18009KT 10SM SCT008 22/21 A2996 RMK AO2 T02200211
KAUM 311516Z AUTO 18008KT 5SM BR BKN004 22/21 A2999 RMK AO2
KAUN 311515Z AUTO 11005KT 10SM CLR 19/02 A2995 RMK AO1
KAUO 311156Z AUTO 07004KT OVC003 22/21 A3010 RMK AO2 SLP204 70001 T02170211 10222 20217 53015 PWINO $
KAUS 311453Z 19006KT 10SM SCT021 SCT250 28/22 A3003 RMK AO2 SLP160 T02780222 51012
KAUW 311454Z AUTO 22005KT 2SM BR OVC004 18/17 A3003 RMK AO2 SLP171 T01780172 51004
KAVC 311516Z AUTO 17003KT 7SM OVC004 21/20 A3021 RMK AO2 T02050200
KAVK 311450Z AUTO 23005KT 5SM HZ CLR 23/18 A2996 RMK AO2
KAVL 311454Z 35007KT 10SM SCT015 22/16 A3021 RMK AO2 SLP206 T02220161 53005
KAVP 311454Z 22006KT 9SM CLR 26/19 A3008 RMK AO2 SLP178 T02560194 58001
KAVQ 311515Z AUTO 11008KT 10SM CLR 29/15 A2997 RMK AO2 T02940150
KAVX 311451Z AUTO 00000KT 10SM CLR 18/14 A2993 RMK AO2 SLP118 T01780139 53014
KAWM 311453Z AUTO 15004KT 10SM CLR 26/21 A3009 RMK AO2 SLP186 T02610211 51010
KAWO 311515Z AUTO 13013G18KT 10SM OVC029 16/09 A2993 RMK AO1
KAXA 311455Z AUTO 18012KT 6SM BR CLR 22/21 A2998 RMK AO2
KAXH 311455Z AUTO 10003KT 10SM CLR A3004 RMK AO2 LTG DSNT SE AND SW 6////
KAXN 311453Z AUTO 18013KT 10SM CLR 22/17 A2983 RMK AO2 SLP097 T02170172 55001
KAXS 311515Z AUTO 20006KT 10SM CLR 27/17 A3003 RMK AO2 T02650174
KAXV 311425Z AUTO 22004KT 10SM CLR 25/23 A3013 RMK AO2
KAXX 311455Z AUTO 00000KT 10SM CLR 12/08 A3040 RMK AO2 T01150082
KAYS 311455Z AUTO 01003KT 10SM BKN012 OVC030 28/26 A3009 RMK AO2 LTG DSNT E THRU S T02810255
KAZC 311515Z AUTO 15006KT 10SM SCT090 22/16 A3017 RMK AO2 T02210159
KAZE 311515Z AUTO 36005KT 10SM SCT011 OVC022 26/23 A3010 RMK AO2 T02610232
KAZO 311453Z 18004KT 6SM HZ BKN008 22/19 A3012 RMK AO2 SLP195 T02220194 52008
KBAB 311458Z AUTO 00000KT 10SM CLR 18/05 A2990 RMK AO2 SLP127 T01800050 52008 $
KBAC 311515Z AUTO 24011KT 10SM BKN026 BKN031 22/20 A2976 RMK AO2
KBAD 311458Z AUTO VRB05KT 10SM SCT210 28/20 A3007 RMK AO2 SLP184 T02800202 52016
KBAF 311453Z 25009KT 10SM CLR 29/18 A3000 RMK AO2 SLP155 T02890178 56004
KBAK 311350Z 18004KT 10SM SCT060 23/19 A3014
KBAN 311452Z AUTO 00000KT 10SM CLR 06/M02 A3020 RMK AO2 SLP154 T00611017 52005 $
KBAX 311513Z AUTO 23005KT 5SM BR OVC007 20/20 A3009 RMK AO2 T01980196
KBAZ 311511Z 16009KT 10SM BKN017 29/23 A3003 RMK AO2 T02940228
KBBB 311514Z AUTO 21014G18KT 10SM CLR 23/18 A2982 RMK AO2
KBBD 311455Z AUTO 20008KT 10SM CLR 28/21 A3006 RMK
KBBF 311455Z AUTO 16010KT 10SM CLR 30/23 A3000 RMK A01
KBBG 311450Z 18005KT 10SM FEW150 26/20 A3010
KBBP 311515Z AUTO 36003KT 10SM OVC008 24/22 A3011 RMK AO2
KBBW 311453Z AUTO 21007KT 10SM CLR 21/17 A2994 RMK AO2 SLP118 T02110172 53004
KBCB 311515Z AUTO 35003KT 10SM CLR 25/16 A3022 RMK AO2 T02500159
KBCE 311453Z AUTO 30003KT 10SM CLR 14/11 A3033 RMK AO2 SLP165 T01390106 51010
KBCK 311455Z AUTO 00000KT 5SM BR OVC005 19/19 A3002 RMK AO2 T01910191
KBCT 311450Z 17010KT 10SM BKN030 31/25 A3006
KBDE 311453Z AUTO 20010KT 10SM CLR 22/16 A2971 RMK AO2 SLP057 T02170161 53002 TSNO
KBDG 311455Z AUTO 00000KT 10SM CLR 19/13 A3030 RMK AO1 T01900133
KBDH 311515Z AUTO 17007KT 134V214 7SM CLR 22/20 A2988 RMK AO2
KBDL 311451Z 21007KT 9SM FEW024 SCT210 BKN250 26/21 A2999 RMK AO2 SLP156 T02610206 57003 $
KBDN 311515Z AUTO 00000KT 10SM CLR 10/05 A3011 RMK AO2
KBDR 311452Z 22007KT 10SM CLR 28/20 A3001 RMK AO2 SLP163 T02830200 56001
KBDU 311519Z AUTO 07006KT 10SM CLR 22/10 A3011 RMK AO2
KBEA 311515Z AUTO 17004KT 10SM SCT020 SCT025 SCT031 29/25 A3001 RMK AO2 LTG DSNT E T02890245
KBED 311456Z 30011KT 10SM SCT250 29/17 A2996 RMK AO2 SLP154 T02890167 58004
KBEH 311453Z AUTO 00000KT 4SM BR FEW019 23/21 A3009 RMK AO2 SLP188 T02280206 52009 $
KBFD 311453Z AUTO 27006KT 10SM CLR 24/18 A3015 RMK AO2 SLP194 T02390183 51004
KBFF 311453Z AUTO 31007KT 10SM SCT110 23/13 A2998 RMK AO2 RAE14 SLP102 P0000 60000 T02280133 53009
KBFI 311453Z 18011G22KT 10SM OVC034 18/11 A2997 RMK AO2 SLP147 T01830106 53003
KBFL 311454Z 11003KT 10SM CLR 21/08 A2993 RMK AO2 SLP130 T02110078 53011
KBFM 311453Z 32006KT 10SM CLR 31/22 A3010 RMK AO2 SLP191 T03060217 53015
KBFW 311515Z AUTO 20009KT 10SM CLR 23/18 A2988 RMK AO2
KBGD 311451Z AUTO 24016G24KT 10SM CLR 26/13 A3003 RMK AO2 SLP126 T02560128 50009
KBGE 311455Z AUTO 03003KT 10SM OVC005 25/22 A3010 RMK AO2
KBGF 311515Z AUTO 00000KT 10SM SCT021 24/19 A3016 RMK
KBGM 311501Z 32005KT 10SM BKN016 BKN022 24/19 A3010 RMK AO2 T02390194
KBGR 311453Z 24008KT 8SM FEW200 26/16 A2985 RMK AO2 SLP105 T02560156 58017
KBHB 311515Z 27004KT 10SM CLR 26/19 A2986 RMK AO1
KBHC 311455Z AUTO 33007KT 10SM SCT012 SCT019 OVC027 27/23 A3010 RMK AO2 LTG DSNT E AND S
KBHK 311451Z AUTO 28006KT 10SM CLR 17/11 A2998 RMK AO2 SLP136 T01670111 51020
KBHM 311514Z 00000KT 10SM FEW008 BKN014 OVC026 23/21 A3016 RMK AO2 T02330206
KBID 311515Z AUTO 25011KT 10SM CLR 26/22 A3001 RMK AO1
KBIE 311455Z AUTO 19008KT 7SM SCT046 23/21 A2998 RMK AO2 T02340211
KBIF 311458Z AUTO 17004KT 10SM CLR 25/09 A3009 RMK AO2 SLP122 P0442 61105 T02460087 51010 $
KBIH 311456Z AUTO 32005KT 10SM CLR 19/01 A3004 RMK AO2 SLP124 T01940006 53010
KBIJ 311515Z AUTO 00000KT 10SM OVC010 27/24 A3011 RMK AO2
KBIL 311453Z 20007KT 10SM SCT250 15/07 A3000 RMK AO2 SLP129 T01500067 51007
KBIS 311452Z 35012G18KT 10SM CLR 21/15 A2985 RMK AO2 SLP098 T02060150 51042
KBIV 311453Z AUTO 00000KT 6SM HZ OVC022 22/19 A3011 RMK AO2 SLP192 T02170189 53007
KBIX 311458Z AUTO VRB05KT 10SM CLR 30/23 A3008 RMK AO2 SLP189 T02960225 52012
KBJC 311447Z 10004KT 50SM BKN090 BKN120 23/08 A3013
KBJI 311514Z AUTO 19010G17KT 10SM CLR 23/15 A2975 RMK AO2 T02310150
KBJJ 311456Z AUTO 30003KT 9SM CLR 26/20 A3014 RMK AO2 SLP198 T02560200 52007 TSNO
KBKB 311454Z AUTO VRB03KT 10SM CLR 29/19 A3006 RMK AO2 SLP204 T02890194 51016
KBKD 311455Z AUTO 22009KT 10SM CLR 28/18 A3004 RMK AO2 T02830179
KBKE 311453Z AUTO 09003KT 10SM CLR 09/07 A3012 RMK AO2 SLP196 T00940067 51007 TSNO
KBKF 311458Z 08005KT 10SM SCT080 BKN110 BKN220 24/08 A3015 RMK AO2A SLP123 T02350083 52023
KBKL 311453Z 30007KT 9SM CLR 24/19 A3010 RMK AO2 SLP190 T02440194 51011
KBKN 311515Z AUTO 17006KT 10SM CLR 26/20 A3000 RMK AO2
KBKS 311455Z AUTO 14005KT 10SM CLR 29/24 A2998 RMK AO1 T02940242
KBKT 311455Z AUTO 00000KT 10SM BKN037 OVC046 21/20 A3016 RMK AO1 P0002 60002 T02140202
KBKV 311453Z 14003KT 10SM FEW013 27/24 A3007 RMK AO2 SLP180 T02720244 51018
KBKW 311451Z AUTO VRB03KT 10SM BKN021 BKN032 BKN120 23/15 A3023 RMK AO2 SLP205 T02280150 52009
KBKX 311515Z AUTO 18013G21KT 10SM FEW011 21/18 A2989 RMK AO1
KBLF 311452Z AUTO 00000KT 10SM SCT027 BKN070 24/15 A3025 RMK AO2 SLP206 60000 T02390150 53007
KBLH 311452Z AUTO 36003KT 10SM CLR 32/09 A2980 RMK AO2 SLP082 T03170089 53020
KBLI 311500Z 15014G21KT 10SM -RA 16/12 RMK AO2 P0001 $
KBLM 311515Z AUTO 24005KT 10SM FEW090 29/19 A3006 RMK AO1
KBLU 311452Z AUTO 17003KT 10SM CLR 18/M08 A3012 RMK AO2 SLP120 T01831083 53005
KBLV 311458Z AUTO VRB02KT 10SM CLR 26/24 A3008 RMK AO2 LTG DSNT E AND W SLP185 T02560239 51007
KBMC 311455Z AUTO 35004KT 10SM CLR 16/00 A3010 RMK AO1 T01601001
KBMG 311453Z 24004KT 10SM FEW065 SCT080 24/20 A3015 RMK AO2 SLP201 T02440200 51011
KBMI 311456Z 19004KT 5SM BR VV002 24/23 A3010 RMK AO2 51008 T02380233 SLP182
KBML 311452Z AUTO 10SM OVC032 23/16 A2993 RMK AO2 SLP134 T02280156 56012
KBMQ 311453Z AUTO 23005KT 10SM CLR 26/21 A3008 RMK AO2 SLP169 T02560211 51014
KBMT 311515Z AUTO 05004KT 10SM CLR 27/22 A3007 RMK AO2 LTG DSNT SW T02700217
KBNA 311453Z VRB03KT 10SM FEW018 SCT200 SCT250 26/18 A3016 RMK AO2 SLP208 T02560183 51012
KBNL 311515Z AUTO 05005KT 10SM OVC008 24/22 A3012 RMK AO2 LTG DSNT E AND SE
KBNO 311453Z AUTO 00000KT 10SM CLR 10/03 A3015 RMK AO2 SLP195 T01000033 51006
KBNW 311455Z AUTO 19006KT 6SM BR FEW006 SCT042 23/22 A3000 RMK AO2
KBOI 311453Z 19003KT 10SM CLR 14/06 A3010 RMK AO2 SLP174 T01390061 53008
KBOK 311456Z AUTO 00000KT 7SM CLR 13/13 A3005 RMK AO2 53002 T01270127 SLP177
KBOS 311454Z 26009G14KT 10SM FEW050 SCT250 29/18 A2996 RMK AO2 SLP146 T02890178 58002
KBOW 311452Z 11004KT 10SM SCT008 BKN055 27/24 A3008
KBPC 311515Z AUTO 24017G21KT 10SM CLR 25/12 A3001 RMK AO2
KBPG 311515Z AUTO 16009KT 10SM CLR 24/16 A3010 RMK AO2 T02410161
KBPI 311453Z AUTO 00000KT 10SM CLR 11/M03 A3025 RMK AO2 SLP166 T01061028 51010
KBPK 311453Z AUTO 15005KT 7SM CLR 26/21 A3009 RMK AO2 SLP178 T02560211 51009
KBPT 311453Z 04007KT 10SM CLR 28/23 A3005 RMK AO2 SLP175 T02780228 51016
KBQK 311455Z AUTO 29003KT 10SM SCT016 BKN022 26/24 A3008 RMK AO1 LTG DSNT E AND SE
KBQP 311455Z AUTO 28004KT 10SM CLR 30/18 A3009 RMK AO2 T03020184
KBQX 311455Z AUTO 11003KT FEW026 29/23 A3002 RMK A01
KBRD 311453Z AUTO 18014KT 7SM CLR 21/18 A2985 RMK AO2 SLP103 T02110183 58002
KBRL 311453Z AUTO 15004KT 7SM CLR 24/22 A3004 RMK AO2 SLP168 T02440217 50003
KBRO 311453Z 16009KT 10SM CLR 28/25 A2996 RMK AO2 SLP145 60006 T02830250 51004
KBTA 311515Z AUTO 19007KT 10SM CLR 23/21 A2997 RMK AO2 T02280208
KBTL 311510Z 30004KT 6SM HZ BKN013 OVC019 23/19 A3012 RMK AO2 T02280194
KBTM 311453Z AUTO 00000KT 10SM CLR 09/02 A3011 RMK AO2 SLP166 T00940022 50002
KBTP 311515Z AUTO 22004KT 10SM CLR 26/20 A3016 RMK AO1
KBTR 311453Z VRB03KT 10SM CLR 29/23 A3008 RMK AO2 SLP186 T02890233 51016
KBTV 311454Z 18008KT 10SM FEW040 SCT047 BKN055 25/18 A2994 RMK AO2 SLP137 HZ OBSCG MTNS E-S T02500178 56002
KBUF 311454Z 23010KT 5SM HZ FEW011 SCT016 BKN045 24/21 A3007 RMK AO2 SLP178 T02440206 53008
KBUR 311453Z 00000KT 10SM OVC011 21/17 A2990 RMK AO2 SLP112 T02110172 52012
KBUU 311455Z AUTO 00000KT 7SM CLR 19/19 A3008 RMK AO2 T01910190
KBUY 311513Z AUTO 00000KT 2 1/2SM BR OVC010 22/22 A3014 RMK AO2 CIG 008V014 T02170217
KBVE 311451Z AUTO 03005KT 10SM FEW026 SCT036 30/22 A3008 RMK AO2 SLP185 T03000217 51016
KBVI 311447Z 27003KT 10SM CLR 25/20 A3014
KBVN 311455Z AUTO 19009KT 5SM BR SCT006 20/19 A2993 RMK AO2 T02040190
KBVO 311453Z AUTO 15004KT 10SM CLR 24/22 A3000 RMK AO2 SLP149 T02440217 51009 $
KBVS 311455Z AUTO 13010G16KT 7SM OVC024 15/12 A2992 RMK A01
KBVU 311515Z AUTO 00000KT 10SM FEW090 31/06 A2990 RMK AO2
KBVX 311515Z AUTO 00000KT 10SM CLR 26/22 A3009 RMK AO1
KBVY 311453Z 27008KT 10SM CLR 28/17 A2995 RMK AO2 SLP136 T02780167 58004
KBWD 311455Z AUTO 00000KT 10SM CLR 26/19 A3006 RMK AO2
KBWG 311453Z AUTO VRB03KT 10SM CLR 26/19 A3016 RMK AO2 SLP207 T02560189 51009
KBWI 311454Z 24006KT 10SM FEW042 SCT110 BKN150 BKN250 29/19 A3009 RMK AO2 SLP188 60000 T02890189 53005
KBWP 311455Z AUTO 17012G16KT 10SM CLR 23/15 A2974 RMK AO1
KBXK 311455Z AUTO 10009KT 10SM CLR 32/18 A2987 RMK AO1
KBYG 311453Z AUTO 18006KT 8SM CLR 16/07 A3010 RMK AO2 SLP137 T01610067 51014
KBYI 311453Z AUTO 19003KT 10SM CLR 13/05 A3013 RMK AO2 SLP176 T01280050 51009
KBYS 311455Z AUTO 01007KT 10SM CLR 23/07 A2993 RMK AO2 SLP088 T02320071 52014 $
KBYY 311455Z AUTO 11005KT 10SM SCT022 BKN075 BKN085 30/24 A3002 RMK AO2 T03000249
KBZN 311456Z 00000KT 10SM CLR 11/04 A3007 RMK AO2 SLP163 T01060044 50004
KC09 311455Z AUTO 00000KT 5SM BR CLR 22/21 A3008 RMK AO2 T02170210
KC29 311455Z AUTO 21005KT 10SM OVC019 21/21 A3008 RMK AO1 T02140214
KC35 311455Z AUTO 20009KT 10SM OVC018 21/19 A3005 RMK AO2 T02090192
KC75 311455Z AUTO 00000KT 7SM CLR 24/21 A3006 RMK AO2 T02400210
KCAD 311515Z AUTO 24005KT 10SM OVC006 21/18 A3008 RMK AO2 T02140187
KCAE 311456Z 35004KT 10SM OVC010 24/19 A3012 RMK AO2 SLP196 T02390194 51007
KCAG 311453Z AUTO 06010KT 10SM FEW120 17/11 A3024 RMK AO2 SLP175 T01720106 51008
KCAK 311451Z 00000KT 8SM FEW250 26/19 A3013 RMK AO2 SLP193 T02560194 53006
KCAO 311455Z AUTO 25009KT 10SM CLR 26/12 A3006 RMK AO2 SLP110 T02560117 51005
KCAR 311454Z AUTO 23013G18KT 10SM SCT029 BKN036 OVC095 22/16 A2971 RMK AO2 SLP063 T02170156 58021 $
KCAV 311450Z AUTO 18010KT 8SM CLR 23/21 A2999 RMK AO2
KCBE 311456Z AUTO 16004KT 10SM CLR 26/20 A3018 RMK AO1
KCBF 311455Z AUTO 13005KT 5SM BR FEW005 22/21 A2998 RMK AO2
KCBG 311516Z AUTO 16008G14KT 10SM SCT014 24/18 A2990 RMK AO2
KCBK 311455Z AUTO 26006KT 10SM CLR 22/15 A2998 RMK AO2
KCBM 311510Z COR VRB02KT 10SM FEW010 SCT037 24/21 A3012 RMK AO2A RAB1458 $ COR 1514
KCCA 311455Z AUTO 00000KT 10SM CLR 26/23 A3011 RMK AO2
KCCO 311455Z AUTO 00000KT 5SM BR OVC003 21/21 A3015 RMK AO2 T02120212
KCCR 311453Z 19007KT 10SM CLR 19/13 A2993 RMK AO2 SLP121 T01890128 53006
KCCU 311513Z AUTO 27015KT 10SM SCT010 SCT018 SCT023 08/04 A3060 RMK AO2
KCCY 311515Z AUTO 17006KT 3SM BR OVC004 20/20 A3003 RMK AO2
KCDA 311515Z AUTO 00000KT 10SM OVC028 21/17 A2997 RMK AO2 T02060173
KCDC 311453Z AUTO 17005KT 10SM CLR 21/10 A3016 RMK AO2 SLP137 T02110100 51013
KCDD 311441Z AUTO 17008KT 120V200 10SM CLR 20/16 A2980 RMK AO2
KCDH 311515Z AUTO 30003KT 10SM CLR 29/20 A3007 RMK AO2
KCDJ 311452Z AUTO 18005KT 26/22 A3001 RMK AO1 SLP150 T02610222 50005
KCDN 311515Z AUTO 01007KT 10SM OVC010 23/20 A3013 RMK AO2 TSNO
KCDR 311453Z AUTO 27008KT 10SM -RA FEW075 BKN090 OVC110 24/12 A2994 RMK AO2 RAB1355E11B43 SLP108 P0000 60000 T02440117 53017
KCDS 311453Z AUTO 22004KT 10SM CLR 24/15 A3002 RMK AO2 SLP140 T02440150 51012
KCDW 311453Z 30006KT 10SM CLR 28/19 A3004 RMK AO2 SLP177 T02780189 56002
KCEC 311515Z AUTO 33003KT 1 1/4SM BR SCT008 15/14 A3005 RMK AO2 T01500139
KCEF 311458Z AUTO 24010KT 10SM FEW150 28/19 A2998 RMK AO2 SLP157 T02800190 58005
KCEU 311454Z AUTO 00000KT 10SM CLR 25/17 A3016 RMK AO2 SLP205 T02500172 53008
KCEW 311453Z AUTO 06003KT 10SM CLR 29/20 A3010 RMK AO2 SLP188 T02940200 51016
KCEY 311455Z AUTO 22005KT 10SM CLR 24/20 A3015 RMK AO1
KCEZ 311453Z AUTO 02005KT 10SM CLR 19/11 A3023 RMK AO2 SLP165 T01940106 50006
KCFD 311455Z AUTO 21005KT 10SM SCT018 SCT060 28/23 A3006 RMK AO2 T02840226
KCFE 311514Z AUTO 18012G15KT 10SM CLR 23/19 A2993 RMK AO2 T02250187
KCFS 311514Z AUTO 23005KT 1 1/2SM BR OVC002 18/17 A3010 RMK AO2 T01750174
KCFV 311452Z AUTO 18007KT 10SM CLR 24/21 A3001 RMK AO2 SLP155 T02440211 51011
KCGC 311515Z AUTO 00000KT 10SM SCT049 28/24 A3006 RMK AO2
KCGE 311455Z AUTO 24004KT 10SM CLR 28/18 A3010 RMK AO1
KCGF 311345Z 30008KT 6SM HZ FEW200 25/21 A3011
KCGI 311453Z 21004KT 10SM CLR 26/21 A3011 RMK AO2 SLP192 T02560206 50007
KCGS 311455Z AUTO 23003KT 10SM SCT050 28/18 A3010 RMK AO1
KCGZ 311515Z AUTO 00000KT SCT100 31/17 A2991 RMK AO1
KCHA 311453Z 00000KT 10SM SCT025 SCT050 SCT070 25/18 A3016 RMK AO2 SLP205 T02500183 53007
KCHD 311447Z 00000KT 40SM SCT150 30/20 A2990
KCHK 311455Z AUTO 18007KT 10SM CLR 26/18 A3001 RMK AO2
KCHO 311453Z 00000KT 10SM CLR 24/19 A3013 RMK AO2 SLP196 T02390189 51008
KCHS 311502Z 02006KT 10SM BKN010 BKN035 24/23 A3006 RMK AO2 T02440233
KCIC 311455Z 00000KT 10SM SKC 18/04 A2992
KCID 311452Z 15005KT 5SM BR CLR 23/22 A3003 RMK AO2 SLP166 T02280222 53002
KCIN 311455Z AUTO 17006KT 7SM CLR 22/22 A2998 RMK AO2
KCIR 311455Z AUTO 16005KT 10SM CLR 24/22 A3013 RMK AO2 LTG DSNT N AND NW T02440216
KCIU 311515Z AUTO 21003KT 10SM OVC006 21/19 A3002 RMK AO1
KCJR 311450Z AUTO 00000KT 10SM SCT110 24/20 A3013 RMK AO2 T02430198
KCKB 311453Z VRB04KT 10SM BKN037 BKN150 26/19 A3017 RMK AO2 RAB11E20B46E50 SLP200 P0000 60000 T02610189 53010
KCKC 311513Z AUTO 20007KT 7SM SCT006 19/16 A2992 RMK AO2
KCKF 311455Z AUTO 08003KT 10SM SCT016 OVC023 28/23 A3012 RMK AO2 LTG DSNT S T02830234
KCKI 311515Z AUTO 00000KT 10SM OVC005 24/24 A3010 RMK AO2
KCKM 311455Z AUTO 15005KT 10SM CLR 27/22 A3010 RMK AO1
KCKN 311515Z AUTO 22008KT 10SM OVC024 22/17 A2971 RMK AO2
KCKP 311455Z AUTO 19007KT 2SM BR OVC003 21/21 A2996 RMK AO2 T02060206
KCKV 311452Z AUTO 30003KT 10SM CLR 25/19 A3015 RMK AO2 SLP203 T02500189 50009
KCLE 311451Z 23003KT 10SM FEW250 25/20 A3013 RMK AO2 SLP197 T02500200 51008
KCLI 311515Z AUTO 23005KT 7SM BKN006 OVC017 18/18 A3004 RMK AO2
KCLK 311455Z AUTO 19009KT 10SM 26/13 A3001 RMK AO2
KCLL 311453Z 18006KT 10SM FEW022 27/23 A3004 RMK AO2 SLP168 T02720228 51013
KCLM 311453Z AUTO 00000KT 10SM -RA SCT060 BKN080 OVC090 14/13 A2989 RMK AO2 RAE02B22 SLP120 P0000 60000 T01440128 53007
KCLS 311515Z AUTO 20013G18KT 10SM FEW026 OVC035 17/13 A3001 RMK A01
KCLT 311452Z 35003KT 10SM SCT030 26/18 A3014 RMK AO2 SLP199 T02560183 53007
KCLW 311455Z AUTO 13007KT 10SM CLR 28/24 A3004 RMK AO2
KCMA 311455Z 00000KT 8SM FEW010 21/17 A2989 RMK AO2 SLP130 T02110167 51017
KCMD 311515Z AUTO 00000KT 10SM SCT012 BKN019 22/19 A3017 RMK AO2
KCMH 311451Z 32003KT 9SM FEW250 26/20 A3013 RMK AO2 SLP196 T02610200 51008
KCMI 311453Z VRB05KT 9SM FEW012 26/21 A3011 RMK AO2 SLP190 T02560211 51009
KCMR 311515Z AUTO 14009KT 10SM CLR 19/13 A3033 RMK AO2
KCMX 311453Z AUTO 17005KT 10SM CLR 22/17 A2993 RMK AO2 SLP133 T02170172 53001 TSNO $
KCMY 311455Z AUTO 19005KT 7SM OVC006 20/19 A3004 RMK AO2 T02010185
KCNB 311514Z AUTO 21013G21KT 10SM CLR 24/18 A2982 RMK AO2 T02400178
KCNC 311455Z AUTO 15007KT 9SM CLR 25/22 A3001 RMK AO2
KCNI 311455Z AUTO 00000KT 10SM OVC070 23/15 A3018 RMK AO2
KCNK 311455Z AUTO 17008KT 5SM BR CLR 23/21 A2996 RMK AO2 SLP134 T02330211 50005
KCNM 311453Z AUTO 15010KT 10SM FEW120 23/13 A3006 RMK AO2 SLP127 T02330128 50013 $
KCNO 311453Z 25004KT 10SM FEW100 21/17 A2991 RMK AO2 SLP122 T02110172 53013
KCNU 311452Z AUTO 16010KT 9SM CLR 24/21 A3001 RMK AO2 SLP153 T02440211 51011
KCNW 311450Z 00000KT 10SM SKC 27/22 A3004
KCNY 311453Z AUTO 14005KT 10SM BKN120 19/15 A3013 RMK AO2 SLP155 60000 T01890150 51014
KCOD 311515Z AUTO 27009KT 10SM CLR 18/01 A3004 RMK AO1
KCOE 311515Z AUTO 19010KT 10SM FEW110 13/08 A3005 RMK AO1
KCOF 311458Z AUTO 16012KT 10SM CLR 30/25 A3007 RMK AO2 CIG 024 RWY02 SLP187 T03000251 52017 $
KCOM 311455Z AUTO 24008KT 10SM CLR 26/20 A3007 RMK AO2 T02580197
KCON 311451Z AUTO 28008KT 10SM CLR 28/17 A2995 RMK AO2 SLP142 T02780172 58007
KCOQ 311515Z AUTO 18010KT 10SM CLR 21/17 A2990 RMK AO2
KCOS 311454Z 26006KT 10SM FEW080 BKN120 BKN200 23/07 A3017 RMK AO2 SLP119 VCSH S-SW T02280067 51021
KCOT 311453Z AUTO 15009KT 10SM CLR 27/23 A3001 RMK AO2 SLP154 T02720228 51019 $
KCOU 311454Z 17007KT 10SM CLR 26/22 A3006 RMK AO2 SLP170 T02610217 51009
KCPC 311455Z AUTO 00000KT 3SM +RA SCT006 BKN035 OVC065 24/22 A3011 RMK AO2 P0002 60012 T02370218
KCPK 311455Z AUTO 00000KT 10SM -RA SCT022 SCT047 BKN090 24/22 A3016 RMK AO2
KCPR 311453Z 35004KT 10SM CLR 18/07 A3010 RMK AO2 SLP131 T01780072 51016
KCPS 311453Z 20005KT 10SM CLR 27/21 A3007 RMK AO2 SLP179 T02670211 51006
KCPT 311455Z AUTO 18004KT 10SM 26/22 A3006 RMK AO2 TSNO
KCPW 311508Z AUTO 20007KT 10SM CLR 08/05 A3064 RMK AO2
KCQB 311455Z AUTO 21009KT 10SM CLR 25/20 A3001 RMK AO2
KCQC 311453Z AUTO 29013KT 10SM CLR 20/09 A3027 RMK AO2 SLP151 T02000089 51011
KCQF 311455Z 10SM CLR 28/22 A3009 RMK AO2
KCQM 311515Z AUTO 17008KT 141V211 10SM CLR 21/16 A2982 RMK AO2
KCQT 311447Z AUTO 00000KT 10SM OVC015 22/18 A2989 RMK AO2 SLP117 T02170178 53012
KCQW 311515Z AUTO 03003KT 10SM OVC012 22/20 A3012 RMK AO2 LTG DSNT SE AND S
KCQX 311452Z AUTO VRB03KT 10SM CLR 29/23 A2998 RMK AO2 SLP153 T02890233 58002
KCRE 311504Z 19005KT 3SM RA BR FEW009 BKN050 OVC110 24/23 A3009 RMK AO1 P0002 T02390228
KCRG 311453Z 28003KT 10SM BKN012 BKN031 27/23 A3008 RMK AO2 SLP186 T02720233 53018
KCRH 311455Z AUTO 14003KT 10SM CLR 29/23 A3005 RMK A01
KCRP 311451Z 15008KT 10SM SCT023 SCT035 BKN200 BKN250 31/23 A2998 RMK AO2 SLP151 CB DSNT NE MOV NE TCU DSNT NE E SE S T03060233 50012
KCRQ 311453Z AUTO 15005KT 10SM OVC014 20/17 A2990 RMK AO2 SLP122 T02000167 53014
KCRS 311453Z AUTO 21007KT 10SM CLR 28/22 A3006 RMK AO2 SLP173 T02780217 51014
KCRW 311454Z 00000KT 10SM FEW025 SCT170 26/19 A3016 RMK AO2 SLP204 T02610194 51009
KCRX 311455Z AUTO 00000KT 10SM CLR 24/19 A3013 RMK AO2
KCSG 311451Z 09006KT 10SM BKN042 26/21 A3011 RMK AO2 SLP193 T02610206 53015
KCSM 311453Z 20015KT 10SM CLR 27/15 A3002 RMK AO2 SLP142 T02670150 51013
KCSQ 311455Z AUTO 19009KT 5SM BR FEW006 24/22 A3002 RMK AO2
KCSV 311453Z AUTO 00000KT 10SM CLR 25/17 A3021 RMK AO2 SLP208 T02500172 51010
KCTB 311456Z AUTO 25026G39KT 10SM CLR 13/01 A2989 RMK AO2 PK WND 26041/1445 SLP109 T01330006 51018
KCTJ 311455Z AUTO 09003KT 10SM BKN009 OVC050 23/20 A3019 RMK AO2 T02320204
KCTY 311453Z AUTO 05003KT 27/24 A3007 RMK AO1 SLP181 T02670244 53015
KCTZ 311455Z AUTO 00000KT 10SM SCT005 BKN021 24/23 A3013 RMK AO2 60009 T02400233
KCUB 311453Z AUTO VRB03KT 10SM OVC013 24/20 A3013 RMK AO2 SLP200 T02390200 51013 TSNO
KCUH 311455Z AUTO 19008KT CLR 25/21 A3000 RMK AO2 PWINO
KCUL 311455Z AUTO 19009KT 10SM CLR 25/21 A3013 RMK AO2 LTG DSNT N AND NW T02500209
KCUT 311453Z AUTO 00000KT 10SM CLR 21/08 A3007 RMK AO2 SLP114 T02060083 52014
KCVB 311455Z AUTO 15008KT 10SM CLR 28/20 A3005 RMK AO2 T02780196
KCVC 311455Z AUTO 00000KT 10SM 25/21 A3014 RMK AO2
KCVG 311452Z 28007KT 10SM FEW120 26/20 A3016 RMK AO2 SLP202 T02610200 51010
KCVH 311505Z AUTO 00000KT 9SM CLR 16/12 A2998 RMK AO1
KCVN 311515Z AUTO 21012G16KT 10SM CLR 25/11 A3012 RMK AO1
KCVO 311515Z 00000KT 10SM CLR 13/11 A3010 RMK AO1
KCVS 311458Z AUTO 20008KT 10SM CLR 23/12 A3011 RMK AO2 SLP141 T02250118 51010 $
KCVW 311455Z AUTO 03008KT 10SM CLR 28/23 A3008 RMK A01
KCVX 311515Z AUTO 21008KT 10SM BKN010 22/19 A3005 RMK AO2 T02170190
KCWA 311455Z 22004KT 3/4SM BR OVC002 18/18 A3006
KCWC 311515Z AUTO 21009G15KT 10SM CLR 29/17 A3003 RMK AO2 T02900166
KCWF 311450Z 04007KT 10SM SCT060 28/23 A3007
KCWI 311515Z 15005KT 7SM CLR 22/20 A3008 RMK AO1
KCWN 311456Z AUTO 17003KT 10SM BKN090 22/04 A3017 RMK AO2 SLP024 T02150044 52020 $
KCXE 311455Z AUTO 14003KT 10SM BKN006 OVC014 23/23 A3016 RMK AO1 60011 T02340233
KCXO 311453Z VRB03KT 10SM CLR 28/21 A3006 RMK AO2 SLP175 T02780211 51014
KCXP 311455Z AUTO 00000KT 10SM CLR 12/M01 A3013 RMK AO2
KCXY 311456Z 23006KT 10SM CLR 27/20 A3009 RMK AO2 SLP186 T02720200 51003
KCYS 311453Z 28013KT 10SM CLR 21/08 A3015 RMK AO2 SLP118 T02110083 51016
KCZT 311455Z AUTO 13008KT 10SM BKN015 26/22 A2999 RMK AO2
KCZZ 311452Z AUTO 00000KT 18/09 A2994 RMK AO1 SLP110 T01780094 53009
KD07 311456Z AUTO 34017G22KT 18/12 A2993 RMK AO1 PK WND 32028/1428 SLP118 T01830122 53046
KD25 311455Z AUTO 22007KT 10SM SCT011 20/18 A3000 RMK AO2 T02020176
KD39 311514Z AUTO 17011G17KT 10SM CLR 22/19 A2985 RMK AO2 T02180187
KD50 311455Z AUTO 25017G22KT 10SM CLR 17/09 A2983 RMK AO2
KD55 311515Z AUTO 30011KT 10SM CLR 21/17 A2975 RMK AO2
KD57 311515Z AUTO 31011KT 10SM CLR 21/11 A2990 RMK AO2
KD60 311435Z AUTO 27016G22KT 10SM CLR 17/10 A2988 RMK AO2
KD95 311514Z AUTO 29003KT 4SM BR OVC008 20/18 A3011 RMK AO2 T01980179
KDAA 311458Z AUTO 18004KT 10SM CLR 26/20 A3011 RMK AO2 SLP199 T02630197 52006
KDAB 311453Z 22007KT 10SM FEW030 SCT085 BKN150 28/24 A3008 RMK AO2 SLP185 T02830244 51017
KDAG 311450Z AUTO 31012KT 10SM CLR 23/09 A2992 RMK AO2 SLP104 T02330094 51014
KDAL 311453Z 00000KT 10SM FEW300 28/19 A3003 RMK AO2 SLP162 T02780194 51013
KDAN 311510Z AUTO 13005KT 10SM FEW014 SCT029 BKN037 24/19 A3015 RMK AO2 T02440194
KDAW 311451Z AUTO 26007KT 10SM CLR 27/17 A2994 RMK AO2 SLP134 T02670167 58006
KDAY 311456Z 26004KT 10SM FEW020 FEW070 26/21 A3015 RMK AO2 SLP204 T02560211 51009
KDBN 311455Z AUTO 01003KT 10SM OVC006 21/20 A3014 RMK AO2
KDBQ 311453Z 18007KT 5SM BR CLR 22/20 A3007 RMK AO2 SLP178 T02170200 53002
KDCA 311452Z 17006KT 10SM FEW070 SCT160 OVC250 27/21 A3011 RMK AO2 SLP196 T02720211 53005
KDCM 311515Z AUTO 01003KT 7SM BKN017 27/18 A3014 RMK AO2
KDCU 311510Z AUTO 19003KT 10SM BKN017 24/20 A3015 RMK AO2 T02390200
KDCY 311455Z AUTO 21007KT 10SM CLR 26/19 A3013 RMK AO2 LTG DSNT W AND NW T02590194
KDDC 311452Z AUTO 18014KT 9SM CLR 25/14 A2997 RMK AO2 SLP120 T02500139 51006
KDDH 311454Z AUTO 26008KT 10SM SCT026 SCT033 26/18 A3002 RMK AO2 SLP162 T02560183 56002 $
KDEC 311454Z VRB03KT 10SM CLR 27/22 A3009 RMK AO2 SLP183 T02670217 51007
KDED 311455Z AUTO 18004KT 28/24 A3009 RMK AO1
KDEH 311455Z AUTO VRB06G14KT 8SM CLR 22/20 A3002 RMK AO2
KDEN 311453Z 07003KT 10SM SCT110 BKN150 BKN200 23/08 A3012 RMK AO2 SLP115 T02330078 51019
KDEQ 311453Z AUTO 16004KT 8SM CLR 27/21 A3005 RMK AO2 SLP170 T02670211 53007
KDET 311453Z 28009G16KT 9SM FEW019 24/18 A3009 RMK AO2 SLP186 T02390178 51008
KDEW 311453Z AUTO 15006KT 10SM FEW017 BKN110 11/08 A3004 RMK AO2 SLP171 T01060078 51011 $
KDFI 311453Z AUTO 23003KT 6SM HZ CLR 23/21 A3012 RMK AO2 SLP194 T02330206 53010
KDFW 311453Z 19004KT 10SM FEW300 28/19 A3003 RMK AO2 SLP159 T02780194 51013
KDGW 311453Z AUTO 02009KT 10SM CLR 19/07 A3009 RMK AO2 SLP131 T01940072
KDHN 311514Z 03004KT 7SM OVC003 26/23 A3014 RMK AO2 T02560228
KDHT 311453Z AUTO 20017G25KT 9SM CLR 25/11 A3006 RMK AO2 SLP117 T02500106 50010
KDIJ 311456Z AUTO 20008KT 10SM CLR 16/M03 A3021 RMK AO2 53012 T01611033 SLP150
KDIK 311456Z AUTO 29015KT 10SM CLR 18/11 A2991 RMK AO2 SLP116 T01830106 51025
KDKB 311455Z AUTO 00000KT 7SM CLR 23/21 A3009 RMK AO2 T02330209
KDKK 311508Z AUTO 24010KT 10SM BKN015 BKN050 24/20 A3009 RMK AO2 T02440200
KDKR 311455Z AUTO 18004KT 10SM FEW021 SCT047 28/22 A3009 RMK AO2
KDLF 311458Z AUTO 14009KT 10SM CLR 27/21 A3001 RMK AO2 SLP149 T02690213 52013 $
KDLH 311455Z 20011KT 8SM SCT007 21/17 A2989 RMK AO2 SLP120 T02060172 52001
KDLL 311455Z AUTO 20005KT 10SM OVC017 21/19 A3006 RMK AO2 T02120185
KDLN 311453Z AUTO 21008KT 10SM CLR 12/02 A3009 RMK AO2 SLP152 T01220017 50006
KDLP 311455Z AUTO 01008KT 10SM CLR 29/22 A3007 RMK A01
KDLS 311453Z AUTO 12004KT 10SM FEW070 14/08 A3006 RMK AO2 SLP177 T01390083 53008
KDLZ 311519Z AUTO 00000KT 10SM CLR 26/19 A3015 RMK AO2
KDMA 311458Z AUTO 14007KT 10SM CLR 27/15 A3001 RMK AO2 SLP118 T02670154 52014 $
KDMH 311454Z AUTO 30/19 A3009 RMK AO1 SLP188 T03000189 53003
KDMN 311453Z AUTO 00000KT 10SM CLR 23/13 A3012 RMK AO2 SLP120 T02330133 51010
KDMO 311453Z AUTO 20008KT 10SM CLR 28/21 A3005 RMK AO2 SLP164 T02780206 51010
KDMW 311455Z AUTO 27004KT 10SM CLR 27/20 A3012 RMK AO2
KDNL 311453Z AUTO 33008KT 10SM OVC005 26/21 A3013 RMK AO2 SLP199 T02610206 51017
KDNN 311455Z AUTO 00000KT 10SM SCT050 23/20 A3016 RMK AO2
KDNS 311515Z AUTO VRB05KT 7SM FEW007 22/21 A2996 RMK AO2
KDNV 311455Z AUTO 20004KT 5SM HZ CLR 26/22 A3008 RMK AO2 T02560219
KDOV 311458Z AUTO 24007KT 9SM FEW210 29/22 A3008 RMK AO2 SLP189 T02850215 53003 VISNO RWY19 CHINO RWY19 $
KDPA 311452Z 00000KT 7SM CLR 23/19 A3009 RMK AO2 SLP184 T02280194 53005
KDPL 311455Z AUTO 28006KT 1 1/2SM +RA 23/22 A3014 RMK AO2 P0068 60162 T02270222
KDQH 311455Z AUTO 01007KT 10SM SCT017 OVC027 28/22 A3011 RMK AO2 LTG DSNT E AND S
KDRA 311453Z AUTO 00000KT 10SM CLR 23/03 A2997 RMK AO2 SLP100 T02330033 51016 $
KDRI 311515Z AUTO 00000KT 10SM BKN009 OVC013 28/20 A3010 RMK AO2 T02770198
KDRM 311515Z AUTO 00000KT 7SM OVC006 20/18 A3002 RMK AO2 T02000184
KDRO 311453Z AUTO 08004KT 10SM OVC090 17/09 A3028 RMK AO2 SLP174 T01670089 51011
KDRT 311453Z AUTO 13008KT 10SM CLR 27/21 A3000 RMK AO2 SLP142 T02670211 51013
KDSM 311454Z 17006KT 7SM FEW014 24/21 A2999 RMK AO2 SLP148 T02440211 50002
KDSV 311506Z AUTO VRB03KT 10SM SCT029 27/21 A3008 RMK AO2 T02670206 $
KDTA 311455Z AUTO 19006KT 10SM CLR 19/04 A3011 RMK AO1 T01860035
KDTL 311515Z AUTO 19011KT 10SM CLR 24/15 A2977 RMK AO2
KDTN 311453Z 27003KT 10SM CLR 26/21 A3008 RMK AO2 SLP182 T02610206 51016
KDTO 311453Z 20007KT 10SM CLR 28/19 A3003 RMK AO2 SLP160 T02830194 51013
KDTS 311453Z AUTO VRB05KT 10SM CLR 30/21 A3007 RMK AO2 SLP183 T03000211 51015 TSNO
KDTW 311453Z COR 27007KT 7SM SCT030 25/19 A3010 RMK AO2 SLP190 T02500194 51009
KDUA 311515Z AUTO 21005KT 10SM CLR 28/20 A3006 RMK AO2
KDUB 311455Z AUTO 33011KT 10SM CLR 12/M06 A3020 RMK AO2
KDUC 311515Z AUTO 20007KT 10SM CLR 28/18 A3004 RMK AO2
KDUG 311456Z AUTO 16003KT 10SM CLR 22/17 A3014 RMK AO2 SLP142 T02220167 51014
KDUH 311515Z AUTO 26004KT 7SM SCT017 27/21 A3011 RMK AO2 T02670211
KDUJ 311453Z AUTO 26006KT 7SM CLR 23/19 A3015 RMK AO2 SLP196 T02330189 53004
KDUX 311515Z AUTO 21018G22KT 10SM CLR 25/11 A3006 RMK AO2 T02490113
KDVK 311455Z AUTO 36004KT 10SM CLR 25/16 A3019 RMK AO2
KDVL 311515Z AUTO 31016G21KT 10SM CLR 21/14 A2976 RMK AO1
KDVN 311452Z AUTO 14005KT 8SM CLR 24/21 A3006 RMK AO2 SLP175 T02390206 51004
KDVO 311515Z AUTO 00000KT 10SM CLR 17/12 A2995 RMK AO2
KDVP 311513Z AUTO 19015G21KT 4SM BR BKN008 21/20 A2993 RMK AO2 T02100199
KDVT 311453Z AUTO 11009KT 10SM CLR 32/17 A2990 RMK AO2 SLP095 T03170167 51017
KDWH 311453Z 00000KT 10SM CLR 28/23 A3004 RMK AO2 SLP171 T02830228 51014
KDWU 311515Z AUTO 31003KT 10SM FEW050 27/21 A3014 RMK AO1
KDWX 311455Z AUTO 12004KT 10SM CLR 15/12 A3026 RMK AO2 T01530115
KDXR 311453Z 29004KT 10SM CLR 27/19 A3004 RMK AO2 SLP169 T02670189 58001
KDXX 311513Z AUTO 20012G15KT 10SM CLR 24/18 A2981 RMK AO2
KDYB 311515Z AUTO 36005KT 10SM SCT013 OVC023 26/24 A3008 RMK AO1 LTG DSNT E AND SE
KDYL 311454Z AUTO 22003KT 10SM CLR 26/20 A3007 RMK AO2 SLP176 T02560200 51001
KDYR 311515Z 10SM CLR RMK AO1
KDYS 311458Z AUTO 20010KT 10SM CLR 27/19 A3004 RMK AO2 SLP126 T02730191 50012 $
KDYT 311514Z AUTO 19010KT 10SM BKN018 23/19 A2989 RMK AO2
KDZB 311515Z AUTO 00000KT 10SM CLR 28/21 A3006 RMK AO2 T02750213
KDZJ 311455Z AUTO 06003KT 10SM 24/09 A3020 RMK AO2 T02350087
KE11 311455Z AUTO 18008KT 10SM CLR 24/15 A3009 RMK AO2 T02390147
KE16 311455Z AUTO 00000KT 10SM CLR 15/12 A2998 RMK AO2 SOUTH WIND SOCK OUT OF SERVICE
KE38 311455Z AUTO 22006KT 10SM CLR 26/10 A3020 RMK AO2 T02560097
KE80 311515Z AUTO 00000KT 10SM CLR 24/08 A3020 RMK AO2 T02390084
KEAR 311515Z AUTO 19010KT 10SM CLR 22/18 A2994 RMK AO1
KEAT 311455Z AUTO 00000KT 10SM FEW055 16/06 A2995 RMK AO2 SLP136 T01560061 52003
KEAU 311456Z 19006KT 6SM BR OVC009 21/19 A2999 RMK AO2 SLP153 T02060189 51004
KEBA 311455Z AUTO 10005KT 10SM SCT014 27/23 A3017 RMK AO2 T02690231
KEBG 311515Z AUTO 18008KT 10SM CLR 31/24 A2996 RMK AO2 LTG DSNT E AND SE T03060237
KEBS 311455Z AUTO 17007KT 8SM CLR 23/21 A2998 RMK AO2
KECG 311454Z 29005KT 10SM -RA FEW070 OVC110 26/21 A3015 RMK AO2 RAB39 SLP208 P0000 60000 T02610206 53005
KECP 311453Z 00000KT 10SM CLR 30/22 A3007 RMK AO2 SLP192 T03000217 51016
KECS 311515Z AUTO 32008KT 10SM CLR 16/10 A3002 RMK AO2
KECU 311455Z AUTO 15007KT 10SM BKN003 23/21 A3011 RMK AO2
KEDC 311455Z AUTO 00000KT 10SM FEW018 28/22 A3005 RMK AO2
KEDE 311515Z AUTO 32004KT 3SM RA BKN050 OVC060 23/21 A3017 RMK AO2 T02250208
KEDJ 311510Z AUTO 00000KT 10SM CLR 25/20 A3016 RMK AO1
KEDN 311515Z AUTO 00000KT 10SM CLR 28/21 A3010 RMK AO2
KEDU 311455Z AUTO 00000KT 9SM CLR 17/11 A2991 RMK AO1
KEDW 311458Z 17004KT 90SM FEW250 20/07 A2994 RMK AO2A SLP114 T01970066 52015
KEED 311456Z AUTO 35003KT 10SM CLR 33/06 A2982 RMK AO2 SLP058 T03280061 53017
KEEN 311515Z AUTO 29007KT 10SM FEW043 26/17 A2999 RMK AO1
KEEO 311453Z AUTO 10005KT 10SM SCT065 SCT100 15/12 A3026 RMK AO2 SLP153 6//// T01500117 $
KEET 311505Z AUTO 32005KT 10SM BKN016 BKN021 26/21 A3013 RMK AO2 T02560211
KEFD 311450Z 00000KT 10SM SCT020 BKN100 30/23 A3004
KEFK 311455Z AUTO 26007G16KT 10SM BKN024 OVC029 21/17 A2995 RMK AO2 T02110170
KEFT 311455Z AUTO 19006KT 10SM CLR 22/20 A3007 RMK AO2
KEGE 311450Z 00000KT 10SM BKN090 14/13 A3032
KEGI 311455Z 01004KT 10SM FEW250 30/20 A3007 RMK AO2A SLP183 T02970199 51015 $
KEGV 311455Z AUTO 23008KT 10SM SCT011 21/17 A3002 RMK AO2 T02050166
KEHA 311508Z AUTO 20011KT 26/11 RMK AO1 PK WND 20 000 T02560112
KEHC 311455Z AUTO 05014KT 10SM CLR 29/23 A3003 RMK A01
KEHO 311458Z AUTO 00000KT 10SM CLR 23/17 A3015 RMK AO2
KEHR 311515Z AUTO 24008KT 10SM CLR 27/19 A3012 RMK AO1
KEHY 311455Z AUTO 26011G16KT 10SM CLR 19/03 A3021 RMK AO2
KEIK 311515Z AUTO 10003KT 10SM BKN120 24/09 A3010 RMK AO2 T02360091
KEIR 311455Z AUTO 18007KT 10SM FEW024 28/24 A3007 RMK A01
KEKM 311450Z 00000KT 3SM BR SCT001 22/22 A3012 RMK AO2
KEKN 311451Z AUTO 00000KT 10SM BKN120 23/17 A3021 RMK AO2 SLP221 T02280167 51006 TSNO
KEKO 311456Z AUTO 00000KT 10SM CLR 12/M07 A3016 RMK AO2 SLP172 T01171067 51009
KEKQ 311456Z AUTO VRB03KT 10SM CLR 27/19 A3020 RMK AO2 51008 T02660194 SLP222
KEKS 311455Z AUTO 20007KT 10SM CLR 16/00 A3009 RMK A01
KELA 311455Z AUTO 13003KT 10SM SCT021 SCT029 SCT034 30/24 A3002 RMK AO2 T02960239
KELD 311453Z AUTO 00000KT 10SM CLR 28/19 A3008 RMK AO2 SLP182 T02780194 50017
KELK 311455Z AUTO 19011KT 10SM CLR 25/15 A3001 RMK AO2 T02460152
KELM 311453Z 23007KT 10SM CLR 27/21 A3006 RMK AO2 SLP174 T02670211 51001
KELN 311453Z AUTO 00000KT 10SM SCT048 13/07 A2999 RMK AO2 SLP153 T01330067 53004
KELO 311512Z AUTO 21007KT 10SM CLR 22/14 A2985 RMK AO2
KELP 311451Z 15005KT 10SM CLR 25/10 A3009 RMK AO2 SLP112 T02500100 51010
KELY 311453Z AUTO 16004KT 10SM CLR 13/M02 A3021 RMK AO2 SLP143 T01281022 51013 $
KELZ 311513Z AUTO 30011G16KT 10SM SCT023 BKN029 25/18 A3015 RMK AO2 T02500178 $
KEMK 311455Z AUTO 10005KT 8SM CLR 29/21 A3002 RMK A01
KEMM 311455Z AUTO 35008KT 10SM CLR 08/M01 A3026 RMK AO2
KEMP 311453Z AUTO 15006KT 6SM BR SCT002 22/21 A2999 RMK AO2 SLP148 T02170211 50007
KEMT 311447Z 23004KT 10SM CLR 21/18 A2991
KEMV 311455Z AUTO 12003KT 3SM RA SCT004 BKN031 OVC049 21/20 A3016 RMK AO2 P0009
KEND 311455Z 18011KT 10SM CLR 26/18 A2997 RMK AO2A SLP138 51014
KENV 311515Z AUTO 15006KT 10SM CLR 21/M03 A3012 RMK AO1
KENW 311453Z 00000KT 5SM HZ CLR 22/19 A3009 RMK AO2 SLP186 T02220194 51007 $
KEOE 311515Z AUTO 03005KT 10SM OVC015 23/20 A3017 RMK AO2 LTG DSNT E AND SE
KEOK 311455Z AUTO VRB03KT 9SM CLR 26/22 A3004 RMK AO2
KEPH 311453Z AUTO 20005KT 10SM FEW120 16/08 A2996 RMK AO2 SLP143 T01560078 53005
KEQA 311455Z AUTO 16007KT 10SM CLR 26/21 A2998 RMK AO2
KEQY 311453Z AUTO 05005KT 10SM OVC008 23/19 A3014 RMK AO2 SLP207 T02280194 51009
KERI 311451Z 25004KT 10SM CLR 26/19 A3010 RMK AO2 SLP186 T02560189 53007
KERV 311515Z AUTO 17008KT 10SM SCT018 27/21 A3007 RMK AO2 T02680214
KERY 311515Z AUTO 17006KT 5SM BR OVC003 19/19 A3000 RMK AO2 T01930186
KESC 311515Z AUTO 18004KT 6SM OVC003 18/18 A3000 RMK AO1
KESF 311453Z AUTO VRB03KT 10SM CLR 30/21 A3009 RMK AO2 SLP186 T03000211 51018
KESN 311450Z COR 24005KT 10SM SKC 28/20 A3013
KEST 311507Z AUTO 19012KT 1 1/4SM BR OVC002 19/19 A2996 RMK AO2 T01940194
KETB 311455Z AUTO 00000KT 10SM SCT014 21/18 A3007 RMK AO2
KETC 311455Z AUTO 00000KT 2 1/2SM RA BKN004 BKN018 OVC060 21/20 A3016 RMK AO2 P0018 60034 T02080200
KETH 311515Z AUTO 15011KT 10SM CLR 22/17 A2977 RMK AO2
KEUF 311458Z AUTO 00000KT 10SM FEW010 BKN015 OVC034 27/23 A3011 RMK AO2 SLP190 T02720228 53015 $
KEUG 311454Z 19006KT 10SM FEW002 SCT200 BKN250 13/12 A3009 RMK AO2 SLP188 T01280117 53000
KEUL 311515Z AUTO 31004KT 10SM CLR 14/04 A3011 RMK AO1
KEVB 311447Z 22005KT 10SM FEW020 BKN080 29/24 A3008
KEVM 311513Z AUTO 19007KT 10SM CLR 21/17 A2987 RMK AO2
KEVV 311454Z 22008KT 10SM CLR 26/20 A3014 RMK AO2 SLP202 T02560200 51008
KEVW 311453Z AUTO 00000KT 10SM CLR 14/04 A3025 RMK AO2 SLP157 T01440039 52006
KEWB 311453Z 28005KT 10SM CLR 28/20 A2997 RMK AO2 SLP147 T02830200 58003
KEWK 311515Z AUTO 16009KT 10SM CLR 26/18 A3000 RMK AO1
KEWN 311454Z 10003KT 8SM RA FEW070 OVC095 26/23 A3013 RMK AO2 RAB1357 SLP201 P0002 60002 T02560228 53006
KEWR 311451Z VRB03KT 10SM BKN100 OVC240 28/20 A3004 RMK AO2 SLP171 T02830200 55000
KEXX 311455Z AUTO 07004KT 10SM BKN009 24/21 A3014 RMK AO2 T02370205
KEYE 311453Z AUTO 23005KT 10SM CLR 26/21 A3012 RMK AO2 SLP193 T02560206 51008
KEYF 311515Z AUTO 00000KT 10SM -RA SCT007 BKN013 OVC019 24/23 A3012 RMK AO2 T02360232
KEYW 311453Z 16011KT 10SM FEW031 31/24 A3003 RMK AO2 SLP170 T03060239 51009
KEZF 311455Z AUTO 20003KT 10SM CLR 27/20 A3011 RMK AO2 T02700198
KEZM 311455Z AUTO 07005KT 10SM BKN012 27/23 A3014 RMK AO2 T02690232
KEZS 311455Z AUTO 24003KT 3SM BR OVC003 19/19 A3004 RMK AO2 T01940187
KF05 311515Z AUTO 19008KT 10SM CLR 28/13 A3002 RMK AO1 T02790126
KF17 311455Z AUTO 21004KT 10SM CLR 28/21 A3007 RMK AO2 T02840212
KF44 311455Z AUTO 19003KT 10SM SCT032 SCT039 26/21 A3005 RMK AO2
KF46 311455Z AUTO 20005KT 10SM CLR 27/20 A3004 RMK AO2 T02730204
KF70 311455Z AUTO 00000KT M1/4SM OVC002 16/16 A2992 RMK AO1
KFAF 311458Z AUTO 21006KT 10SM FEW095 25/20 A3013 RMK AO2 DZB29E43 SLP206 P0000 60000 T02460203 51009 $
KFAM 311515Z AUTO 20008KT 10SM CLR 26/22 A3013 RMK AO1
KFAR 311453Z 17013KT 9SM CLR 23/16 A2970 RMK AO2 SLP054 T02330161 51011
KFAT 311453Z 27003KT 10SM FEW025 19/12 A2992 RMK AO2 SLP129 MTNS OBSC FU HZ DSNT E-S FEW025 FU LYR T01890122 53012
KFAY 311453Z AUTO 10004KT 10SM OVC009 24/22 A3011 RMK AO2 CIG 006V013 SLP188 60017 T02390217 51002
KFBG 311502Z AUTO 08005KT 10SM OVC006 24/22 A3010 RMK AO2
KFBL 311514Z AUTO 17011G15KT 5SM BR OVC008 22/21 A2997 RMK AO2
KFBR 311455Z AUTO 28007KT 10SM SCT095 SCT110 13/10 A3028 RMK AO2 T01310095
KFCH 311455Z AUTO 10SM CLR 19/13 A2992 RMK A01
KFCI 311455Z AUTO 19008KT 10SM CLR 23/15 A3015 RMK AO1 52007
KFCM 311453Z 20012KT 7SM BKN011 23/19 A2993 RMK AO2 SLP130 T02280194 51003
KFCS 311458Z AUTO 22005KT 10SM FEW055 SCT070 BKN120 23/09 A3014 RMK AO2 SLP141 T02280093 52022 $
KFDK 311452Z 25005KT 10SM SKC 31/21 A3013
KFDR 311453Z AUTO 20009KT 10SM CLR 27/17 A2999 RMK AO2 SLP137 T02720167 50014
KFDW 311515Z AUTO 03004KT 10SM BKN012 23/21 A3013 RMK AO1
KFDY 311453Z AUTO VRB03KT 9SM CLR 26/21 A3011 RMK AO2 SLP188 T02560211 51008
KFEP 311515Z AUTO 19005KT 7SM CLR 21/21 A3009 RMK AO2 T02140208
KFET 311455Z AUTO 17006KT 10SM CLR 24/21 A2996 RMK AO2 T02350205
KFEW 311456Z AUTO 30016G21KT 10SM FEW130 21/07 A3011 RMK AO2 SLP117 T02130074 51014 $
KFFA 311455Z AUTO 00000KT 10SM SCT065 BKN095 29/20 A3013 RMK AO2 T02880195
KFFC 311453Z AUTO 00000KT 5SM BR OVC007 21/19 A3016 RMK AO2 SLP209 60000 T02110194 53011
KFFL 311455Z AUTO 16006KT 10SM CLR 25/21 A3003 RMK AO2
KFFM 311514Z AUTO 17014KT 10SM CLR 23/17 A2976 RMK AO2
KFFO 311458Z 27004KT 10SM FEW040 25/21 A3014 RMK AO2A SLP204 T02520213 52008
KFFT 311453Z AUTO VRB04KT 10SM CLR 26/18 A3017 RMK AO2 SLP207 T02560178 51012
KFFX 311515Z AUTO 23006KT 5SM BR OVC008 19/19 A3009 RMK AO2 T01900190
KFFZ 311455Z 10010KT 40SM SCT180 31/16 A2990
KFGN 311514Z AUTO 00000KT 10SM OVC018 20/16 A2967 RMK AO2
KFGX 311515Z AUTO 31003KT 10SM -RA SCT031 BKN037 OVC060 23/20 A3019 RMK AO2 T02260199
KFHB 311455Z AUTO 27004KT 10SM CLR 30/24 A3007 RMK AO1 LTG DSNT NE THRU S
KFHR 311453Z AUTO 15007KT 5SM -RA BR BKN022 OVC029 13/12 A2990 RMK AO2 SLP126 P0000 60000 T01330122 53008
KFHU 311458Z COR AUTO 08003KT 10SM CLR 24/14 A3017 RMK AO2 SLP144 T02370138 52013 COR 1459
KFIG 311354Z AUTO VRB03KT 8SM CLR 21/18 A3014 RMK AO2 SLP198 T02060183
KFIN 311450Z 20007KT 7SM SCT090 28/24 A3008
KFIT 311452Z AUTO 29008KT 10SM CLR 29/17 A2999 RMK AO2 SLP152 T02890172 58003
KFKA 311512Z AUTO 19009KT 7SM BKN006 21/19 A3003 RMK AO2 T02080190
KFKL 311515Z AUTO 25005KT 10SM CLR 25/20 A3015 RMK AO1
KFKN 311455Z AUTO 21004KT 7SM RA BKN060 OVC085 22/21 A3017 RMK AO2 P0001 60002 T02160207
KFKR 311515Z AUTO 22004KT 10SM CLR 27/23 A3014 RMK AO2 LTG DSNT SW T02730226
KFKS 311452Z AUTO 20008G14KT 180V240 7SM BKN008 21/19 A3005 RMK AO2 T02090188
KFLD 311453Z AUTO 23003KT 10SM OVC019 20/19 A3006 RMK AO2 SLP179 T02000189 53003
KFLG 311457Z 00000KT 10SM CLR 15/13 A3032 RMK AO2 SLP180 T01500133 52009
KFLL 311453Z 14015G21KT 10SM BKN023 BKN250 30/24 A3005 RMK AO2 SLP174 T03000244 53012 $
KFLO 311453Z 36005KT 10SM SCT009 BKN033 BKN041 25/21 A3011 RMK AO2 SLP192 60000 T02500211 51003
KFLP 311515Z 00000KT 9SM CLR 27/20 A3007 RMK AO1
KFLY 311512Z AUTO 10SM SCT110 23/06 A3023 RMK AO2 T02340064
KFME 311500Z AUTO 21005KT 10SM CLR 27/20 A3012 RMK AO1
KFMH 311515Z AUTO 25007KT 10SM CLR 29/21 A2997 RMK AO2
KFMM 311515Z AUTO 00000KT 10SM SCT120 22/12 A3007 RMK AO2 T02220115
KFMN 311453Z 09003KT 10SM SCT100 20/12 A3020 RMK AO2 SLP172 T02000117 51008
KFMY 311453Z 15010KT 10SM FEW029 29/23 A3004 RMK AO2 LTG DSNT S AND SW SLP173 T02890233 53016
KFNB 311453Z AUTO 16006KT 10SM CLR 24/22 A2998 RMK AO2 SLP143 T02440217 51007
KFNL 311515Z AUTO 16007KT 10SM FEW050 SCT110 21/12 A3010 RMK AO1
KFNT 311500Z 25006KT 4SM HZ OVC006 20/17 A3011 RMK AO2 T02000172
KFOA 311515Z AUTO 24006KT 10SM TS CLR 25/20 A3012 RMK AO2 LTG DSNT N AND W T02530202
KFOD 311515Z 17007KT 9SM BKN008 23/21 A3000 RMK AO1
KFOE 311500Z 18006KT 5SM HZ CLR 26/23 A3000 RMK AO2 T02610228
KFOK 311453Z 23008KT 10SM CLR 28/21 A3003 RMK AO2 SLP170 T02830211 56001
KFOT 311455Z AUTO 00000KT 8SM OVC005 14/14 A3004 RMK AO1
KFOZ 311513Z AUTO 18011G14KT 10SM CLR 23/16 A2979 RMK AO2 TSNO
KFPK 311515Z AUTO 00000KT 5SM BR SCT003 21/18 A3011 RMK AO2 T02060183
KFPR 311453Z 12012KT 10SM SCT027 31/24 A3006 RMK AO2 SLP177 T03110244 53009
KFQD 311455Z AUTO 08005KT 10SM CLR 24/17 A3017 RMK AO2 T02410166
KFRG 311453Z 30006KT 10SM CLR 29/19 A3003 RMK AO2 SLP169 T02940194 58001
KFRI 311458Z AUTO 16008KT 10SM CLR 26/23 A2996 RMK AO2 SLP135 T02580227 50005
KFRM 311515Z AUTO 19009KT 5SM OVC006 22/18 A2995 RMK AO1
KFRR 311450Z AUTO 19003KT 10SM BKN110 25/18 A3013 RMK AO1
KFSD 311456Z 17011KT 10SM FEW007 22/19 A2989 RMK AO2 SLP116 T02220194 51002
KFSE 311514Z AUTO 19020G24KT 10SM CLR 24/14 A2972 RMK AO2
KFSI 311458Z AUTO 18009KT 10SM CLR 26/18 A3001 RMK AO2 SLP154 T02610179 51011
KFSM 311453Z 07003KT 8SM CLR 26/21 A3006 RMK AO2 SLP173 T02560211 51012
KFSO 311515Z AUTO 24003KT 10SM SCT032 SCT040 BKN047 24/19 A2992 RMK AO2 T02350187
KFST 311453Z AUTO 16009KT 10SM CLR 24/14 A3007 RMK AO2 SLP133 T02440139 51010
KFSW 311455Z AUTO 18003KT 7SM CLR 24/24 A3005 RMK AO2
KFTG 311447Z 04006KT 40SM BKN140 BKN200 23/07 A3013
KFTK 311458Z AUTO 23007KT 10SM CLR 26/17 A3015 RMK AO2 SLP207 T02610172 52010
KFTN 311455Z AUTO 13005KT 10SM 27/22 A3001 RMK A01
KFTW 311453Z AUTO 19006KT 10SM CLR 29/19 A3003 RMK AO2 SLP158 T02890194 51013
KFTY 311505Z 04005KT 10SM FEW005 OVC020 21/19 A3016 RMK AO2 T02110194
KFUL 311453Z 19004KT 10SM OVC016 22/18 A2988 RMK AO2 SLP117 T02220178 53013
KFVE 311453Z AUTO 25021G26KT 10SM FEW025 SCT080 BKN090 22/15 A2970 RMK AO2 PK WND 26028/1443 SLP052 T02170150 56014
KFVX 311455Z AUTO 19006KT 10SM OVC085 23/22 A3013 RMK AO2 T02340224
KFWA 311454Z 28005KT 8SM CLR 26/21 A3012 RMK AO2 SLP195 T02560211 51009
KFWB 311455Z AUTO 21003KT 10SM CLR 26/22 A3010 RMK AO2
KFWC 311455Z AUTO 20006KT 10SM VCTS SCT049 26/21 A3011 RMK AO1 LTG DSNT W THRU N T02560210
KFWN 311453Z AUTO 19003KT 10SM CLR 27/21 A3005 RMK AO2 RAB27E49 SLP173 P0000 60000 T02670211 58004
KFWS 311450Z 00000KT 7SM CLR 28/20 A3005
KFWZ 311455Z AUTO 10SM CLR 12/02 A3023 RMK AO2
KFXE 311453Z 14013KT 10SM FEW028 31/24 A3005 RMK AO2 SLP179 T03060239 53012
KFXY 311455Z AUTO 16008KT 10SM SCT026 21/21 A2999 RMK AO2
KFYG 311455Z AUTO 00000KT 10SM CLR 26/22 A3005 RMK AO2
KFYJ 311515Z AUTO 18004KT 7SM SCT030 BKN039 OVC047 25/20 A3015 RMK AO2 T02530200
KFYM 311515Z AUTO 00000KT 10SM 24/18 A3016 RMK
KFYV 311453Z 18008KT 9SM CLR 27/21 A3008 RMK AO2 SLP173 T02670211 51010
KFZG 311455Z AUTO 03003KT 10SM SCT012 OVC027 27/23 A3013 RMK AO2 LTG DSNT E AND S T02680229
KFZY 311454Z AUTO 28008KT 10SM FEW017 BKN026 BKN031 25/20 A3004 RMK AO2 SLP169 T02500200 51007
KGAD 311515Z 04003KT 10SM OVC010 22/18 A3014 RMK AO1
KGAF 311515Z AUTO 33006KT 7SM CLR 23/21 A2969 RMK AO2
KGAG 311453Z AUTO 22011KT 10SM CLR 26/13 A2999 RMK AO2 SLP129 T02610133 51009 TSNO
KGAI 311515Z AUTO 29006KT 10SM BKN050 BKN075 BKN085 27/19 A3016 RMK AO1
KGAO 311455Z AUTO 32005KT 10SM CLR 30/23 A3007 RMK AO2 T03010232
KGBD 311515Z AUTO 17011KT 10SM CLR 24/18 A2995 RMK AO1
KGBG 311455Z AUTO 14004KT 10SM CLR 25/22 A3006 RMK AO2 LTG DSNT S T02480216
KGBK 311445Z AUTO 09012KT 10SM FEW026 FEW033 FEW044 30/24 A3005 RMK A01
KGCC 311453Z AUTO 00000KT 10SM CLR 15/09 A3006 RMK AO2 SLP135 T01500089 51015 $
KGCD 311455Z AUTO 11006KT 2 1/2SM HZ CLR 10/07 A3013 RMK AO2 T00990065
KGCK 311454Z 19011KT 10SM CLR 24/13 A2995 RMK AO2 SLP110 T02390128 50007
KGCM 311515Z AUTO 20009G15KT 10SM CLR 26/20 A3003 RMK AO2
KGCN 311454Z VRB03KT 10SM SCT100 15/13 A3028 RMK AO2 SLP175 T01500128
KGDB 311511Z AUTO 17012G17KT 10SM CLR 23/20 A2987 RMK AO2 T02300201
KGDJ 311455Z AUTO 21003KT 10SM CLR 28/20 A3005 RMK AO2 T02780197
KGDP 311451Z AUTO 22003KT 8SM CLR 22/09 A3021 RMK AO2 SLP152 T02170089 51012 $
KGDV 311515Z AUTO 26011G18KT 10SM CLR 19/04 A2995 RMK AO1
KGED 311454Z AUTO 25008KT 10SM CLR 28/20 A3010 RMK AO2 SLP192 T02780200 51004
KGEG 311453Z 18010KT 10SM FEW020 SCT060 BKN100 BKN250 11/07 A3003 RMK AO2 SLP167 T01110072 51008
KGEU 311448Z 00000KT 20SM FEW180 FEW250 32/19 A2989
KGEV 311515Z AUTO 36003KT 10SM OVC090 21/12 A3025 RMK AO2 T02050118
KGEY 311453Z AUTO 35005KT 10SM CLR 17/05 A3001 RMK AO2 SLP127 T01670050 51016
KGEZ 311453Z AUTO 20005KT 10SM CLR 26/21 A3013 RMK AO2 SLP198 T02610206 51009
KGFA 311456Z AUTO 22021G26KT 10SM CLR 16/01 A2994 RMK AO2 PK WND 22027/1359 SLP130 T01550009 53005 TSNO $
KGFK 311453Z 21007KT 10SM OVC015 20/17 A2968 RMK AO2 SLP047 T02000172 53009
KGFL 311453Z AUTO 19008KT 10SM CLR 26/19 A2998 RMK AO2 SLP150 T02560189 58006
KGGE 311515Z AUTO 02003KT 10SM VCTSRA OVC012 22/22 A3008 RMK AO2 LTG DSNT SE AND S P0002
KGGG 311453Z 21006KT 10SM CLR 26/21 A3006 RMK AO2 SLP175 T02610211 51016
KGGI 311515Z AUTO 15007KT 7SM CLR 24/21 A3003 RMK AO2 T02400212
KGGP 311455Z AUTO 23003KT 10SM BKN034 25/19 A3012 RMK AO2
KGGW 311453Z AUTO 25004KT 10SM CLR 15/07 A2988 RMK AO2 SLP115 T01500067 51013
KGHB 311455Z AUTO 00000G12KT 10SM CLR 29/23 A3005 RMK A01
KGHG 311455Z AUTO 27005KT 10SM CLR 29/20 A2998 RMK AO2
KGHW 311514Z AUTO 19015KT 10SM CLR 23/18 A2985 RMK AO2
KGIC 311455Z AUTO 14005KT 10SM CLR 10/08 A3009 RMK AO1 T00980084
KGIF 311453Z AUTO 15007KT 10SM FEW018 28/24 A3008 RMK AO2 SLP184 T02830244 51016
KGJT 311453Z 00000KT 10SM SCT080 OVC100 17/15 A3019 RMK AO2 RAB24E35 SLP174 P0000 60001 T01720150 53022
KGKJ 311453Z AUTO 26004KT 10SM CLR 24/19 A3013 RMK AO2 SLP194 T02440194 53006 TSNO
KGKT 311515Z AUTO 24003KT 10SM CLR 26/17 A3017 RMK
KGKY 311453Z VRB04KT 10SM CLR 28/19 A3004 RMK AO2 SLP161 T02830189 51013
KGLD 311453Z AUTO 32006KT 9SM CLR 22/11 A2998 RMK AO2 SLP112 T02170111 51019
KGLE 311455Z AUTO 19006KT 10SM CLR 28/18 A3006 RMK AO2 T02760178
KGLH 311453Z AUTO 22005KT 7SM CLR 27/21 A3007 RMK AO2 SLP189 T02720206 51012
KGLR 311506Z AUTO 24010KT 9SM OVC006 20/18 A3006 RMK AO2 CIG 004V009 T02000183
KGLS 311452Z 13005KT 10SM VCTS FEW028 30/23 A3004 RMK AO2 LTG DSNT S AND SW SLP172 T03000228 51018
KGLW 311455Z AUTO 00000KT 10SM CLR 25/19 A3016 RMK AO2 T02500188
KGLY 311515Z AUTO 21007KT 9SM CLR 27/22 A3003 RMK AO2
KGMJ 311515Z AUTO 19008KT 10SM CLR 28/21 A3004 RMK AO2
KGMU 311453Z 01005KT 10SM CLR 24/17 A3016 RMK AO2 SLP206 T02440167 53008
KGNA 311456Z AUTO 25003KT 14/13 A2989 RMK AO1 SLP120 T01390133 57000
KGNC 311455Z AUTO 18009KT 10SM CLR 24/14 A3011 RMK AO2 T02380139
KGNR 311456Z AUTO VRB05KT 21/16 A2984 RMK AO1 SLP104 T02060161 56014
KGNT 311455Z AUTO 32004KT 10SM CLR 19/12 A3031 RMK AO2 T01860119
KGNV 311509Z 25003KT 10SM BKN014 BKN021 27/24 A3008 RMK AO2 T02720239
KGOK 311453Z AUTO 19012KT 10SM CLR 28/17 A2998 RMK AO2 SLP142 T02830172 51009
KGON 311456Z 23008KT 6SM HZ CLR 27/22 A2999 RMK AO2 SLP156 T02720222 58002
KGOO 311500Z AUTO 00000KT 10SM CLR 19/00 A3003 RMK AO1
KGOP 311455Z AUTO 00000KT 10SM CLR 27/21 A3007 RMK AO2
KGOV 311518Z AUTO 24007KT 7SM OVC005 19/18 A3008 RMK AO2 T01900178
KGPH 311515Z AUTO 17004KT 10SM CLR 25/22 A3000 RMK AO2
KGPI 311455Z 17008KT 10SM OVC065 12/07 A3001 RMK AO2 SLP164 T01220067 51007
KGPM 311450Z 18004KT 10SM SKC 27/20 A3005
KGPT 311453Z 35010KT 10SM CLR 29/21 A3007 RMK AO2 SLP183 T02940211 51012
KGPZ 311515Z AUTO 17009G15KT 140V200 10SM 21/17 A2983 RMK AO1
KGRB 311453Z 24006KT 7SM BKN013 22/19 A3003 RMK AO2 SLP169 T02170194 51003
KGRD 311503Z AUTO 01005KT 10SM FEW015 24/19 A3016 RMK AO2 T02440189
KGRF 311513Z AUTO 18014G21KT 10SM OVC029 17/11 A2997 RMK AO2 OVC V BKN
KGRI 311453Z 19011KT 9SM CLR 21/18 A2996 RMK AO2 SLP137 T02110183 53006
KGRK 311458Z AUTO VRB03KT 9SM CLR 26/21 A3004 RMK AO2 SLP163 T02550211 52014
KGRR 311453Z VRB04KT 4SM BR SCT004 SCT012 20/18 A3011 RMK AO2 SLP193 T02000183 53007
KGRY 311450Z AUTO 11006KT 10SM CLR 29/22 A3007 RMK A01
KGSB 311506Z 03005KT 2SM BR OVC008 22/21 A3013 RMK AO2A RAE05 OVC V BKN
KGSH 311453Z AUTO 00000KT 4SM HZ CLR 24/21 A3011 RMK AO2 SLP191 T02390211 51009
KGSO 311454Z 08004KT 10SM BKN005 OVC011 22/21 A3015 RMK AO2 RAE16 SLP198 P0000 60001 T02220211 53006
KGSP 311453Z VRB05KT 10SM CLR 24/17 A3014 RMK AO2 SLP197 T02440172 53009
KGTB 311503Z AUTO 23011KT 10SM SCT014 BKN022 24/20 A3000 RMK AO2 CIG 013V023 CIG 013 RWY03
KGTF 311453Z 22014G21KT 10SM CLR 14/01 A2993 RMK AO2 PK WND 22026/1357 SLP120 T01440011 53004
KGTR 311450Z 04004KT 7SM BKN034 BKN042 24/19 A3012
KGTU 311450Z 19006KT 10SM FEW015 27/22 A3006
KGUC 311515Z AUTO 00000KT 10SM CLR 14/09 A3038 RMK AO1
KGUL 311455Z AUTO 21010KT 10SM CLR 30/22 A3004 RMK A01
KGUP 311453Z AUTO 06006KT 10SM CLR 18/11 A3029 RMK AO2 SLP126 T01830111 51011
KGUR 311455Z AUTO 27008KT 10SM 29/11 A3003 RMK AO2 T02870105 PWINO
KGUS 311458Z 27006KT 7SM FEW037 26/22 A3011 RMK AO2A SLP194 T02560220 52009
KGUY 311453Z AUTO 21014G20KT 10SM CLR 27/12 A2997 RMK AO2 SLP102 T02670117 50005
KGVE 311455Z AUTO 20005KT 10SM CLR 24/20 A3013 RMK AO1 T02390201
KGVL 311453Z AUTO 12003KT 10SM CLR 24/18 A3018 RMK AO2 SLP207 T02390178 53008
KGVT 311455Z AUTO 21004KT 10SM CLR 28/19 A3006 RMK AO2
KGVX 311455Z AUTO 13011KT 10SM FEW024 SCT032 SCT050 29/24 A3002 RMK A01
KGWB 311455Z AUTO 26003KT 10SM SCT037 25/20 A3012 RMK AO2
KGWO 311453Z AUTO VRB05KT 10SM CLR 27/21 A3009 RMK AO2 SLP186 T02670206 51010
KGWR 311515Z AUTO 22016G22KT CLR 24/17 A2974 RMK AO1
KGWW 311455Z AUTO 06004KT 7SM SCT005 BKN025 OVC045 21/21 A3015 RMK AO2 P0001 60004 T02100210
KGXA 311455Z AUTO VRB03KT 10SM CLR 22/07 A2998 RMK AO2 SLP109 T02190067 52011 PWINO TSNO $
KGXF 311458Z 14005KT 10SM FEW150 FEW220 33/17 A2985 RMK AO2A SLP093 T03340167 52017
KGXY 311515Z AUTO 00000KT 8SM FEW110 21/14 A3010 RMK AO1
KGYB 311455Z AUTO 17005KT 10SM SCT017 28/23 A3008 RMK AO2 T02770225
KGYH 311447Z 04003KT 10SM CLR 25/17 A3016
KGYI 311455Z AUTO 23007KT 10SM CLR 29/20 A3005 RMK AO2 T02890201
KGYL 311514Z AUTO 18007G16KT 7SM OVC009 23/21 A2992 RMK AO2 T02300214
KGYR 311447Z 12007KT 10SM FEW120 FEW180 SCT250 31/18 A2989
KGYY 311445Z 00000KT 5SM HZ SKC 24/19 A3010
KGZH 311453Z AUTO 00000KT 10SM CLR 28/21 A3010 RMK AO2 SLP190 T02830206 51016
KGZL 311515Z AUTO 13005KT 10SM CLR 28/18 A3006 RMK AO2
KH78 311019Z 04001KT 20SM FEW025 28/26 A3001 RMK SEAS 2-3
KHAE 311455Z AUTO 18005KT 10SM CLR 28/21 A3005 RMK AO2 LTG DSNT SE
KHAF 311515Z AUTO 00000KT 7SM OVC012 17/15 A2996 RMK AO2
KHAI 311515Z AUTO 00000KT 3SM BR BKN003 OVC018 21/21 A3012 RMK AO2 T02110211
KHAO 311453Z AUTO VRB04KT 10SM CLR 26/21 A3015 RMK AO2 SLP206 T02560211 51007
KHBG 311453Z AUTO 32007KT 10SM CLR 29/21 A3010 RMK AO2 SLP188 T02940206 51010
KHBI 311455Z AUTO 02004KT 10SM OVC006 21/21 A3016 RMK AO2 60002 T02050205
KHBR 311453Z AUTO 19017KT 9SM CLR 27/16 A3001 RMK AO2 SLP143 T02670161 51014
KHCD 311512Z AUTO 17011G18KT 7SM SCT011 SCT085 23/21 A2992 RMK AO2 T02290207
KHCO 311514Z AUTO 21005KT 10SM CLR 22/19 A2968 RMK AO2
KHDC 311455Z AUTO 36004KT 10SM CLR 29/22 A3010 RMK AO2
KHDE 311455Z AUTO 18007KT 10SM CLR 21/18 A2995 RMK AO2 T02090179
KHDO 311451Z AUTO 13005KT 10SM FEW021 27/22 A3005 RMK AO2 SLP161 T02720217 53013
KHEF 311445Z 00000KT 10SM CLR 26/21 A3012
KHEI 311453Z AUTO 33009KT 10SM CLR 17/11 A2995 RMK AO2 SLP125 T01720106 51034
KHEQ 311515Z AUTO 35014G20KT 10SM CLR 28/10 A2999 RMK AO2
KHEZ 311515Z AUTO 35004KT 10SM CLR 28/21 A3011 RMK AO1
KHFD 311453Z 27004KT 10SM CLR 29/19 A3000 RMK AO2 SLP157 T02890194 58003
KHFF 311511Z AUTO 03003KT 10SM OVC008 22/20 A3012 RMK AO2 LTG DSNT S CIG 006V008 TSNO $
KHFJ 311455Z AUTO 20009G14KT 10SM CLR 26/20 A3006 RMK AO2
KHGR 311453Z 23005KT 10SM CLR 27/19 A3012 RMK AO2 SLP204 T02720189 53007
KHHF 311455Z AUTO 25004KT 10SM CLR 26/16 A3000 RMK AO2 T02560164
KHHG 311455Z AUTO 25004KT 10SM CLR 26/19 A3012 RMK AO2 T02570190
KHHR 311453Z 10005KT 10SM OVC016 22/18 A2989 RMK AO2 SLP121 T02220178 53014
KHHV 311455Z AUTO 15010KT 9SM FEW027 SCT036 SCT048 29/23 A3004 RMK A01
KHHW 311455Z AUTO 22004KT 10SM SCT120 27/19 A3006 RMK AO2 T02720193
KHIB 311453Z AUTO 18007KT 10SM CLR 20/17 A2986 RMK AO2 SLP108 T02000167 58000
KHIE 311452Z AUTO 24008KT 10SM BKN035 BKN043 OVC060 23/16 A2995 RMK AO2 SLP139 T02330161 56008 TSNO
KHIF 311458Z 04004KT 10SM SCT110 SCT160 20/07 A3011 RMK AO2A SLP140 T02020065 52019
KHII 311450Z AUTO 14009G20KT 10SM CLR 35/08 A2980 RMK AO2
KHIO 311453Z 17008KT 10SM OVC039 16/12 A3006 RMK AO2 SLP176 T01560122 53005
KHJH 311455Z AUTO 20011KT 4SM BR OVC006 22/21 A2998 RMK AO2 T02180210
KHJO 311453Z AUTO 26006KT 10SM CLR 18/10 A2993 RMK AO2 SLP134 T01830100 53012
KHKA 311453Z AUTO 16006KT 10SM CLR 26/21 A3012 RMK AO2 SLP195 T02560211 51008
KHKS 311453Z 30008KT 10SM CLR 30/19 A3010 RMK AO2 SLP184 T03000189 51013
KHKY 311453Z 00000KT 10SM CLR 24/17 A3016 RMK AO2 SLP192 T02390172 53005
KHLC 311453Z AUTO 18009KT 8SM CLR 24/17 A2994 RMK AO2 SLP119 T02390172 51006
KHLG 311453Z 27005KT 10SM CLR 26/19 A3015 RMK AO2 SLP203 T02560194 53008
KHLN 311453Z 27012KT 10SM CLR 16/01 A3004 RMK AO2 SLP168 T01610006 51006 $
KHLR 311458Z AUTO 20006KT 10SM BKN150 26/21 A3003 RMK AO2 SLP158 T02620213 52014
KHLX 311515Z AUTO 32004KT 10SM SCT022 OVC080 22/16 A3022 RMK AO2 LTG DSNT S T02200161
KHMN 311458Z AUTO 17002KT 10SM CLR 24/09 A3009 RMK AO2 SLP119 T02360088 50011 $
KHNB 311515Z AUTO 25007KT 10SM FEW020 26/21 A3015 RMK AO1
KHND 311456Z 22007KT 10SM CLR 28/09 A2993 RMK AO2 SLPNO T02780094 53017
KHNR 311455Z AUTO 16007KT 5SM HZ FEW005 22/M38 A3001 RMK AO2
KHNZ 311515Z AUTO 00000KT 5SM -RA BKN007 OVC017 21/19 A3016 RMK AO2 T02070185
KHOB 311450Z 16011KT 10SM SKC 22/15 A3011
KHOE 311455Z AUTO 08004KT 10SM OVC026 28/23 A3010 RMK AO2
KHON 311455Z AUTO 18014G22KT 10SM CLR 23/18 A2978 RMK AO2 PK WND 18026/1359 SLP075 T02280178 53004
KHOP 311458Z AUTO 27003KT 10SM CLR 25/20 A3015 RMK AO2 SLP207 T02470198 51009
KHOT 311453Z AUTO 00000KT 9SM CLR 27/21 A3008 RMK AO2 SLP178 T02720206 51011
KHOU 311453Z 00000KT 10SM FEW025 SCT200 BKN250 29/23 A3003 RMK AO2 SLP174 8/282 TCU DSNT S T02890228 51014
KHPN 311456Z 30005KT 10SM FEW110 28/19 A3004 RMK AO2 SLP164 T02830194 56001
KHQI 311455Z AUTO 00000KT 10SM BKN100 29/24 A3004 RMK A01
KHQM 311453Z AUTO 17012KT 5SM BR SCT043 OVC055 16/14 A2997 RMK AO2 RAE01 SLP151 P0000 60005 T01560144 51006 $
KHQU 311455Z AUTO 34003KT 10SM OVC004 22/22 A3019 RMK AO1 T02180218
KHQZ 311450Z 15004KT 10SM CLR 27/20 A3004
KHRI 311453Z AUTO 21005KT 10SM CLR 16/07 A3004 RMK AO2 SLP168 T01560072 53003
KHRJ 311455Z AUTO 06006KT 10SM OVC004 22/22 A3012 RMK AO2 P0023 60082 T02220222
KHRL 311452Z 17008KT 10SM CLR 28/23 A2996 RMK AO2 RAE28 TSE1357 SLP144 P0000 60000 T02830233 55001
KHRT 311458Z AUTO 35002KT 10SM CLR 30/20 A3006 RMK AO2 DZB16E26 SLP181 P0000 60000 T02960200 52014 $
KHRX 311450Z AUTO 20008G17KT 10SM CLR 24/14 A3009 RMK AO2 T02380143
KHSA 311455Z 35008KT 7SM CLR 28/20 A3009
KHSB 311455Z AUTO 22008KT 10SM CLR 26/19 A3013 RMK AO2 LTG DSNT W THRU N T02580192
KHSE 311451Z AUTO 09004KT 10SM CLR 27/22 A3013 RMK AO2 SLP202 T02670222 50003 TSNO
KHSI 311453Z AUTO 18008KT 3SM BR OVC002 19/18 A2996 RMK AO2 SLP134 T01940183 53006
KHSP 311450Z AUTO 28006KT 10SM SCT050 OVC090 22/15 A3026 RMK AO2 T02150147
KHST 311458Z AUTO 12010KT 10SM FEW023 30/24 A3005 RMK AO2 SLP179 T03000244 52011
KHSV 311453Z 14004KT 10SM BKN016 BKN250 26/20 A3014 RMK AO2 SLP198 T02610200 53010
KHTL 311453Z AUTO 24006KT 6SM BR OVC006 18/18 A3009 RMK AO2 CIG 003V010 SLP186 T01830178 51005
KHTS 311451Z 00000KT 10SM CLR 27/19 A3016 RMK AO2 SLP203 T02720189 51009
KHUA 311508Z AUTO 13004KT 10SM BKN017 24/20 A3014 RMK AO2 BKN V SCT
KHUF 311453Z 20005KT 10SM SCT050 25/20 A3013 RMK AO2 SLP198 T02500200 51011
KHUL 311453Z AUTO 23016G22KT 10SM SCT055 24/16 A2976 RMK AO2 SLP075 T02390156 58021
KHUM 311450Z 13005KT 7SM SCT080 29/23 A3007
KHUT 311452Z 16009KT 8SM CLR 24/20 A2997 RMK AO2 SLP129 T02440200 51004
KHVE 311515Z AUTO 00000KT 10SM CLR 23/14 A3014 RMK AO2
KHVN 311453Z 23003KT 10SM BKN250 27/20 A3001 RMK AO2 SLP163 T02720200 50000
KHVR 311453Z AUTO 10SM CLR 15/02 A2987 RMK AO2 SLP108 T01500022 53007
KHVS 311515Z AUTO 36005KT 10SM OVC007 21/20 A3012 RMK AO2
KHWD 311454Z 06003KT 8SM FEW011 17/13 A2995 RMK AO2 SLP149 T01720133 53007
KHWO 311453Z 14011KT 10SM CLR 31/24 A3006 RMK AO2 SLP180 T03110239 53010
KHWV 311456Z AUTO 29008KT 10SM CLR 29/19 A3003 RMK AO2 SLP167 T02890194 56001 TSNO
KHWY 311455Z AUTO 23003KT 10SM CLR 26/21 A3012 RMK AO2 T02600207
KHXD 311350Z 36005KT 10SM BKN008 25/23 A3008
KHYA 311456Z 26010KT 240V310 10SM CLR 29/19 A2996 RMK AO2 SLP147 T02940194 58003
KHYI 311445Z 17005KT 10SM CLR 27/23 A3005
KHYR 311453Z AUTO 18012KT 10SM OVC012 21/18 A2997 RMK AO2 SLP145 T02110178 52001
KHYS 311515Z AUTO 17011KT 10SM CLR 24/16 A2995 RMK AO1
KHYW 311515Z AUTO 00000KT 5SM VCTSHZ BKN004 BKN009 OVC013 23/ A3009 RMK AO2 LTG DSNT S
KHYX 311513Z AUTO 21006KT 3SM BR OVC007 18/18 A3010 RMK AO2
KHZE 311515Z AUTO 32010G14KT 10SM CLR 20/11 A2988 RMK AO2
KHZL 311455Z AUTO 28004KT 10SM CLR 25/19 A3015 RMK AO2
KHZR 311455Z AUTO 00000KT 10SM CLR 27/24 A3008 RMK AO2 T02700237
KHZX 311512Z AUTO 18010KT 10SM CLR 21/18 A2988 RMK AO2
KHZY 311453Z AUTO 25007KT 10SM CLR 25/21 A3012 RMK AO2 SLP192 T02500211 51006
KI16 311455Z AUTO 10SM SCT037 OVC120 25/19 A3025 RMK AO2 T02450189
KI39 311515Z AUTO 30004KT 10SM CLR 25/18 A3018 RMK AO2
KI67 311515Z AUTO 21003KT 10SM CLR 25/20 A3015 RMK AO1
KI69 311514Z AUTO 29003KT 10SM SCT040 26/21 A3016 RMK AO2 T02610207
KI75 311455Z AUTO 16006KT 7SM CLR 25/22 A3001 RMK AO2 T02500223
KIAB 311458Z AUTO 15008KT 10SM CLR 24/17 A2998 RMK AO2 SLP143 T02410165 52007 $
KIAD 311452Z 17003KT 10SM FEW065 BKN090 BKN150 OVC220 26/19 A3011 RMK AO2 SLP194 60001 T02610194 53004
KIAG 311453Z 28008KT 8SM FEW017 SCT022 BKN030 24/20 A3005 RMK AO2 SLP172 T02440200 53006
KIAH 311453Z 03003KT 10SM FEW020 SCT180 SCT250 29/23 A3004 RMK AO2 SLP171 T02940233 51014
KIBM 311455Z AUTO 29009KT 10SM SCT120 23/11 A3004 RMK AO2 T02280106
KICL 311455Z AUTO 15005KT 1 3/4SM BR OVC004 22/22 A3001 RMK AO2
KICR 311453Z AUTO 23013KT 7SM CLR 27/12 A2982 RMK AO2 PK WND 21027/1356 SLP079 T02670117 53018
KICT 311453Z 17010KT 10SM SCT200 SCT250 24/19 A2997 RMK AO2 SLP135 T02440194 51007
KIDA 311453Z 21015KT 10SM CLR 14/03 A3014 RMK AO2 SLP174 HZ ALQDS T01390028 51013
KIDI 311515Z AUTO 27004KT 10SM BKN017 25/21 A3018 RMK A01
KIDP 311455Z AUTO 18006KT 10SM CLR 23/20 A3000 RMK AO2
KIEN 311452Z AUTO 29004KT 10SM CLR 26/11 A2995 RMK AO2 SLP102 T02560111 53022
KIER 311455Z AUTO 00000KT 10SM CLR 29/21 A3009 RMK AO2 T02880213
KIFA 311515Z AUTO 15006KT 7SM CLR 22/22 A3003 RMK AO2 T02240219
KIFP 311455Z AUTO 00000KT 10SM CLR 30/08 A2982 RMK AO2
KIGM 311451Z AUTO 12013KT 10SM CLR 28/08 A3001 RMK AO2 SLP086 T02780078 53015
KIGQ 311515Z AUTO 00000KT 7SM CLR 23/21 A3010 RMK AO2 T02300205
KIGX 311503Z AUTO 04004KT 10SM OVC004 21/19 A3015 RMK AO2 T02110189 TSNO
KIIB 311455Z AUTO 17006KT 5SM BR CLR 22/21 A3003 RMK AO2
KIIY 311455Z AUTO 00000KT 1 3/4SM BR OVC001 21/21 A3015 RMK AO2
KIJD 311452Z AUTO 30008KT 10SM CLR 28/19 A3001 RMK AO2 SLP159 T02780194 56002
KIJX 311455Z AUTO 23005KT 10SM CLR 28/23 A3007 RMK AO2 LTG DSNT SE T02790227
KIKK 311455Z AUTO 00000KT 7SM SCT003 22/21 A3010 RMK AO2 LTG DSNT S AND SW T02160214
KIKT 311455Z AUTO 03008KT 10SM CLR 30/21 A3007 RMK A01
KIKV 311455Z AUTO 15004KT 9SM CLR 24/23 A2999 RMK AO2
KIKW 311512Z AUTO 23004KT 5SM BR OVC004 19/18 A3009 RMK AO2 T01930177
KILE 311515Z AUTO 21006KT 10SM CLR 28/20 A3005 RMK AO1
KILG 311451Z 30007KT 10SM BKN110 29/20 A3009 RMK AO2 SLP187 T02890200 53004
KILM 311504Z 32006KT 10SM FEW018 SCT065 OVC080 25/23 A3011 RMK AO2 T02500233
KILN 311454Z AUTO 30004KT 10SM CLR 26/21 A3015 RMK AO2 SLP201 T02610206 53008
KIML 311453Z AUTO 21003KT 10SM CLR 22/11 A2996 RMK AO2 SLP113 T02170111 51012
KIMS 311514Z AUTO 22005KT 10SM SCT019 SCT027 26/20 A3018 RMK AO1
KIMT 311454Z AUTO 16004KT 10SM CLR 21/17 A3000 RMK AO2 SLP155 T02060172 51007
KIND 311454Z 20005KT 9SM CLR 26/20 A3012 RMK AO2 SLP192 T02560200 51009
KINF 311515Z AUTO 13004KT 10SM SCT012 27/25 A3008 RMK AO2 LTG DSNT NE
KINJ 311455Z AUTO 19006KT 10SM CLR 27/20 A3005 RMK AO2 T02710197
KINK 311453Z AUTO 14011KT 10SM CLR 24/15 A3005 RMK AO2 SLP131 T02440150 51010
KINL 311455Z AUTO 21007KT 10SM CLR 22/17 A2976 RMK AO2 SLP075 T02170167 53006 TSNO
KINS 311458Z AUTO 00000KT 10SM CLR 22/02 A2996 RMK AO2 SLP097 T02220017 52015 $
KINT 311454Z VRB03KT 10SM BKN012 23/19 A3016 RMK AO2 SLP203 T02280194 53004
KINW 311456Z AUTO 11007KT 10SM CLR 19/16 A3020 RMK AO2 SLP164 T01940161 53008
KIOB 311455Z AUTO 28004KT 10SM CLR 26/18 A3020 RMK AO2
KIOW 311452Z AUTO 13005KT 7SM CLR 23/21 A3004 RMK AO2 RAB08E41 SLP171 P0000 60000 T02330206 50002 $
KIPJ 311455Z AUTO 08004KT 10SM SCT019 25/18 A3015 RMK AO2 T02500178
KIPL 311453Z AUTO 28006KT 10SM CLR 32/09 A2976 RMK AO2 SLP079 T03220089 53017
KIPN 311455Z AUTO 04008KT 10SM FEW028 31/22 A3007 RMK A01
KIPT 311454Z 00000KT 10SM CLR 24/19 A3008 RMK AO2 SLP183 T02390194 53000
KIRK 311455Z AUTO 18005KT 8SM CLR 27/22 A3004 RMK AO2 SLP168 T02670217 51005
KIRS 311513Z AUTO 00000KT 5SM BR CLR 23/22 A3011 RMK AO2
KISM 311450Z 14006KT 10SM FEW015 OVC140 28/25 A3008
KISN 311452Z AUTO 25011KT 10SM CLR 18/09 A2988 RMK AO2 SLP113 T01780094 51019
KISO 311456Z 31007KT 1 1/2SM +RA OVC006 22/21 A3014 RMK AO2
KISP 311456Z 25007KT 10SM SCT085 BKN130 OVC240 28/20 A3001 RMK AO2 SLP161 T02830200 57001
KISQ 311515Z AUTO 16004KT 1/2SM FG OVC003 18/17 A3000 RMK AO2 T01790174
KISW 311454Z AUTO 22003KT 6SM BR OVC007 19/18 A3005 RMK AO2 SLP175 T01940183 53003
KITH 311456Z 31006KT 10SM SCT020 26/20 A3009 RMK AO2 53005 T02610200 SLP183
KITR 311453Z AUTO 31010KT 7SM CLR 24/11 A3002 RMK AO2 SLP111 T02390106 51020
KIWA 311447Z 13006KT 45SM SCT150 30/18 A2993
KIWD 311515Z AUTO 18008KT 10SM CLR 23/17 A2992 RMK AO1
KIWI 311453Z AUTO VRB04KT 10SM CLR 26/17 A2990 RMK AO2 SLP125 T02610167 58010
KIXA 311455Z AUTO 00000KT 7SM -RA SCT036 SCT043 SCT050 21/20 A3015 RMK AO2 P0008
KIXD 311453Z 20007KT 8SM CLR 25/21 A3002 RMK AO2 SLP153 T02500211 51010
KIYA 311455Z AUTO 00000KT 10SM CLR 29/25 A3006 RMK AO2 T02880246
KIZA 311455Z AUTO 00000KT 1/4SM FG OVC001 12/12 A2994 RMK AO2
KIZG 311454Z AUTO VRB06KT 10SM CLR 26/19 A2992 RMK AO2 SLP130 T02610189 58011
KJAC 311515Z 00000KT 10SM CLR 13/M02 A3021 RMK AO1
KJAN 311454Z 28006KT 10SM CLR 31/19 A3009 RMK AO2 SLP185 T03060189 51012
KJAS 311455Z AUTO 00000KT 10SM CLR 29/22 A3010 RMK AO2 T02860221
KJAX 311456Z VRB03KT 10SM FEW009 BKN025 BKN250 27/24 A3007 RMK AO2 SLP183 T02720239 53015
KJBR 311453Z AUTO 15006KT 10SM OVC110 25/21 A3010 RMK AO2 SLP189 T02500206 51009
KJCT 311451Z AUTO 00000KT 10SM CLR 23/20 A3006 RMK AO2 SLP147 T02280200 50010
KJDD 311515Z AUTO 20006KT 10SM CLR 28/22 A3007 RMK AO2
KJDN 311448Z AUTO 27013KT 17/03 A2992 RMK AO1 SLP127 T01720033 50008
KJEF 311453Z 16007KT 10SM CLR 26/21 A3005 RMK AO2 SLP160 T02610206 51008
KJER 311453Z AUTO 20006KT 10SM CLR 13/05 A3014 RMK AO2 SLP183 T01330050 51011
KJES 311455Z AUTO 03004KT 10SM BKN009 BKN013 OVC029 27/25 A3009 RMK AO2
KJFK 311451Z 23012KT 10SM BKN100 BKN240 27/21 A3005 RMK AO2 SLP174 T02670206 52001
KJFX 311515Z AUTO 12003KT 27/21 A3014 RMK A02 P-128
KJFZ 311455Z AUTO 00000KT 10SM SCT024 OVC110 22/M01 A3024 RMK AO2 T02171011
KJGG 311455Z AUTO 24003KT 10SM CLR 25/22 A3015 RMK AO1
KJHN 311455Z AUTO 19013G18KT 7SM CLR 26/11 A2994 RMK AO2 T02600107
KJHW 311515Z AUTO 26006KT 220V280 10SM FEW022 SCT030 SCT039 24/18 A3013 RMK AO1
KJKA 311515Z AUTO 33005KT 10SM CLR 29/21 A3008 RMK AO2 T02920210
KJKJ 311511Z AUTO 18010G15KT 10SM CLR 23/16 A2973 RMK AO2
KJKL 311453Z AUTO 00000KT 10SM CLR 24/18 A3019 RMK AO2 SLP210 T02440178 51012
KJLN 311453Z 19010KT 10SM CLR 27/20 A3004 RMK AO2 SLP160 T02670200 51011
KJMR 311520Z AUTO 20008KT 10SM OVC013 21/18 A2992 RMK AO2
KJMS 311456Z AUTO 34008KT 4SM HZ CLR 22/18 A2976 RMK AO2 SLP069 60000 T02220183 53025
KJNX 311515Z AUTO 07004KT 5SM RA OVC003 21/21 A3012 RMK AO2 LTG DSNT S P0001
KJOT 311455Z AUTO 19003KT 5SM HZ CLR 24/21 A3009 RMK AO2 T02410209
KJQF 311450Z 34004KT 10SM SCT017 25/19 A3017
KJSO 311515Z AUTO 17005KT 10SM CLR 26/21 A3010 RMK AO2 T02680209
KJST 311454Z AUTO 32007KT 10SM FEW019 24/18 A3018 RMK AO2 SLP205 T02440178 53006
KJSV 311455Z AUTO 13005KT 10SM CLR 27/20 A3006 RMK AO2
KJVL 311445Z 00000KT 4SM BR BKN023 20/19 A3008
KJVW 311515Z AUTO 32007KT 10SM CLR 30/27 A3010 RMK AO2
KJWG 311455Z AUTO 20009KT 10SM CLR 27/18 A3000 RMK AO2 T02650182
KJWY 311515Z AUTO 19003KT 10SM CLR 28/20 A3005 RMK AO2 T02800204
KJXI 311435Z AUTO 21004KT 10SM CLR 25/21 A3006 RMK AO2 T02470205
KJXN 311456Z 27007KT 5SM BR OVC010 22/19 A3012 RMK AO2 CIG 009V014 SLP196 T02170194 51010
KJYG 311515Z AUTO 16010G15KT 7SM SCT007 23/21 A2994 RMK AO2
KJYL 311455Z AUTO 01004KT 7SM OVC008 25/24 A3011 RMK AO2 LTG DSNT E AND SE T02460239
KJYM 311515Z AUTO 27006KT 7SM BKN017 BKN023 BKN033 24/24 A3013 RMK AO2 T02380238
KJYO 311455Z AUTO 23005KT 10SM OVC095 25/22 A3013 RMK AO2
KJYR 311515Z AUTO 19011KT 7SM SCT006 22/20 A2997 RMK AO2
KJZI 311515Z AUTO 36008KT 7SM VCTS BKN006 OVC043 25/24 A3006 RMK AO2 LTG DSNT SE
KL18 311515Z AUTO 15003KT 7SM OVC006 19/17 A2992 RMK AO2
KL35 311455Z AUTO 00000KT 10SM CLR 11/03 A3020 RMK AO2
KL38 311455Z AUTO 01003KT 10SM CLR 28/24 A3006 RMK AO2 T02830235
KLAA 311453Z AUTO 35004KT 4SM HZ CLR 20/12 A2995 RMK AO2 SLP095 T02000122 51013 TSNO
KLAF 311454Z VRB04KT 9SM CLR 26/21 A3010 RMK AO2 SLP190 T02560211 51009
KLAL 311450Z 14007KT 10SM FEW012 27/24 A3007
KLAM 311455Z AUTO 05003KT 10SM CLR 19/08 A3032 RMK AO2 T01900083
KLAN 311453Z 00000KT 3SM BR OVC005 19/17 A3011 RMK AO2 SLP196 T01940172 51008
KLAR 311453Z AUTO 21008KT 10SM CLR 17/09 A3023 RMK AO2 SLP125 T01670089 53008
KLAS 311456Z 00000KT 10SM BKN250 28/06 A2986 RMK AO2 SLP082 T02830061 51019
KLAW 311453Z 18010KT 10SM CLR 27/17 A3002 RMK AO2 SLP154 T02670167 50011
KLAX 311453Z 11004KT 9SM BKN017 22/18 A2989 RMK AO2 SLP121 T02170178 53013 $
KLBB 311453Z 20011KT 10SM FEW250 24/14 A3009 RMK AO2 SLP137 T02390144 $
KLBE 311450Z 26008KT 7SM SCT025 25/21 A3015
KLBF 311453Z AUTO 16007KT 10SM CLR 22/15 A2994 RMK AO2 SLP114 T02170150 50009
KLBL 311515Z AUTO 20011KT 10SM CLR 26/14 A2999 RMK AO1
KLBT 311504Z AUTO 14003KT 10SM BKN008 BKN055 24/22 A3011 RMK AO2 T02440217
KLBX 311512Z AUTO 08006KT 10SM VCTS CLR 29/24 A3002 RMK AO2 LTG DSNT E AND SW T02890244
KLCG 311455Z AUTO 18010KT 7SM CLR 22/20 A2994 RMK AO2 T02180200
KLCH 311453Z 05006KT 10SM CLR 29/23 A3006 RMK AO2 SLP188 T02890228 51017
KLCI 311515Z AUTO 25012KT 10SM CLR 26/17 A2993 RMK AO1
KLCK 311455Z AUTO 33003KT 10SM CLR 25/20 A3014 RMK AO2 T02470199
KLCQ 311455Z AUTO 34003KT 10SM SCT009 OVC016 26/24 A3009 RMK AO2 LTG DSNT NE
KLDJ 311515Z AUTO 29005KT 10SM SCT110 28/19 A3006 RMK AO2 T02810191
KLDM 311515Z AUTO 23008KT 5SM BR BKN009 22/19 A3008 RMK AO2 T02160192
KLEB 311453Z 19011KT 9SM FEW034 26/18 A2995 RMK AO2 SLP133 T02610178 58009
KLEE 311453Z 17004KT 10SM CLR 27/24 A3008 RMK AO2 SLP185 T02720244 51018
KLEW 311515Z 25006KT 10SM CLR 26/ A2990 RMK AO1
KLEX 311454Z 28007KT 10SM CLR 26/17 A3018 RMK AO2 SLP210 T02610167 51011
KLFI 311458Z AUTO 20007KT 9SM FEW080 BKN100 25/20 A3013 RMK AO2 RAB33E47DZB47E50 SLP210 P0000 60000 T02480203 52007
KLFK 311453Z AUTO VRB04KT 10SM CLR 27/21 A3007 RMK AO2 SLP180 T02720206 51018
KLFT 311453Z 03003KT 10SM FEW019 FEW070 29/24 A3007 RMK AO2 SLP182 T02940239 51016
KLGA 311451Z 31006KT 10SM SCT110 BKN140 OVC250 28/19 A3003 RMK AO2 SLP168 T02780194 50000
KLGB 311453Z VRB04KT 10SM OVC015 22/18 A2989 RMK AO2 SLP121 T02220178 53014
KLGC 311455Z AUTO 04004KT 10SM OVC008 25/25 A3014 RMK AO2 T02450245
KLGD 311515Z AUTO 21003KT 10SM CLR 14/04 A3010 RMK AO1
KLGU 311451Z AUTO 00000KT 10SM CLR 13/04 A3014 RMK AO2 SLP166 T01280044 53014
KLHB 311515Z AUTO 15003KT 10SM SCT030 BKN055 28/22 A3006 RMK AO2 T02770223
KLHM 311455Z AUTO 00000KT 10SM CLR 16/05 A2991 RMK AO1
KLHQ 311453Z AUTO 00000KT 10SM CLR 26/19 A3015 RMK AO2 SLP202 T02610194 51009
KLHW 311513Z AUTO 33005KT 10SM OVC007 25/23 A3007 RMK AO2
KLHX 311453Z AUTO 27007KT 10SM CLR 24/11 A3001 RMK AO2 SLP095 T02390111 51020
KLHZ 311455Z AUTO 07006KT 10SM SCT005 SCT013 OVC019 20/19 A3018 RMK AO2 P0010
KLIC 311455Z AUTO 36018G26KT 10SM CLR 24/08 A3010 RMK AO2 PK WND 01026/1447 SLP110 T02440083 51019
KLIT 311453Z 00000KT 10SM FEW100 SCT250 27/21 A3008 RMK AO2 SLP186 T02670211 51014
KLJF 311513Z AUTO 16005KT 10SM CLR 23/21 A2990 RMK AO2
KLKR 311515Z AUTO 04005KT 10SM FEW016 25/21 A3013 RMK AO2
KLKU 311455Z AUTO 20003KT 10SM CLR 24/19 A3013 RMK AO2
KLKV 311515Z AUTO 35003KT 10SM CLR 12/04 RMK AO1
KLLJ 311455Z AUTO 00000KT 10SM CLR 11/03 A3014 RMK AO2 SLP164 T01110028 53006
KLLQ 311453Z AUTO 00000KT 10SM CLR 28/21 A3007 RMK AO2 SLP178 T02830206 51012
KLMO 311514Z AUTO 09004KT 7SM OVC110 23/12 A3011 RMK AO2 T02290124 PWINO
KLMT 311453Z 00000KT 10SM CLR 07/06 A3013 RMK AO2 SLP183 T00720056 53002
KLNC 311455Z AUTO 19003KT 10SM CLR 27/19 A3005 RMK AO2 T02710189
KLND 311453Z AUTO 11003KT 10SM CLR 18/05 A3008 RMK AO2 SLP119 T01830050 53002
KLNK 311454Z 20009KT 6SM HZ FEW045 23/21 A2997 RMK AO2 SLP140 T02330206 51007
KLNL 311455Z AUTO 22007KT 180V240 10SM CLR 22/16 A3002 RMK AO2 T02200163
KLNN 311455Z AUTO 28006KT 10SM CLR 24/19 A3011 RMK AO1 T02380193
KLNP 311457Z AUTO 35004KT 10SM SCT024 SCT029 23/15 A3026 RMK AO2
KLNR 311456Z AUTO 00000KT 10SM CLR 21/18 A3006 RMK AO2 SLP173 T02110183 51004
KLNS 311453Z 26006KT 8SM CLR 26/20 A3009 RMK AO2 SLP186 T02610200 53003
KLOL 311453Z AUTO 04007KT 10SM CLR 16/M01 A3007 RMK AO2 SLP150 T01611011 51008
KLOM 311455Z AUTO 00000KT 10SM CLR 28/21 A3007 RMK AO1
KLOR 311453Z AUTO VRB04KT 10SM CLR 28/22 A3009 RMK AO2 SLP185 T02780217 53016
KLOT 311455Z AUTO 00000KT 7SM CLR 24/20 A3009 RMK AO2 T02350202
KLOU 311453Z 28006KT 10SM CLR 27/19 A3016 RMK AO2 SLP207 T02670189 51009
KLOZ 311453Z AUTO VRB05KT 10SM CLR 26/17 A3018 RMK AO2 SLP207 T02610172 51008
KLPC 311515Z AUTO 31004KT 10SM SCT008 16/12 A2994 RMK AO1
KLPR 311453Z AUTO 32004KT 9SM CLR 26/21 A3012 RMK AO2 SLP194 T02560206 51008 TSNO
KLQK 311515Z AUTO 00000KT 10SM CLR 25/18 A3015 RMK AO2 T02490179
KLRD 311456Z 15009KT 10SM BKN016 29/23 A3001 RMK AO2 51019 T02880233 SLP148
KLRF 311458Z AUTO VRB03KT 10SM CLR 25/22 A3008 RMK AO2 SLP186 T02500218 51015
KLRJ 311455Z AUTO 19009KT 5SM BR BKN007 BKN011 22/21 A2995 RMK AO2
KLRO 311515Z AUTO 35003KT 10SM VCTS CLR 24/24 A3006 RMK AO2 LTG DSNT E AND SE
KLRU 311455Z AUTO 00000KT 10SM CLR 25/08 A3014 RMK AO2 T02450079
KLSB 311455Z AUTO 00000KT 10SM CLR 22/15 A3013 RMK AO2
KLSE 311453Z 18006KT 5SM BR OVC005 20/18 A3002 RMK AO2 SLP158 T02000183 53003
KLSF 311458Z AUTO VRB03KT 10SM CLR 27/22 A3010 RMK AO2 CIG 050 RWY15 SLP193 T02680221 52013 $
KLSV 311458Z AUTO 07002KT 10SM CLR 28/06 A2987 RMK AO2 SLP089 T02830056 52018
KLTS 311458Z 16007KT 10SM CLR 26/17 A3001 RMK AO2A SLP148 T02600166 50013 $
KLUA 311515Z AUTO 20004KT 10SM CLR 25/16 A3014 RMK AO2
KLUD 311455Z AUTO 22005KT 7SM CLR 27/18 A3005 RMK AO2 T02700178
KLUF 311458Z AUTO 27001KT 10SM CLR 31/19 A2988 RMK AO2 SLP103 T03110188 52018 $
KLUK 311453Z 24005KT 10SM CLR 26/21 A3015 RMK AO2 SLP205 T02610211 51008
KLUM 311515Z AUTO 16007KT 4SM BR OVC007 21/20 A2999 RMK AO2 T02050202
KLUX 311515Z AUTO 00000KT 10SM SCT017 24/22 A3015 RMK AO2 LTG DSNT S
KLVJ 311453Z AUTO 10005KT 10SM CLR 30/23 A3005 RMK AO2 SLP174 T03000228 51014
KLVK 311453Z 00000KT 10SM CLR 18/13 A2994 RMK AO2 SLP137 T01780133 53008 $
KLVL 311501Z AUTO 00000KT 4SM SCT029 SCT080 OVC120 21/21 A3015 RMK AO2 P0001
KLVM 311453Z AUTO 27012KT 10SM CLR 14/03 A3003 RMK AO2 SLP130 T01390028 51002
KLVN 311506Z AUTO 19007KT 153V213 7SM BKN008 22/21 A2995 RMK AO2
KLVS 311453Z AUTO 00000KT 10SM CLR 23/07 A3024 RMK AO2 SLP126 T02280072 51010
KLWA 311515Z AUTO 00000KT 5SM HZ SCT009 BKN016 23/20 A3010 RMK AO2 T02310200
KLWB 311455Z AUTO 00000KT 10SM BKN038 BKN046 OVC120 23/18 A3022 RMK AO2 T02280180
KLWC 311452Z AUTO 16006KT 7SM CLR 26/22 A2999 RMK AO2 SLP149 T02560217 50003
KLWD 311453Z AUTO 17006KT 6SM BR FEW006 24/22 A3001 RMK AO2 SLP154 T02440222 51006 $
KLWM 311454Z 29012G16KT 10SM CLR 28/17 A2998 RMK AO2 SLP149 T02830167 58004
KLWS 311456Z 00000KT 10SM CLR 14/09 A3006 RMK AO2 SLP175 T01440094 53006
KLWT 311454Z AUTO 26011G15KT 10SM CLR 15/02 A2996 RMK AO2 SLP119 T01500017 50005 TSNO
KLWV 311453Z AUTO 22006KT 10SM BKN070 26/21 A3013 RMK AO2 SLP198 T02560206 50008
KLXL 311514Z AUTO 16010KT 10SM CLR 21/18 A2986 RMK AO2
KLXN 311455Z AUTO 18008KT 10SM CLR 23/19 A2994 RMK AO2 T02250186
KLXT 311453Z AUTO 20006KT 10SM CLR 25/21 A3001 RMK AO2 SLP154 T02500206 51007
KLXV 311453Z AUTO 00000KT 10SM CLR 12/05 A3045 RMK AO2 SLP148 T01220050 53009
KLXY 311515Z AUTO 15004KT 10SM CLR 27/22 A3005 RMK AO2 T02720222
KLYH 311454Z 19005KT 10SM BKN050 OVC110 24/17 A3017 RMK AO2 SLP207 60000 T02390172 53006
KLYV 311514Z AUTO 18008G14KT 4SM BR SCT007 BKN011 22/21 A2993 RMK AO2
KLZU 311445Z 05005KT 10SM CLR 24/17 A3016 RMK ATIS P, RWY 7 JW
KLZZ 311455Z AUTO 22003KT 10SM CLR 27/21 A3005 RMK AO2 T02700214
KM19 311456Z AUTO 18005KT 10SM CLR 26/21 A3011 RMK AO2 51010 T02610211 SLP191
KM25 311515Z AUTO 23003KT 10SM CLR 25/20 A3015 RMK AO2 PWINO
KM30 311455Z AUTO 19005KT 10SM CLR 25/22 A3014 RMK AO2 LTG DSNT NW T02510215
KM40 311515Z AUTO 00000KT 7SM SCT012 27/18 A3014 RMK AO2
KM63 311456Z AUTO 32003KT 8SM CLR 25/07 A3010 RMK AO2 SLP118 T02530070 52012
KM91 311515Z AUTO VRB03KT 10SM CLR 27/21 A3015 RMK
KMAE 311453Z AUTO 31004KT 10SM CLR 18/13 A2993 RMK AO2 SLP131 T01830128 53012
KMAF 311453Z 17011KT 10SM CLR 25/16 A3008 RMK AO2 SLP138 T02500156 51007
KMAI 311453Z AUTO 36003KT 10SM OVC008 26/23 A3009 RMK AO2 SLP187 T02560233 53016
KMAN 311455Z AUTO 32005KT 10SM CLR 15/07 A3009 RMK AO1
KMAO 311515Z AUTO 00000KT 5SM BR BKN006 BKN022 BKN048 22/21 A3010 RMK AO2 LTG DSNT S
KMBG 311452Z AUTO 35018G29KT 8SM CLR 25/14 A2978 RMK AO2 PK WND 36029/1443 SLP071 T02500144 53035
KMBL 311515Z AUTO 18004KT 9SM OVC008 19/18 A3007 RMK AO1
KMBS 311453Z 23008KT 2SM BR OVC005 19/17 A3010 RMK AO2 SFC VIS 3 SLP189 T01940172 51004
KMCB 311453Z AUTO VRB05KT 10SM CLR 29/22 A3010 RMK AO2 SLP188 T02890222 51016
KMCC 311455Z AUTO 14004KT 10SM CLR 18/09 A2993 RMK AO2
KMCD 311455Z AUTO 24006KT 7SM OVC008 20/19 A3002 RMK AO2 T01980185
KMCE 311453Z AUTO 26003KT 10SM CLR 17/13 A2991 RMK AO2 SLP128 T01670128 53012
KMCF 311458Z AUTO 13007KT 10SM SCT150 28/26 A3005 RMK AO2 LTG DSNT SW SLP179 T02830264 52015 $
KMCI 311453Z 20006KT 6SM HZ CLR 26/22 A3000 RMK AO2 SLP148 T02610222 51009
KMCJ 311515Z AUTO 08004KT 10SM FEW025 30/22 A3001 RMK AO1
KMCK 311453Z AUTO 19004KT 10SM CLR 22/15 A2995 RMK AO2 SLP121 T02170150 52014
KMCN 311501Z 00000KT 10SM OVC010 24/21 A3013 RMK AO2
KMCO 311453Z 15005KT 10SM FEW015 SCT160 BKN220 28/24 A3008 RMK AO2 SLP183 T02780239 52017
KMCW 311500Z AUTO 17009KT 6SM BR SCT003 21/20 A3001 RMK AO2 T02060200
KMCX 311515Z AUTO 25003KT 10SM SCT011 25/23 A3010 RMK AO2 T02520232
KMDD 311455Z AUTO 18010KT 10SM CLR 25/15 A3009 RMK AO2 T02520152
KMDH 311452Z 19010KT 10SM BKN120 26/21 A3011 RMK AO2 LTG DSNT W SLP192 T02610206 50007
KMDJ 311455Z AUTO 03006KT 10SM CLR 29/21 A3008 RMK A01
KMDQ 311515Z AUTO 07003KT 10SM CLR 24/17 A3015 RMK AO2
KMDS 311510Z AUTO 19013G18KT 10SM CLR 21/21 A2989 RMK AO2
KMDT 311456Z 00000KT 10SM SCT085 BKN200 27/20 A3008 RMK AO2 SLP184 T02670200 51003
KMDW 311453Z 00000KT 6SM HZ CLR 25/19 A3008 RMK AO2 SLP177 T02500194 51005
KMDZ 311455Z AUTO 22004KT 1SM BR OVC003 18/18 A3004 RMK AO2 T01780178
KMEB 311505Z AUTO 34004KT 10SM BKN010 24/21 A3011 RMK AO2 T02440211
KMEH 311456Z AUTO 00000KT 10SM CLR 08/05 A3010 RMK AO2 SLP189 T00830050 50001
KMEI 311458Z 00000KT 10SM CLR 27/21 A3010 RMK AO2 SLP189 T02670211 51011
KMEM 311454Z 13004KT 10SM FEW250 27/19 A3011 RMK AO2 SLP192 T02670194 51010
KMER 311445Z 29007KT 6SM HZ SKC 19/14 A2991
KMEV 311455Z AUTO 00000KT 10SM CLR 09/02 A3013 RMK AO2
KMEZ 311515Z AUTO 00000KT 10SM BKN080 28/21 A3010 RMK AO2
KMFD 311452Z 25007KT 10SM CLR 26/20 A3014 RMK AO2 SLP199 T02560200 53008
KMFE 311453Z 15010KT 10SM SCT014 29/24 A2997 RMK AO2 SLP146 T02940244 50011
KMFR 311453Z 00000KT 10SM CLR 12/09 A3010 RMK AO2 SLP187 T01220089 53006
KMFV 311455Z AUTO 23005KT 10SM OVC070 26/16 A3012 RMK AO2
KMGC 311455Z AUTO 21004KT 5SM BR SCT010 24/22 A3010 RMK AO2
KMGE 311459Z 11004KT 3SM BR FEW008 BKN022 OVC050 21/20 A3016 RMK AO2A SLP207 P0000 60001 T02110195 53010 $
KMGG 311516Z AUTO 17007KT 10SM SCT012 23/21 A2992 RMK AO2 T02300206
KMGJ 311454Z AUTO 20005KT 10SM CLR 26/21 A3004 RMK AO2 SLP169 T02560211 57002 TSNO
KMGM 311453Z VRB04KT 10SM FEW018 28/21 A3010 RMK AO2 SLP191 T02830211 51011
KMGN 311515Z AUTO 23005KT 10SM OVC009 20/18 A3003 RMK AO2 T02030185
KMGR 311455Z AUTO 00000KT 10SM OVC017 26/22 A3011 RMK AO2 LTG DSNT S
KMGW 311453Z VRB04KT 10SM FEW035 27/19 A3017 RMK AO2 SLP206 T02670189 52008
KMGY 311453Z AUTO 24005KT 10SM CLR 25/20 A3014 RMK AO2 SLP201 T02500200 51008
KMHE 311453Z AUTO 19010G18KT 10SM CLR 23/18 A2983 RMK AO2 SLP093 T02280183 51005
KMHK 311452Z 18008KT 8SM CLR 26/22 A2997 RMK AO2 SLP139 T02610222 51002
KMHL 311515Z AUTO 18005KT 10SM CLR 28/22 A3003 RMK AO2
KMHR 311445Z 14005KT 10SM SKC 16/08 A2991
KMHS 311456Z AUTO 00000KT 10SM CLR 11/07 A3009 RMK AO2 SLP191 T01110067 51001
KMHT 311453Z 28008KT 10SM FEW045 FEW250 28/17 A2995 RMK AO2 SLP150 T02780167 58004
KMHV 311440Z AUTO 00000KT 9SM CLR 21/09 A2996 RMK A01
KMIA 311453Z 14008G17KT 10SM BKN024 BKN250 31/25 A3005 RMK AO2 SLP177 T03060250 53013 $
KMIB 311458Z AUTO 25007KT 10SM CLR 20/14 A2980 RMK AO2 SLP092 T01970141 52018 $
KMIC 311453Z 17010G16KT 8SM FEW016 24/19 A2991 RMK AO2 SLP125 T02390194 55000
KMIE 311453Z VRB03KT 10SM CLR 24/21 A3013 RMK AO2 SLP194 T02390206 53008
KMIS 311455Z AUTO 06008KT 10SM CLR 28/19 A3008 RMK A01
KMIV 311454Z AUTO 26006KT 10SM CLR 28/20 A3008 RMK AO2 SLP184 T02830200 52002
KMIW 311453Z AUTO 15007KT 6SM BR CLR 22/21 A3000 RMK AO2 SLP156 T02220206 51004
KMJQ 311513Z AUTO 19011KT 5SM BR SCT006 22/21 A2995 RMK AO2
KMJX 311515Z AUTO 28007KT 10SM OVC110 28/21 A3007 RMK AO1
KMKC 311454Z 20005KT 8SM CLR 27/22 A2999 RMK AO2 SLP145 T02670222 51007
KMKE 311452Z 21005KT 7SM FEW003 21/18 A3008 RMK AO2 SLP184 T02060178 53007
KMKG 311455Z 20003KT 7SM BKN009 22/19 A3009 RMK AO2 SLP188 T02220189 52006
KMKJ 311455Z AUTO 00000KT 10SM SCT085 OVC120 23/17 A3025 RMK AO2 T02330167
KMKL 311453Z 00000KT 10SM CLR 23/21 A3013 RMK AO2 SLP200 T02330206 51010
KMKN 311515Z AUTO 23007KT 10SM CLR 29/20 A3006 RMK AO2 T02860203
KMKO 311453Z AUTO 15007KT 10SM CLR 26/22 A3005 RMK AO2 SLP168 T02610222 51014
KMKS 311515Z AUTO 01003KT 7SM OVC007 25/23 A3007 RMK AO2 LTG DSNT E THRU S
KMKT 311515Z 19010KT 5SM OVC006 21/19 A2995 RMK AO1
KMKY 311515Z 17008G14KT 10SM VCTS SCT026 BKN041 BKN050 29/23 A3005 RMK AO1 LTG DSNT SW TSB01
KMLB 311453Z 15007KT 10SM SCT030 31/23 A3006 RMK AO2 SLP180 T03060233 51015
KMLC 311453Z AUTO 19004KT 10SM FEW110 27/21 A3005 RMK AO2 SLP165 T02670206 51011
KMLE 311455Z AUTO 17004KT 10SM CLR 23/21 A2996 RMK AO2 T02260209
KMLF 311452Z AUTO 22004KT 10SM CLR 19/08 A3013 RMK AO2 SLP136 T01940083 51016
KMLI 311452Z 09003KT 7SM CLR 24/21 A3004 RMK AO2 SLP171 T02440211 50001
KMLJ 311455Z AUTO 00000KT 10SM OVC005 22/20 A3014 RMK AO2
KMLP 311501Z AUTO 26007KT 210V300 10SM BKN009 04/03 A3010 RMK AO2 T00440028
KMLS 311453Z AUTO 26004KT 8SM CLR 17/09 A2997 RMK AO2 SLP135 T01720094 51012
KMLT 311453Z AUTO 23007KT 200V260 10SM BKN041 OVC050 23/16 A2982 RMK AO2 SLP100 T02330161 56018
KMLU 311453Z VRB03KT 10SM CLR 29/21 A3008 RMK AO2 SLP185 T02890211 51013
KMMH 311515Z AUTO 00000KT 10SM CLR 14/M02 A3024 RMK AO1
KMMI 311515Z AUTO 04003KT 10SM CLR 24/18 A3018 RMK
KMMK 311453Z AUTO 32007KT 10SM CLR 29/19 A3001 RMK AO2 SLP159 T02940189 50000 TSNO
KMML 311515Z AUTO 21019G25KT 10SM CLR 23/18 A2988 RMK AO1
KMMT 311458Z 01005KT 10SM BKN011 OVC026 23/20 A3012 RMK AO2A SLP200 51014 $
KMMU 311445Z 00000KT 10SM OVC110 29/21 A3005 RMK BINOVC
KMMV 311453Z AUTO 15004KT 10SM BKN036 OVC049 16/13 A3007 RMK AO2 SLP181 T01560128 53003
KMNE 311455Z AUTO 25003KT 10SM CLR 29/20 A3009 RMK AO2 T02850203
KMNH 311514Z AUTO 35004KT 10SM BKN100 19/07 A3025 RMK AO2
KMNI 311515Z 01005KT 10SM BKN008 24/22 A3009 RMK AO2 LTG DSNT S PWINO
KMNM 311515Z AUTO 26008KT 10SM OVC008 19/16 A3001 RMK AO1
KMNN 311453Z AUTO 00000KT 6SM HZ CLR 26/20 A3014 RMK AO2 SLP199 T02560200 51007 TSNO
KMNZ 311515Z AUTO 23007KT 10SM CLR 28/19 A3007 RMK AO2 T02840186
KMOB 311456Z 31007KT 10SM FEW200 29/22 A3010 RMK AO2 SLP189 T02890222 53015
KMOD 311453Z 33003KT 10SM CLR 19/12 A2991 RMK AO2 SLP129 T01940122 53012
KMOP 311517Z AUTO 24005KT 10SM OVC007 21/19 A3009 RMK AO2 T02110185
KMOR 311455Z AUTO 00000KT 10SM CLR 23/18 A3020 RMK
KMOT 311454Z 25010KT 10SM CLR 19/12 A2981 RMK AO2 SLP090 60000 T01940117 53017
KMOX 311514Z AUTO 18012G17KT 10SM CLR 23/19 A2980 RMK AO2
KMPO 311453Z AUTO 28007KT 8SM CLR 24/19 A3013 RMK AO2 SLP190 T02390194 53001
KMPV 311451Z AUTO 26008KT 210V290 10SM BKN037 BKN050 24/16 A3000 RMK AO2 SLP154 T02390161 56005
KMPZ 311455Z AUTO 14003KT 7SM CLR 26/21 A3004 RMK AO2 T02620214
KMQB 311455Z AUTO 17003KT 10SM CLR 24/23 A3008 RMK AO2 LTG DSNT SE T02380233
KMQE 311454Z AUTO 29007KT 27/18 A2999 RMK AO1 SLP160 T02670178 50001
KMQI 311455Z AUTO 05005KT 10SM SCT070 OVC095 26/21 A3014 RMK AO2 T02630206
KMQJ 311516Z AUTO 00000KT 10SM CLR 26/19 A3014 RMK AO1
KMQS 311455Z AUTO 32006KT 10SM CLR 28/20 A3011 RMK AO2
KMQY 311456Z 00000KT 10SM SCT023 26/22 A3017 RMK AO2 51011 T02550222 SLP220
KMRB 311453Z 30005KT 10SM CLR 27/18 A3012 RMK AO2 SLP192 T02670183 53004
KMRC 311515Z AUTO 00000KT 10SM FEW022 26/21 A3014 RMK
KMRF 311515Z AUTO 21003KT 10SM CLR 23/11 A3020 RMK AO1
KMRH 311458Z AUTO 11005KT 10SM OVC080 26/23 A3011 RMK AO2 SLP196 T02610228 51002 TSNO
KMRJ 311455Z AUTO 18005KT 7SM CLR 21/20 A3007 RMK AO2
KMRN 311455Z AUTO 00000KT 10SM CLR 24/17 A3021 RMK AO2 T02400172
KMRT 311514Z AUTO 29004KT 10SM CLR 27/21 A3015 RMK AO2 T02720205
KMRY 311454Z 27003KT 9SM OVC011 17/14 A2997 RMK AO2 SLP158 T01670139 51005
KMSL 311453Z AUTO 00000KT 9SM OVC016 23/19 A3016 RMK AO2 SLP207 T02280189 53015
KMSN 311453Z VRB05KT 10SM BKN023 21/18 A3006 RMK AO2 SLP178 T02110183 53003
KMSO 311453Z 00000KT 10SM CLR 09/07 A3008 RMK AO2 SLP187 T00940072 50003
KMSP 311511Z 18009KT 9SM BKN014 23/19 A2994 RMK AO2 T02330194
KMSS 311514Z AUTO 29010KT 10SM BKN024 OVC032 23/18 A2996 RMK AO2 T02330178
KMSV 311515Z AUTO 10SM FEW019 24/20 A3010 RMK AO1
KMSY 311453Z VRB06KT 10SM SCT026 BKN250 30/22 A3008 RMK AO2 SLP188 T03000217 51015
KMTC 311513Z VRB05KT 7SM SCT017 23/18 A3009
KMTH 311453Z AUTO 16009KT 10SM FEW029 31/25 A3004 RMK AO2 SLP172 T03110250 52013 $
KMTJ 311453Z AUTO 11003KT 10SM OVC100 16/13 A3025 RMK AO2 SLP177 T01610128 53013
KMTN 311450Z 20005KT 10SM SCT110 BKN150 BKN200 30/22 A3010
KMTO 311509Z AUTO 11004KT 8SM VCTS BKN005 OVC025 22/19 A3012 RMK AO2 LTG DSNT NE-S T02170194
KMTP 311454Z AUTO 25007KT 27/21 A3002 RMK AO1 SLP165 T02670211 56002
KMTV 311450Z AUTO 00000KT 10SM BKN019 25/19 A3018 RMK AO2 LTG DSNT S 60001 T02500189
KMTW 311456Z AUTO 9SM FEW013 22/19 A3005 RMK AO2 SLP191 6//// T02220189 53005 PNO $
KMUI 311458Z AUTO VRB03KT 10SM CLR 27/20 A3008 RMK AO2 SLP185 T02730203 50003
KMUO 311458Z AUTO 27007KT 10SM CLR 15/05 A3009 RMK AO2 SLP173 T01470054 52008 $
KMUT 311455Z AUTO 15005KT 9SM CLR 24/20 A3004 RMK AO2
KMVE 311514Z AUTO 21013G19KT 10SM CLR 24/21 A2983 RMK AO2
KMVH 311455Z AUTO 30007KT 10SM CLR 14/03 A2999 RMK AO2
KMVL 311454Z AUTO 26006KT 10SM BKN047 BKN055 25/17 A2995 RMK AO2 SLP140 T02500167 56008 TSNO
KMVN 311515Z AUTO 23009KT 10SM CLR 27/20 A3012 RMK AO1
KMVY 311453Z 27012KT 10SM CLR 27/21 A2999 RMK AO2 SLP154 T02720211 58002
KMWA 311452Z 20005KT 15SM SKC 26/21 A3013
KMWC 311445Z 25004KT 10SM BKN014 21/17 A3008
KMWH 311452Z 13007KT 10SM CLR 14/09 A2999 RMK AO2 SLP153 T01390089 53006
KMWK 311455Z AUTO 09007KT 10SM SCT032 27/18 A3018 RMK AO2 T02670184
KMWL 311453Z AUTO 20005KT 10SM CLR 26/19 A3003 RMK AO2 SLP156 T02560194 51013
KMWM 311514Z AUTO 19010G16KT 7SM SCT008 23/20 A2993 RMK AO2
KMWN 311447Z 27050G60KT 0SM FG VV000 10/10 RMK
KMWO 311455Z AUTO 00000KT 10SM CLR 25/22 A3015 RMK AO2 T02510215
KMWT 311453Z AUTO 00000KT 10SM CLR 28/21 A3006 RMK AO2 SLP168 T02780206 53005
KMXF 311458Z AUTO 09003KT 10SM FEW016 26/22 A3010 RMK AO2 SLP194 T02620217 52012
KMXO 311455Z AUTO VRB06KT 5SM BR CLR 22/21 A3005 RMK AO2
KMYF 311453Z 17005KT 10SM OVC012 21/17 A2991 RMK AO2 SLP125 T02060167 53015
KMYL 311451Z AUTO 00000KT 10SM CLR 08/04 A3014 RMK AO2 SLP189 T00780039 53008
KMYP 311510Z AUTO 28017KT 10SM CLR 07/04 A3070 RMK AO2
KMYR 311445Z 24008KT 8SM -RA SCT014 BKN030 23/21 A3011 RMK TS SW MOV NE
KMYV 311453Z AUTO 09004KT 10SM CLR 17/06 A2991 RMK AO2 SLP133 T01720061 53011
KMYZ 311455Z AUTO 18008KT 10SM CLR A2998 RMK AO2
KMZG 311455Z AUTO 16006KT 10SM CLR 30/23 A3000 RMK A01
KMZH 311514Z AUTO 20009G14KT 10SM BKN013 22/18 A2988 RMK AO2
KMZZ 311455Z AUTO 25005KT 7SM CLR 25/17 A3013 RMK AO2 T02530174
KN03 311515Z AUTO 29008KT 258V318 10SM SCT021 SCT026 BKN047 25/20 A3009 RMK AO2
KN38 311455Z AUTO VRB04KT 10SM CLR 23/19 A3015 RMK AO2
KN60 311452Z AUTO 31012KT 20/13 A2985 RMK AO1 SLP101 T02000128 51029
KNAK 311454Z AUTO 24005KT 10SM CLR 27/19 A3009 RMK AO2 SLP192 T02720189 53005
KNBC 311456Z 34008KT 10SM FEW006 BKN041 27/24 A3007 RMK AO2 SLP181 60000 T02720239 51013
KNBG 311455Z 05005KT 10SM SCT022 BKN250 30/23 A3007 RMK AO2 SLP183 T03000233 51013 $
KNBT 311456Z AUTO 13006KT 10SM FEW120 A3011 RMK AO2 SLP202 6//// 51003 PNO $
KNCA 311513Z 28003KT 3/4SM +RA BR FEW017 BKN029 OVC060 24/23 A3011 RMK AO2 TWR VIS 1 P0009 T02440233
KNDZ 311456Z 00000KT 10SM FEW250 29/21 A3009 RMK AO2 SLP173 T02940211 51017 $
KNEL 311500Z AUTO 27006KT 10SM BKN110 26/21 A3006 RMK AO2 SLP177 6//// T02560211 50001 PNO $
KNEW 311453Z 01005KT 8SM FEW020 28/23 A3009 RMK AO2 SLP183 T02830228 51017
KNFE 311456Z AUTO 31006KT 10SM -RA SCT090 OVC110 26/21 A3015 RMK AO2 RAB39 SLP210 P0000 60000 T02610206 53006
KNFG 311454Z 16005KT 5SM HZ OVC017 21/16 A2990 RMK AO2 SLP123 T02110161 51014 $
KNFL 311456Z 19003KT 10SM FEW300 15/M02 A3007 RMK AO2 SLP150 FU ALF DSNT ALQDS T01501017 51010
KNFW 311452Z VRB03KT 10SM FEW300 28/19 A3004 RMK AO2 SLP154 T02780194 51014
KNGP 311456Z 17010KT 10SM FEW017 SCT200 SCT250 31/23 A2998 RMK AO2 SLP152 CB DSNT NE-SE T2 SET T03060233 50012
KNGU 311459Z 22004KT 5SM -RA SCT060 OVC085 24/21 A3016 RMK AO2 RAB05 SLP211 P0003 60003 T02390211 53007
KNHK 311452Z 23006KT 10SM BKN080 BKN120 OVC200 27/19 A3010 RMK AO2 SLP193 T02670189 53004
KNID 311456Z 00000KT 10SM CLR 21/07 A2992 RMK AO2 SLP113 T02110067 53015 $
KNIP 311453Z 00000KT 10SM OVC015 28/23 A3009 RMK AO2 SLP183 T02780233 53017
KNJK 311456Z 00000KT 10SM BKN250 32/08 A2978 RMK AO2 SLP100 T03170078 53016 $
KNJM 311457Z 09005KT 10SM -RA FEW039 FEW060 27/23 A3011 RMK AO2 SLP200 P0000 60001 T02720228 51007 $
KNKT 311454Z 13003KT 10SM -RA FEW031 SCT090 OVC110 26/23 A3012 RMK AO2 SLP197 P0001 60001 T02560233 51007
KNKX 311455Z 18007KT 10SM OVC013 22/17 A2991 RMK AO2 SLP123 T02220167 53015 $
KNLC 311456Z 26006KT 10SM BKN180 19/09 A2993 RMK AO2 SLP135 RH/52 T01890089 53012
KNMM 311456Z 00000KT 10SM FEW250 26/21 A3011 RMK AO2 SLP202 T02610206 51012
KNOG 311456Z AUTO 20006G14KT 10SM FEW018 29/24 A3001 RMK AO2 SLP141 T02940244 51017 TSNO $
KNPA 311456Z 04004KT 10SM FEW250 30/22 A3008 RMK AO2 SLP186 T03000222 53015
KNQA 311450Z 14005KT 10SM SCT250 25/22 A3011
KNQI 311456Z 16008KT 10SM FEW030 SCT150 BKN250 31/25 A2999 RMK AO2 SLP150 CB DSNT NE AND E TCU DSNT S T03110250 51012 $
KNQX 311453Z 18010KT 10SM SCT030 BKN150 31/23 A3003 RMK AO2 SLP168 T03110233 52011 $
KNRB 311452Z 25005KT 10SM BKN025 BKN250 27/24 A3008 RMK AO2 SLP185 T02670239 53013 $
KNRS 311456Z 19006KT 9SM OVC017 22/17 A2991 RMK AO2 SLP129 T02170172 51013 $
KNSE 311456Z 00000KT 10SM FEW250 28/21 A3009 RMK AO2 SLP173 T02830211 51017 $
KNSI 311457Z COR 31009KT 4SM HZ BKN005 OVC008 19/16 A2990 RMK AO2 SLP123 T01890161 53014 PNO $
KNTD 311456Z 03003KT 5SM HZ FEW014 20/17 A2990 RMK SLP124 T02000167 52015 VISNO N
KNTU 311456Z 26008KT 10SM -RA OVC095 26/20 A3014 RMK AO2 RAB26 SLP208 P0001 60001 T02560200 53008
KNUC 311456Z 07003KT 9SM BKN011 19/17 A2988 RMK SLP117 T01940167
KNUI 311453Z AUTO 22007KT 10SM BKN090 27/20 A3010 RMK AO2 SLP193 T02670200 53005
KNUQ 311456Z 00000KT 10SM CLR 18/12 A2996 RMK AO2 SLP147 T01830117 53010
KNUW 311456Z 15019KT 8SM -RA BKN019 BKN075 OVC095 16/13 A2993 RMK AO2 PK WND 14030/1404 SLP135 P0000 60000 T01560128 51007
KNXF 311456Z AUTO 10007KT 7SM OVC017 22/17 A2990 RMK AO2 SLPNO T02170167 53010 $
KNXP 311456Z AUTO 30006KT 10SM CLR 25/11 A2998 RMK AO2 SLP112 T02500106 51014 $
KNYC 311451Z AUTO 00000KT 8SM FEW110 28/19 A3006 RMK AO2 SLP170 T02830194 57001 $
KNYG 311456Z 20004KT 10SM SCT060 BKN120 25/19 A3012 RMK AO2 RAB00E30 SLP200 P0000 60000 T02500194 51008
KNYL 311457Z 16005KT 10SM FEW200 BKN250 32/20 A2979 RMK AO2 SLP083 T03220200 53019
KNZY 311452Z 19009KT 10SM BKN015 21/17 A2990 RMK AO2 SLP124 T02060172 53014
KO22 311515Z AUTO 00000KT 10SM CLR 18/07 A2996 RMK AO1
KO54 311515Z AUTO 00000KT 10SM CLR 10/08 A3006 RMK AO1
KO69 311455Z AUTO 00000KT 10SM CLR 14/11 A2996 RMK AO1
KO86 311455Z AUTO 00000KT 10SM CLR 11/07 A3006 RMK AO1
KOAJ 311515Z AUTO 26004KT 10SM FEW009 SCT020 OVC090 23/21 A3013 RMK AO1 TSB1458E13 P0001
KOAK 311453Z VRB06KT 10SM FEW010 18/14 A2994 RMK AO2 SLP139 T01830139 53006
KOBE 311515Z AUTO 15008KT SCT022 30/25 A3007 RMK AO2 LTG DSNT SW PWINO
KOCF 311450Z 20005KT 10SM SCT010 26/24 A3008
KOCH 311515Z AUTO 22004KT 10SM CLR 27/22 A3008 RMK AO1
KOCQ 311455Z AUTO 25005KT 4SM OVC003 18/18 A3003 RMK AO1 T01790179
KOCW 311500Z AUTO 02007KT 7SM -RA SCT020 SCT027 SCT090 22/21 A3014 RMK AO2 T02170208
KODO 311453Z AUTO 18009KT 10SM CLR 25/14 A3009 RMK AO2 SLP141 T02500144 52008
KODX 311453Z AUTO 18010KT 10SM CLR 21/18 A2992 RMK AO2 SLP122 T02110178 53004
KOEB 311514Z AUTO 00000KT 5SM HZ BKN013 OVC019 25/22 A3012 RMK AO2 T02470215
KOEO 311455Z AUTO 17009KT 7SM OVC009 22/22 A2997 RMK AO2 T02200220
KOFF 311458Z 15004KT 5SM BKN004 22/22 A2997 RMK AO2A SLP149 T02170217 51007 $
KOFK 311456Z AUTO 18008KT 9SM CLR 22/19 A2993 RMK AO2 SLP125 T02220194 50002
KOFP 311454Z AUTO VRB05KT 10SM CLR 25/19 A3013 RMK AO2 SLP202 T02500189 53003
KOGA 311455Z AUTO 00000KT 7SM CLR 20/11 A2996 RMK AO2 T01950112
KOGB 311453Z AUTO 03007KT 10SM SCT010 OVC021 23/20 A3011 RMK AO2 SLP192 T02330200 51013
KOGD 311453Z 34004KT 10SM SCT110 19/06 A3010 RMK AO2 SLP137 T01940056 53018
KOJA 311455Z AUTO 20010KT 10SM CLR 26/16 A3001 RMK AO2
KOJC 311453Z 19006KT 8SM CLR 24/21 A3000 RMK AO2 SLP147 T02440211 51007
KOKB 311452Z AUTO 14005KT 9SM OVC016 22/17 A2989 RMK AO2 SLP122 T02170167 53014
KOKC 311452Z 19011KT 10SM FEW250 26/18 A3001 RMK AO2 SLP146 T02610183 51011
KOKK 311515Z AUTO 30008KT 10SM FEW020 27/22 A3012 RMK AO1
KOKM 311455Z AUTO 19006G16KT 10SM CLR 28/20 A3002 RMK AO2 T02750196
KOKV 311455Z AUTO 00000KT 10SM BKN120 28/17 A3013 RMK AO2
KOKZ 311455Z AUTO 02004KT 10SM OVC004 22/21 A3013 RMK AO2 LTG DSNT E T02190208
KOLE 311455Z AUTO 29004KT 10SM BKN016 BKN024 22/18 A3014 RMK AO2
KOLF 311453Z AUTO 25011KT 10SM CLR 17/08 A2989 RMK AO2 SLP115 T01670078 51016
KOLG 311455Z AUTO 19010G16KT 10SM OVC010 20/17 A2993 RMK AO1
KOLM 311454Z 21010G16KT 10SM OVC024 16/11 A2999 RMK AO2 RAE1357B28E39 SLP154 P0000 60000 T01560111 53005
KOLS 311454Z AUTO 19004KT 10SM CLR 21/16 A3011 RMK AO2 SLP140 T02060156 52012
KOLU 311515Z AUTO 19007KT 10SM CLR 23/18 A2994 RMK AO1
KOLV 311450Z 00000KT 10SM FEW250 25/22 A3011
KOLY 311455Z AUTO 21004KT 10SM TS SCT050 SCT065 25/21 A3013 RMK AO2 LTG DSNT W THRU N
KOLZ 311455Z AUTO 17008KT 5SM BR 22/21 A3004 RMK AO2
KOMA 311452Z 15008KT 6SM HZ SCT250 23/21 A2996 RMK AO2 SLP140 T02330206 51005
KOMH 311455Z AUTO 00000KT 10SM CLR 25/21 A3013 RMK AO2
KOMK 311453Z AUTO 17013KT 10SM CLR 16/05 A2992 RMK AO2 SLP131 T01560050 53008
KOMN 311450Z 23006KT 10SM BKN090 28/24 A3008
KONA 311514Z AUTO 00000KT 7SM OVC008 21/18 A3001 RMK AO2
KONL 311455Z AUTO 20009KT 10SM CLR 22/19 A2990 RMK AO2 T02230188
KONM 311455Z AUTO 00000KT 10SM CLR 23/10 A3017 RMK AO2 T02280096
KONO 311453Z AUTO 00000KT 10SM CLR 13/07 A3011 RMK AO2 SLP189 T01330067 51012
KONP 311455Z AUTO 00000KT 10SM SCT020 OVC046 15/13 A3009 RMK AO2
KONT 311453Z 18004KT 10SM FEW200 21/17 A2990 RMK AO2 SLP109 T02110167 53011
KONX 311455Z AUTO 28003KT 10SM SCT090 BKN110 27/19 A3015 RMK AO2 T02660185
KONZ 311514Z AUTO 28004KT 10SM CLR 26/21 A3009 RMK AO2
KOOA 311455Z AUTO 16005KT 7SM CLR 24/22 A3003 RMK AO2 T02430217
KOPF 311453Z 15012KT 10SM FEW028 FEW040 32/24 A3006 RMK AO2 SLP178 T03170239 53011 $
KOPL 311455Z AUTO 00000KT 10SM BKN016 BKN023 29/24 A3008 RMK AO2 T02910237
KOPN 311455Z AUTO 09003KT 10SM OVC004 23/23 A3016 RMK AO2
KOQT 311453Z AUTO 13004KT 10SM FEW021 SCT044 25/18 A3018 RMK AO2 SLP205 T02500183 51007
KORB 311501Z AUTO 17008KT 10SM CLR 21/15 A2977 RMK AO2
KORC 311455Z AUTO 20009KT 2SM BR OVC002 21/21 A2995 RMK AO2
KORD 311451Z 00000KT 8SM CLR 23/19 A3008 RMK AO2 SLP183 T02330189 53004
KORE 311452Z AUTO 28007KT 10SM FEW028 26/18 A3000 RMK AO2 SLP157 T02610178 58004
KORF 311451Z AUTO 25004KT 9SM -RA OVC090 23/20 A3014 RMK AO2 RAB01 SLP206 P0003 60003 T02330200 53007 TSNO
KORG 311455Z AUTO 05006KT 10SM CLR 27/20 A3008 RMK AO2 T02720200
KORH 311454Z 28013KT 10SM CLR 26/17 A3002 RMK AO2 SLP162 T02560167 51001
KORL 311453Z 20006KT 10SM CLR 28/25 A3008 RMK AO2 SLP186 T02830250 51016
KORS 311515Z AUTO 19010G17KT 3SM -RA FEW001 SCT013 BKN021 14/13 A2986 RMK AO2 P0001
KOSA 311455Z AUTO 21005KT 10SM CLR 28/20 A3007 RMK AO1 T02780195
KOSC 311513Z AUTO 31005KT 10SM CLR 24/19 A3005 RMK AO2 T02400187
KOSH 311453Z VRB05KT 7SM OVC019 21/18 A3005 RMK AO2 SLP168 T02060183 53002
KOSU 311453Z 29005KT 10SM CLR 26/20 A3014 RMK AO2 SLP200 T02610200 51008
KOTG 311515Z AUTO 20014G22KT 5SM OVC008 21/18 A2994 RMK AO1
KOTH 311515Z 14007KT 10SM OVC004 14/14 A3010 RMK AO1
KOTM 311453Z AUTO 16006KT 7SM CLR 24/22 A3001 RMK AO2 SLP157 T02440222 50003 TSNO
KOUN 311515Z AUTO 19012KT 10SM CLR 26/18 A3002 RMK AO2
KOVE 311453Z AUTO 09004KT 10SM CLR 19/07 A2993 RMK AO2 SLP135 T01940072 53010
KOVL 311512Z AUTO 18011G17KT 7SM CLR 21/18 A2988 RMK AO2
KOVS 311501Z AUTO VRB03KT 5SM BR OVC002 19/18 A3005 RMK AO2 T01890178
KOWA 311515Z AUTO 17009KT 7SM SCT006 22/19 A2997 RMK AO2
KOWB 311456Z 23009KT 7SM CLR 27/20 A3015 RMK AO2 51010 T02660200 SLP205
KOWD 311453Z 32009KT 10SM CLR 29/19 A2997 RMK AO2 SLP147 T02890189 58002
KOWP 311515Z AUTO 19005KT 10SM CLR 28/20 A3001 RMK AO2 T02760201
KOXB 311453Z AUTO 24009KT 10SM OVC095 28/21 A3010 RMK AO2 RAE01 SLP193 P0000 60000 T02780206 53002 TSNO
KOXC 311455Z 27004KT 6SM HZ BKN250 26/19 A3005
KOXI 311515Z AUTO 00000KT 5SM SCT001 22/22 A3010 RMK AO1
KOXR 311451Z VRB03KT 7SM OVC013 21/18 A2989 RMK AO2 SLP120 T02110178 51016
KOXV 311455Z AUTO 15005KT 7SM CLR 24/22 A3000 RMK AO2
KOZA 311455Z AUTO 17005KT 10SM CLR 25/18 A3010 RMK AO2
KOZR 311458Z VRB02KT 10SM CLR 27/23 A3010 RMK AO2A SLP192 T02670225 52016 $
KOZS 311515Z AUTO 18004KT 10SM CLR 28/20 A3007 RMK AO2
KOZW 311515Z AUTO 00000KT 4SM BR BKN007 20/19 A3012 RMK AO2 T01950189
KP08 311455Z AUTO 00000KT 10SM CLR 31/16 A2994 RMK AO2
KP28 311456Z AUTO VRB04KT 23/19 A2996 RMK AO1 SLP130 T02330194 50006
KP53 311456Z AUTO 17005KT 23/18 A2997 RMK AO1 SLP146 T02330183 53003
KP58 311451Z AUTO VRB06KT 22/18 A3005 RMK AO1 SLP169 T02220183
KP60 311456Z AUTO 11/M04 A3025 RMK AO1 SLP181 T01061044 51010
KP68 311453Z AUTO 20003KT 13/M04 A3017 RMK AO1 SLP148 T01331039 51007
KP69 311452Z AUTO 00000KT 12/10 A3012 RMK AO1 SLP197 T01170100 51006
KP92 311453Z AUTO 00000KT 29/26 A3005 RMK AO1 SLP174 T02890256 51015
KPAE 311453Z 17014G26KT 10SM BKN022 BKN110 16/10 A2993 RMK AO2 PK WND 18030/1403 SLP133 T01610100 56003
KPAH 311453Z VRB04KT 10SM CLR 26/19 A3013 RMK AO2 SLP198 T02560194 51010
KPAM 311458Z AUTO 36006KT 10SM CLR 30/24 A3006 RMK AO2 SLP182 T02950235 52016 $
KPAN 311515Z AUTO 00000KT 10SM CLR 23/13 A3021 RMK AO2 LTG DSNT SE AND S
KPAO 311447Z VRB03KT 10SM SKC 17/13 A2995
KPBF 311453Z AUTO 00000KT 10SM CLR 26/21 A3007 RMK AO2 SLP181 T02610206 51014 $
KPBG 311453Z AUTO 22007KT 10SM CLR 26/18 A2992 RMK AO2 SLP131 T02610183 58004
KPBH 311515Z AUTO 21006KT 10SM OVC006 19/18 A3002 RMK AO2 T01870180
KPBI 311453Z 16012KT 10SM SCT025 SCT036 SCT250 30/24 A3006 RMK AO2 SLP180 CB DSNT N MOV N T03000239 53010
KPBX 311455Z AUTO 33004KT 10SM CLR 23/20 A3020 RMK AO2 T02330198
KPCM 311515Z AUTO 15006KT 10SM CLR 29/25 A3009 RMK AO2
KPCW 311512Z AUTO 00000KT 10SM CLR 29/22 A3011 RMK AO2 $
KPCZ 311455Z AUTO 22003KT 5SM BR OVC006 20/20 A3005 RMK AO2 T02010195
KPDC 311455Z AUTO 00000KT 5SM BR CLR 19/18 A3004 RMK AO2 T01920181
KPDK 311453Z 00000KT 10SM OVC035 22/19 A3016 RMK AO2 SLP201 T02220189 53011
KPDT 311453Z 16004KT 10SM CLR 14/06 A3006 RMK AO2 SLP169 T01390061 53003
KPDX 311453Z 19009KT 10SM FEW015 BKN055 OVC070 17/12 A3006 RMK AO2 SLP178 T01670122 53002
KPEA 311455Z AUTO 14004KT 7SM CLR 25/23 A3002 RMK AO2 T02450228
KPEO 311501Z AUTO 26007KT 8SM SCT025 BKN030 BKN048 26/20 A3008 RMK AO2 T02610200
KPEQ 311455Z AUTO 10004KT 10SM CLR 22/13 A3005 RMK AO2 T02220131
KPEX 311514Z AUTO 13013G18KT 10SM CLR 22/19 A2988 RMK AO2 T02170192
KPEZ 311520Z AUTO 13007KT 10SM SCT019 SCT029 29/21 A3003 RMK AO2 LTG DSNT E T02920214
KPGA 311453Z AUTO 00000KT 10SM BKN095 22/15 A3014 RMK AO2 SLP148 T02170150 53015 TSNO
KPGD 311453Z 15005KT 10SM CLR 27/25 A3006 RMK AO2 SLP179 T02720250 53014
KPGV 311515Z AUTO 02004KT 7SM -RA SCT006 BKN027 OVC050 21/21 A3015 RMK AO2 P0001
KPHD 311453Z AUTO 00000KT 10SM CLR 26/21 A3014 RMK AO2 SLP198 T02560206 51006
KPHF 311454Z 22010KT 10SM FEW065 OVC095 26/21 A3014 RMK AO2 RAB26E54 SLP206 P0000 60000 T02560206 53008
KPHL 311454Z 22009KT 10SM BKN110 BKN160 BKN250 28/20 A3007 RMK AO2 SLP183 60000 T02830200 53000
KPHN 311454Z AUTO 30006KT 10SM OVC013 20/18 A3010 RMK AO2
KPHP 311455Z AUTO 31013G18KT 7SM FEW110 20/13 A2989 RMK AO2 PK WND 31027/1358 SLP101 T02000133 53047
KPHT 311515Z AUTO 00000KT 10SM CLR 24/19 A3015 RMK
KPHX 311451Z 11008KT 10SM FEW140 FEW250 32/18 A2988 RMK AO2 SLP096 T03220183 53019
KPIA 311454Z VRB04KT 7SM CLR 27/22 A3007 RMK AO2 SLP177 T02670217 52005
KPIB 311515Z AUTO 36011KT 10SM CLR 31/19 A3011 RMK AO1
KPIE 311453Z 12007KT 10SM FEW017 28/25 A3005 RMK AO2 SLP174 T02830250 51017
KPIH 311453Z 23009KT 10SM CLR 16/02 A3015 RMK AO2 SLP176 T01610017 51014
KPIL 311453Z AUTO 17005KT 10SM CLR 29/27 A2997 RMK AO2 SLP146 60010 T02890272 51008
KPIR 311453Z AUTO 31018G24KT 7SM CLR 23/15 A2980 RMK AO2 SLP075 T02280150 53036
KPIT 311451Z 22004KT 10SM FEW026 BKN250 26/19 A3014 RMK AO2 SLP203 T02560189 51010
KPKB 311453Z VRB04KT 10SM CLR 27/19 A3017 RMK AO2 SLP211 T02670194 51009
KPKD 311453Z AUTO 19008KT 10SM CLR 23/16 A2980 RMK AO2 SLP084 T02280156 53004
KPKV 311515Z AUTO 02005KT 10SM SCT001 28/25 A3001 RMK AO2 T02800249
KPLN 311454Z AUTO 22008KT 9SM OVC009 21/18 A3002 RMK AO2 SLP165 T02060178 53004
KPLU 311455Z AUTO 19008G14KT 170V230 10SM FEW030 BKN036 OVC060 18/11 A2998 RMK AO2
KPMD 311453Z AUTO 05005KT 10SM CLR 19/11 A2996 RMK AO2 SLP121 T01940106 53013
KPMP 311453Z 14012KT 10SM SCT022 31/24 A3005 RMK AO2 SLP178 T03060244 53012
KPMV 311455Z AUTO 14003KT 7SM CLR 22/21 A2998 RMK AO2 T02210213
KPNA 311455Z AUTO 32006KT 10SM CLR 09/00 A3026 RMK AO2
KPNC 311453Z AUTO VRB05G16KT 8SM CLR 26/19 A2997 RMK AO2 SLP137 T02560189 51008
KPNE 311454Z AUTO 26004KT 10SM CLR 29/19 A3008 RMK AO2 SLP183 60000 T02940189 55001 TSNO
KPNM 311514Z AUTO 18010G16KT 10SM SCT016 24/20 A2991 RMK AO2
KPNS 311453Z 03004KT 10SM CLR 29/21 A3008 RMK AO2 SLP186 T02890206 51016
KPNT 311455Z AUTO 00000KT 10SM CLR 25/23 A3010 RMK AO2 LTG DSNT S T02530227
KPOB 311503Z AUTO VRB04KT 10SM OVC006 23/21 A3010 RMK AO2 $
KPOC 311447Z 26007KT 5SM BR SCT006 19/17 A2993
KPOE 311458Z AUTO 14004KT 10SM CLR 28/21 A3008 RMK AO2 SLP185 T02750206 52019
KPOF 311453Z AUTO 22004KT 10SM FEW120 24/21 A3010 RMK AO2 SLP186 T02440211 50006
KPOU 311453Z 22006KT 10SM CLR 27/20 A3001 RMK AO2 SLP160 T02720200 58002
KPOV 311445Z AUTO 25004KT 10SM CLR 25/18 A3013 RMK AO2
KPOY 311455Z AUTO 14008KT 10SM CLR 17/01 A3003 RMK AO2
KPPA 311455Z AUTO 25013G19KT 10SM CLR 26/14 A3006 RMK AO2 T02600135
KPPF 311452Z AUTO 19006KT 10SM CLR 24/21 A3002 RMK AO2 SLP157 T02440211 51012
KPPO 311455Z AUTO 17003KT 1/4SM FG OVC001 A3011 RMK AO2
KPPQ 311455Z AUTO 18004KT 10SM CLR 28/22 A3008 RMK AO2 LTG DSNT SE T02750217
KPQI 311515Z AUTO 23014G23KT 10SM SCT033 OVC090 22/14 A2971 RMK AO1
KPQL 311453Z AUTO 36007KT 10SM CLR 29/22 A3008 RMK AO2 SLP188 T02940222 53014 TSNO
KPQN 311514Z AUTO 20012G16KT 7SM SCT085 22/19 A2991 RMK AO2
KPRB 311453Z AUTO 00000KT 10SM CLR 14/11 A2996 RMK AO2 SLP140 T01440106 53010 TSNO
KPRC 311453Z 00000KT 10SM FEW060 21/16 A3016 RMK AO2 SLP134 T02110156 53011
KPRG 311455Z AUTO 20005KT 10SM VCTS SCT075 BKN100 25/22 A3012 RMK AO2 LTG DSNT SW T02450215
KPRN 311456Z AUTO 00000KT 10SM CLR 28/21 A3010 RMK AO2 SLP187 6//// T02830211 52016
KPRO 311515Z AUTO 16003KT 7SM SCT006 SCT035 23/23 A3000 RMK AO2 T02340230
KPRX 311515Z 19006KT 10SM CLR 28/18 A3007 RMK AO1
KPSC 311453Z 23008KT 10SM FEW110 18/08 A3002 RMK AO2 SLP164 T01780083 53005
KPSF 311503Z AUTO 29010KT 10SM BKN028 BKN033 24/18 A3004 RMK AO2 T02440183
KPSK 311455Z AUTO 00000KT 10SM BKN021 BKN025 OVC080 25/18 A3021 RMK AO2 T02470177
KPSM 311458Z 28009G15KT 10SM FEW250 28/17 A2993 RMK AO2A SLP137 T02770168 57006
KPSN 311515Z AUTO 00000KT 10SM SCT050 27/22 A3008 RMK AO2 T02730225
KPSO 311515Z AUTO 00000KT 10SM CLR 18/08 A3036 RMK AO2 T01770076
KPSP 311453Z 00000KT 10SM CLR 29/15 A2980 RMK AO2 SLP087 T02940150 53013
KPSX 311453Z AUTO 10003KT 10SM VCTS CLR 29/23 A3001 RMK AO2 LTG DSNT E-S SLP160 T02890228 51008
KPTB 311455Z AUTO 20004KT 7SM -RA SCT048 SCT060 BKN110 23/23 A3015 RMK AO2 P0001 60001 T02250225
KPTK 311453Z 27006KT 6SM BR OVC007 19/17 A3011 RMK AO2 SLP191 T01890167 53011
KPTN 311515Z AUTO 10003KT 10SM FEW017 28/24 A3009 RMK AO1
KPTT 311515Z AUTO 00000KT 10SM CLR 24/18 A2998 RMK AO2
KPTV 311515Z AUTO 20004KT 10SM CLR 19/09 A2995 RMK AO1
KPTW 311454Z AUTO 00000KT 10SM FEW075 26/21 A3009 RMK AO2 SLP185 T02610206 53001
KPUB 311453Z 29005KT 10SM CLR 26/10 A3006 RMK AO2 SLP106 T02610100 51019
KPUC 311453Z AUTO 16003KT 10SM CLR 18/12 A3021 RMK AO2 SLP161 T01830117 53012
KPUJ 311515Z AUTO 09003KT 10SM OVC008 23/23 A3018 RMK AO2
KPUW 311453Z AUTO 13005KT 10SM BKN048 13/07 A3009 RMK AO2 SLP184 T01330072 53005
KPVB 311455Z AUTO 16005KT 7SM CLR 22/22 A3007 RMK AO1 T02150215
KPVC 311515Z 26008KT 10SM 27/19 A2997 RMK AO1
KPVD 311451Z 29008KT 10SM FEW040 FEW100 SCT150 BKN300 29/19 A2999 RMK AO2 SLP153 T02940189 58003
KPVE 311515Z AUTO VRB03KT 10SM CLR 24/19 A3014 RMK
KPVF 311455Z AUTO 00000KT 10SM CLR 20/M03 A3000 RMK AO1
KPVG 311515Z AUTO 22003KT 5SM 22/20 A3018 RMK AO1 P0003
KPVJ 311455Z AUTO 21009KT 10SM CLR 27/19 A3002 RMK AO2 T02710186
KPVU 311455Z 00000KT 15SM FEW090 FEW140 18/09 A3012
KPVW 311455Z AUTO 21009KT 10SM CLR 24/16 A3007 RMK AO2 T02400155
KPWA 311453Z 20012KT 10SM CLR 27/17 A3000 RMK AO2 SLP142 T02670172 51012
KPWC 311514Z AUTO 17010KT 10SM 22/18 A2986 RMK AO2
KPWG 311456Z AUTO 21005KT 10SM CLR 27/22 A3005 RMK AO2 SLP179 T02720222 51014
KPWK 311452Z 00000KT 8SM CLR 21/18 A3009 RMK AO2 SLP188 T02060183 51006
KPWM 311451Z 29011KT 10SM CLR 27/17 A2991 RMK AO2 SLP128 T02670167 58007
KPWT 311515Z AUTO 18015G21KT 8SM OVC020 13/13 A2999 RMK AO1
KPXE 311455Z AUTO 08003KT 10SM OVC008 26/22 A3014 RMK AO2 LTG DSNT S T02550217
KPYM 311452Z AUTO 28006KT 10SM CLR 27/20 A2998 RMK AO2 SLP151 T02720200 58003
KPYX 311455Z AUTO 21014G18KT 10SM CLR 27/13 A3001 RMK AO2 T02660130
KPZQ 311514Z AUTO 21003KT 5SM BR OVC006 20/18 A3005 RMK AO2 T02000181
KQAJ 311455Z AUTO 12013G17KT 9999 CLR 43/04 A2960 RMK AO2 LTG DSNT N SLP011 T04310037 57005 $
KQAY 311455Z AUTO VRB03KT 9000 CLR 41/12 A2959 RMK AO2 SLP016 T04090121 57003 $
KQCL 311455Z AUTO 33003KT 9999 CLR 24/16 A2990 RMK AO2 SLP073 T02370162 51008
KQEB 311455Z AUTO 00000KT 9999 SCT027 BKN036 19/14 Q1023 RMK AO2 SHRAB1333E1449 SLP180 T01880139 55001
KQEI 311510Z AUTO 06001KT 4800 BR FEW085 BKN110 20/18 A2997 RMK A02 TSNO
KQEJ 311510Z AUTO 19002KT 9999 BKN0100 21/17 A2992 RMK A02 TSNO
KQEL 311510Z AUTO 03001KT 9999 FEW140 22/18 A2996 RMK A02 TSNO
KQEN 311510Z AUTO / // CLR / / RMK A02 TSNO
KQEQ 311510Z AUTO 34004KT 6000 HZ CLR 22/19 A2975 RMK A02 TSNO
KQER 311510Z AUTO 04002KT 8000 /OVC019 21/17 A2991 RMK A02 TSNO
KQES 311510Z AUTO 9999 CLR 25/22 A2989 RMK A02 TSNO
KQEV 311510Z AUTO 11005KT 4800 HZ CLR 24/18 A2987 RMK A02 TSNO
KQEW 311510Z AUTO 36003KT 9999 FEW140 22/18 A2990 RMK A02 TSNO
KQEX 311510Z AUTO 36001KT 9999 CLR 23/18 A2992 RMK A02 TSNO
KQEY 311510Z AUTO 22002KT 9999 BKN130 23/18 A2990 RMK A02 TSNO
KQFB 311510Z AUTO 23003KT 9999 FEW029 BKN210 23/18 A2992 RMK A02 TSNO
KQFG 311455Z AUTO 09004KT 9999 CLR 32/11 A2976 RMK AO2 SLP033 T03220113 53004 $
KQFQ 311455Z AUTO VRB04KT 9SM CLR 22/20 A2986 RMK AO2 SLP109 T02150197 50001 $
KQFT 311510Z AUTO 35003KT 9999 CLR 24/18 A2988 RMK A02 TSNO
KQFU 311510Z AUTO 25001KT 9999 CLR 25/17 A2990 RMK A02 TSNO
KQFV 311510Z AUTO 1200 /CLR 31/19 / RMK A02 TSNO
KQFX 311510Z AUTO 27001KT 8000 HZ BKN017 BKN026 22/19 A2990 RMK A02 TSNO
KQGV 311455Z 10013G21KT 9999 BKN150 44/03 A2959 RMK SLP004 WND DATA ESTMD QNH1002 PA +780 56007
KQGX 311458Z AUTO 35008KT 9999 CLR 37/28 A2959 RMK AO2 SLP021 T03710280 53001 $
KQHN 311455Z 25004KT 8000 DU CLR 29/M08 A2983 RMK SLP016 Q1010 DA5795 53005
KQHY 311456Z AUTO 00000KT 10SM CLR 29/21 A3010 RMK AO2 SLP194 T02890210 52015
KQIR 311458Z 10011KT 9000 HZ CLR 38/22 A2958 RMK AO2A SLP017 T03830222 58000
KQL5 311455Z 10005KT 9999 CLR 31/15 A2972 RMK AO2A SLP026 T03090146 53006
KQRH 311456Z AUTO 09002KT 8000 M CLR 35/24 A2963 RMK AO2 SLP027 T03460236 $
KQSA 311458Z 36013KT 9999 CLR 25/M02 A2989 RMK AO2A SLP029 T02501018 53007 $
KQSF 311455Z AUTO VRB06KT 9999 CLR 24/M04 A3003 RMK AO2 SLP080 T02401043 53006 $
KQSN 311455Z AUTO VRB05KT 9999 CLR 24/M05 A2996 RMK AO2 SLP050 T02381048 53005 $
KQTZ 311509Z 26007G14KT 3200 DU FEW020 40/M04 A2958 RMK DU FEW020 WND DATA ESTMD ALSTG ESTMD
KQVF 311455Z AUTO 17007G15KT 10SM FEW021 26/20 A3001 RMK AO2 SLP162 T02590203 56007 $
KQWM 311455Z 10010G24KT 5000 -TSRA BLDU SCT080 BKN100CB 44/04 A2960 RMK SLP009 QNH1002
KQXT 311455Z VRB03KT 5000 DU CLR 31/M03 A2978 RMK SLP047 WND DATA ESTMD ALSTG/SLP ESTMD Q1008 54000
KRAC 311453Z AUTO 25005KT 7SM CLR 22/18 A3010 RMK AO2 SLP189 T02220183 51007
KRAL 311453Z AUTO 00000KT 10SM CLR 21/17 A2990 RMK AO2 SLP109 T02060167 52013
KRAP 311452Z 34022G30KT 10SM FU CLR 18/13 A2998 RMK AO2 PK WND 34030/1434 SLP128 T01780128 51040
KRAS 311455Z AUTO 17006KT 10SM CLR 30/22 A2998 RMK AO2 LTG DSNT N AND NE T03010224
KRBD 311453Z VRB03KT 10SM CLR 28/19 A3003 RMK AO2 SLP161 T02780194 51013
KRBG 311453Z AUTO 00000KT 7SM OVC004 13/12 A3010 RMK AO2 SLP190 T01330117 53004
KRBL 311454Z AUTO 34003KT 10SM CLR 19/09 A2992 RMK AO2 SLP127 T01940089 53006
KRBO 311455Z AUTO 16005KT 10SM SCT025 SCT035 SCT050 31/24 A2999 RMK AO2 LTG DSNT NE T03060242
KRBW 311455Z AUTO 35006KT 10SM OVC007 26/23 A3009 RMK AO2
KRCA 311458Z AUTO 33022G26KT 10SM CLR 18/13 A2998 RMK AO2 PK WND 34031/26 SLP135 T01800127 52038 $
KRCE 311455Z AUTO 20013G18KT 10SM CLR 27/18 A3002 RMK AO2
KRCM 311515Z AUTO 17008KT 154V214 10SM CLR 26/20 A3002 RMK AO2
KRCR 311455Z AUTO 20003KT 10SM CLR 27/22 A3011 RMK AO2
KRCV 311510Z AUTO 29005KT 10SM CLR 17/06 A3035 RMK AO2 T01690064
KRCX 311515Z AUTO 18006KT 2 1/2SM BR OVC003 19/18 A3003 RMK AO2 T01890183
KRCZ 311455Z AUTO 00000KT 10SM OVC006 21/20 A3013 RMK AO2 T02110199
KRDD 311453Z 32006KT 10SM CLR 22/09 A2991 RMK AO2 SLP123 T02220094 53004
KRDG 311454Z 28003KT 10SM CLR 27/21 A3008 RMK AO2 SLP187 T02670206 53002
KRDK 311455Z AUTO 00000KT 6SM BR BKN035 23/23 A2999 RMK AO2
KRDM 311456Z 12004KT 10SM CLR 10/05 A3010 RMK AO2 SLP187 T01000050 52003
KRDR 311458Z AUTO 22002KT 10SM OVC013 21/18 A2969 RMK AO2 SLP055 T02090183 52013 $
KRDU 311504Z 08005KT 10SM SCT007 BKN014 OVC030 22/20 A3013 RMK AO2
KREO 311452Z AUTO 00000KT 14/03 A3012 RMK AO1 SLP172 T01390028 51006
KRFD 311454Z 16003KT 6SM HZ CLR 22/19 A3009 RMK AO2 SLP186 T02220189 51004
KRFI 311455Z AUTO 00000KT 10SM CLR 26/21 A3009 RMK AO2 T02550210
KRGK 311515Z AUTO 18003KT 7SM OVC008 22/20 A2997 RMK AO2
KRHI 311453Z AUTO 23007KT 10SM OVC007 19/17 A3004 RMK AO2 CIG 006V011 SLP168 T01940172 53004
KRHP 311455Z AUTO 00000KT 10SM CLR 23/18 A3019 RMK AO2 T02290180
KRHV 311448Z 00000KT 10SM SKC 18/14 A2995
KRIC 311454Z 20006KT 10SM -RA FEW055 BKN120 OVC150 26/19 A3012 RMK AO2 RAB53 SLP204 P0000 60000 T02560189 51004
KRIL 311453Z AUTO 00000KT 10SM SCT090 BKN110 16/14 A3024 RMK AO2 SLP177 60000 T01610139 51017
KRIV 311458Z AUTO 10002KT 10SM CLR 21/16 A2991 RMK AO2 SLP115 T02100160 52010
KRIW 311453Z AUTO 29006KT 10SM CLR 19/00 A3010 RMK AO2 SLP127 T01890000 51010
KRKD 311515Z AUTO 26012KT 10SM CLR 26/17 A2986 RMK AO1
KRKP 311453Z AUTO 15008KT 10SM CLR 31/23 A2999 RMK AO2 LTG DSNT N AND NE SLP156 T03110233 51017
KRKR 311455Z AUTO 04003KT 10SM CLR 27/20 A3006 RMK AO2 T02720202
KRKS 311454Z AUTO 26004KT 10SM CLR 14/10 A3024 RMK AO2 SLP168 T01390100 53015
KRME 311453Z 26008KT 10SM FEW029 SCT044 SCT060 23/19 A3004 RMK AO2 SLP170 T02330189 51003
KRMG 311453Z AUTO 00000KT 10SM OVC022 23/19 A3015 RMK AO2 SLP201 T02280189 53011
KRMN 311455Z AUTO 00000KT 10SM CLR 24/20 A3015 RMK AO2 T02430196
KRMY 311513Z AUTO 00000KT 5SM BR OVC011 22/20 A3012 RMK AO2 T02160195
KRNC 311455Z AUTO 00000KT 10SM CLR 24/21 A3017 RMK
KRND 311508Z AUTO 20006KT 10SM SCT015 SCT023 27/22 A3004 RMK AO2
KRNH 311455Z AUTO 18007G14KT 7SM BKN012 22/20 A2996 RMK AO2 T02210198
KRNM 311504Z 00000KT 3/4SM BR VV002 17/16 A2994 RMK AO2 T01670161
KRNO 311455Z 31004KT 10SM CLR 13/M03 A3011 RMK AO2 SLP153 FU ALF ALQDS T01331028 51005
KRNP 311515Z AUTO 24005KT 4SM BR OVC008 20/18 A3011 RMK AO2 T01980180
KRNT 311453Z 17014KT 6SM HZ OVC014 19/10 A2997 RMK AO2 SLP153 T01890100 53001 $
KRNV 311455Z AUTO 17005KT 10SM CLR 27/23 A3008 RMK AO2 T02700226
KROA 311454Z 15004KT 10SM FEW080 FEW250 26/17 A3017 RMK AO2 SLP204 T02560167 51002
KROC 311454Z 26009KT 7SM BKN017 BKN023 OVC030 25/21 A3005 RMK AO2 SLP176 T02500206 51007
KROG 311457Z 20013KT 10SM CLR 27/20 A3009 RMK AO2 SLP174 T02720200 51011 $
KROS 311515Z AUTO 18006KT 10SM OVC012 22/20 A2992 RMK AO2 T02200196
KROW 311451Z 16012KT 10SM FEW110 23/13 A3008 RMK AO2 SLP123 T02330128 51013
KROX 311514Z AUTO 21008KT 10SM OVC018 21/17 A2970 RMK AO2
KRPD 311455Z AUTO 17006KT 4SM BR OVC003 20/19 A3000 RMK AO2 T01950185
KRPH 311455Z AUTO 19007KT 10SM CLR 28/19 A3003 RMK AO2 T02750186
KRPJ 311455Z AUTO 00000KT 5SM BR CLR 23/21 A3009 RMK AO2 T02280205
KRPX 311455Z AUTO 23011KT 40SM 16/01 A2989 RMK A01 T01610011
KRQB 311514Z AUTO 00000KT 7SM OVC007 19/19 A3009 RMK AO2 T01920187
KRQE 311453Z AUTO 00000KT 10SM CLR 19/11 A3031 RMK AO2 SLP154 T01890106 53010 TSNO
KRQO 311515Z AUTO 19011KT 10SM CLR 27/17 A3001 RMK AO2
KRRL 311515Z AUTO 22005KT 5SM BR OVC006 20/19 A3005 RMK AO2 T01960191
KRRT 311514Z AUTO 19006KT 10SM OVC0 21/18 A2969 RMK AO2
KRSL 311453Z AUTO 16015KT 10SM CLR 24/19 A2994 RMK AO2 SLP123 T02390194 53002
KRSN 311515Z AUTO 00000KT 10SM CLR 31/20 A3012 RMK AO2 T03080197
KRSP 311354Z AUTO 10SM BKN090 24/19 A3017 RMK AO2 SLP207 T02440189 $
KRST 311502Z 19010KT 5SM BR BKN006 22/20 A3001 RMK AO2 CIG 004V010 T02170200
KRSV 311515Z AUTO 22006KT 10SM VCTS SCT060 SCT070 25/21 A3014 RMK AO2 LTG DSNT NE AND E T02460206
KRSW 311453Z 17012KT 10SM SCT018 30/24 A3005 RMK AO2 LTG DSNT SW SLP172 T03000239 53016
KRTN 311453Z AUTO 06003KT 10SM CLR 20/10 A3017 RMK AO2 SLP130 T02000100 51008
KRTS 311455Z AUTO 00000KT 10SM CLR 10/M03 A3013 RMK AO2
KRUE 311453Z AUTO VRB04KT 10SM CLR 27/21 A3007 RMK AO2 SLP175 T02670211 51012
KRUG 311455Z AUTO 34009KT 10SM CLR 19/14 A2978 RMK AO2
KRUQ 311455Z AUTO 07004KT 10SM CLR 25/20 A3014 RMK AO2 T02470198
KRUT 311515Z AUTO 29006KT 240V310 10SM FEW031 24/17 A3001 RMK AO1
KRVS 311453Z 19007KT 10SM CLR 27/20 A3001 RMK AO2 SLP165 T02670200 51010
KRWF 311453Z AUTO 19014KT 8SM CLR 22/19 A2989 RMK AO2 SLP116 T02220194 53002
KRWI 311458Z AUTO 07005KT 3/4SM +RA BR BKN005 OVC018 21/21 A3016 RMK AO2 P0012 T02110206
KRWL 311453Z AUTO 23007KT 10SM CLR 16/07 A3024 RMK AO2 SLP149 T01610072 53020
KRWV 311455Z AUTO 00000KT 10SM FEW014 27/24 A3008 RMK AO2
KRXE 311453Z AUTO 21006KT 10SM CLR 14/01 A3014 RMK AO2 SLP175 T01390011 51013
KRYN 311445Z 10003KT 10SM CLR 27/17 A3000
KRYT 311453Z AUTO 00000KT 10SM CLR 26/ A3012 RMK AO2 SLP186 T0261 53006 $
KRYV 311455Z AUTO 00000KT 7SM SCT013 OVC019 19/19 A3007 RMK AO2 T01860186
KRYW 311515Z AUTO 24005KT 10SM CLR 27/20 A3008 RMK AO2 T02660203
KRYY 311447Z 10005KT 5SM -RABR BKN023 21/18 A3017
KRZL 311515Z AUTO 21003KT 10SM CLR 25/23 A3011 RMK AO2 LTG DSNT S
KRZN 311455Z AUTO 21010G14KT 7SM OVC011 22/19 A2994 RMK AO2 T02150191
KRZT 311514Z AUTO 00000KT 10SM CLR 26/20 A3015 RMK AO2
KS39 311500Z AUTO 00000KT 10SM CLR 10/06 A3011 RMK AO2
KSAA 311455Z AUTO 13007KT 10SM CLR 16/11 A3025 RMK AO2
KSAC 311453Z AUTO 00000KT 10SM CLR 17/12 A2991 RMK AO2 SLP128 T01720122 53010 TSNO
KSAD 311451Z AUTO 14005KT 10SM CLR 26/16 A3004 RMK AO2 SLP114 T02560156 53014
KSAF 311453Z 36006KT 10SM CLR 23/08 A3025 RMK AO2 SLP139 T02280078 51014
KSAN 311451Z 18007KT 10SM OVC017 22/17 A2992 RMK AO2 SLP131 T02170167 53015
KSAR 311515Z AUTO 19006KT 10SM VCTS BKN050 BKN090 24/21 A3011 RMK AO2 LTG DSNT N AND NE T02360210
KSAT 311451Z 17008KT 10SM SCT012 BKN250 28/22 A3004 RMK AO2 SLP153 T02780217 51014
KSAV 311453Z 35007KT 10SM OVC007 25/23 A3009 RMK AO2 CIG 007V011 SLP187 T02500228 51020 $
KSAW 311447Z 23004KT 10SM SKC 21/17 A2999
KSAZ 311514Z AUTO 18010G15KT 10SM CLR 22/17 A2983 RMK AO2
KSBA 311453Z 08003KT 8SM CLR 22/18 A2989 RMK AO2 SLP120 T02170178 53019
KSBD 311447Z 00000KT 6SM HZ FEW150 21/13 A2991
KSBM 311514Z AUTO 26006KT 10SM BKN016 23/19 A3006 RMK AO2 T02280189
KSBN 311456Z 20004KT 4SM BR SCT002 22/21 A3011 RMK AO2 T02170206
KSBO 311515Z AUTO 01004KT 10SM OVC009 A3013 RMK AO2 LTG DSNT E AND SE
KSBP 311456Z 31009KT 10SM CLR 17/13 A2992 RMK AO2 SLP129 T01720133 52017
KSBS 311515Z AUTO 00000KT 10SM BKN060 BKN075 BKN095 12/11 A3030 RMK AO1 T01200109
KSBY 311454Z 22010KT 10SM FEW085 28/21 A3010 RMK AO2 SLP196 T02830206 53004
KSCD 311455Z AUTO 00000KT 10SM BKN010 OVC015 25/24 A3013 RMK AO2 T02470238
KSCF 311455Z AUTO 16004KT 10SM FEW022 FEW085 29/24 A3006 RMK A01
KSCH 311445Z 28010KT 10SM SCT030 27/18 A3002
KSCK 311455Z 34003KT 9SM CLR 19/13 A2992 RMK AO2 SLP130 T01890128 53013
KSCR 311455Z AUTO 03004KT 3SM BR OVC005 21/20 A3014 RMK AO2 T02060203
KSDA 311455Z AUTO 15004KT 8SM SCT035 24/22 A2999 RMK AO2
KSDB 311448Z AUTO 34011KT 10SM CLR 19/07 A3006 RMK AO2 SLP130 T01890072 53008
KSDF 311456Z 21005KT 9SM FEW035 FEW100 27/19 A3015 RMK AO2 SLP204 T02670189 51009
KSDL 311453Z VRB04KT 10SM CLR 32/17 A2993 RMK AO2 SLP104 T03170172 53019
KSDM 311453Z 15004KT 8SM OVC011 20/17 A2992 RMK AO2 SLP126 T02000167 53015
KSDY 311515Z AUTO 26007KT 10SM CLR 19/07 A2990 RMK AO1
KSEA 311453Z 21009G22KT 10SM OVC028 16/11 A2998 RMK AO2 RAB40E51 SLP156 P0000 60000 T01610111 53003
KSEE 311455Z AUTO 22004KT 7SM OVC012 20/17 A2993 RMK AO2
KSEG 311453Z AUTO VRB03KT 10SM CLR 27/21 A3009 RMK AO2 SLP185 T02670211 50000
KSEM 311520Z AUTO 00000KT 5SM HZ CLR 26/22 A3010 RMK AO2
KSEP 311515Z AUTO 22004KT 10SM CLR 27/20 A3008 RMK AO2 T02690200
KSET 311454Z AUTO VRB04KT 10SM CLR 27/22 A3006 RMK AO2 SLP174 T02670222 51007
KSFB 311453Z 20008KT 10SM FEW020 29/23 A3007 RMK AO2 SLP181 T02890228 51016
KSFF 311453Z 20008KT 10SM BKN110 13/08 A3005 RMK AO2 SLP170 T01330078 51008
KSFM 311515Z AUTO 26011G16KT 10SM CLR 27/16 A2993 RMK AO1
KSFO 311456Z 00000KT 10SM FEW009 17/14 A2994 RMK AO2 SLP139 T01720139 53005
KSFQ 311455Z AUTO 00000KT 4SM -RA SCT070 SCT075 OVC090 22/20 A3017 RMK AO2 P0007 60011 T02160200
KSFY 311455Z AUTO 15003KT 7SM CLR 22/20 A3006 RMK AO2 T02190196
KSFZ 311515Z AUTO 26005KT 10SM CLR 26/19 A3000 RMK AO1
KSGF 311452Z 17012KT 10SM CLR 26/20 A3007 RMK AO2 SLP169 T02610200 51010
KSGH 311456Z AUTO VRB04KT 10SM CLR 25/22 A3017 RMK AO2 51009 T02500222 SLP208
KSGJ 311458Z 19005KT 7SM BKN011 BKN020 28/25 A3009 RMK AO2 SLP188 T02830250 53016
KSGR 311453Z 10004KT 10SM CLR 29/23 A3003 RMK AO2 SLP168 T02890233 51013
KSGS 311512Z AUTO 18009G16KT 150V210 7SM BKN010 22/20 A2995 RMK AO2 T02220197
KSGT 311515Z AUTO 00000KT 10SM CLR 27/21 A3008 RMK AO1
KSGU 311515Z 11006KT 10SM CLR 27/13 A3002 RMK AO1
KSHD 311455Z AUTO 00000KT 10SM CLR 25/18 A3018 RMK AO2 T02540180
KSHL 311455Z AUTO 20009G15KT 170V230 2 1/2SM BR OVC005 21/20 A2994 RMK AO2
KSHM 311456Z AUTO 33006KT 10SM FEW110 25/06 A3017 RMK AO2 SLP131 T02480062 52020 $
KSHN 311507Z AUTO 19006KT 2 1/2SM -RA BR SCT010 OVC020 14/13 A2995 RMK AO2 P0000 T01440133
KSHR 311453Z AUTO 00000KT 10SM CLR 17/07 A3004 RMK AO2 SLP142 T01670072 51010
KSHV 311456Z 28005KT 10SM SCT190 BKN300 28/21 A3007 RMK AO2 SLP179 T02830206 51016
KSIF 311455Z AUTO 00000KT 10SM SCT008 OVC055 22/20 A3015 RMK AO2 T02220197
KSIY 311453Z AUTO 03003KT 10SM CLR 11/06 A3011 RMK AO2 SLP198 T01110061 53006 TSNO
KSJC 311453Z 14006KT 10SM CLR 17/12 A2995 RMK AO2 SLP140 T01670122 53010
KSJN 311454Z AUTO 13004KT 10SM CLR 20/13 A3024 RMK AO2 SLP153 T02000128 53008
KSJS 311455Z AUTO 00000KT 10SM CLR 25/21 A3018 RMK AO2 T02500208
KSJT 311451Z 17006KT 10SM CLR 26/19 A3006 RMK AO2 SLP155 T02560194 50008
KSJX 311515Z AUTO 23007KT 7SM OVC004 19/18 A3002 RMK AO2 T01930178
KSKA 311458Z AUTO 17010KT 10SM BKN130 OVC150 11/08 A3003 RMK AO2 SLP171 T01050077 51010
KSKF 311458Z AUTO 15007KT 10SM FEW021 28/22 A3002 RMK AO2 SLP158 T02780220 52014 $
KSKX 311515Z AUTO 20003KT 10SM CLR 19/04 A3033 RMK AO1
KSLB 311455Z AUTO 18008KT 2 1/2SM BR SCT003 SCT010 21/21 A2998 RMK AO2
KSLC 311453Z 18004KT 10SM FEW080TCU FEW110 20/07 A3009 RMK AO2 SLP138 VIRGA DSNT NE TCU N T02000067 51021
KSLE 311456Z 18008KT 10SM SCT080 BKN150 15/12 A3007 RMK AO2 SLP182 T01500122 53004
KSLG 311515Z AUTO 19012KT 10SM CLR 27/19 A3006 RMK AO1
KSLH 311515Z AUTO 23005KT 10SM OVC011 21/18 A3002 RMK AO2 T02110185
KSLI 311458Z AUTO 15005KT 10SM OVC015 22/18 A2989 RMK AO2 SLP125 6//// T02160181
KSLK 311451Z AUTO 26007G16KT 9SM BKN017 OVC041 21/17 A3000 RMK AO2 SLP155 T02110172 53003
KSLN 311453Z AUTO 17008KT 9SM CLR 26/21 A2995 RMK AO2 SLP130 T02610211 58003
KSLO 311455Z AUTO 00000KT 7SM TS BKN045 OVC050 23/21 A3012 RMK AO2 LTG DSNT ALQS T02290212
KSLR 311455Z AUTO 18004KT 10SM CLR 28/20 A3008 RMK AO2 T02750198
KSME 311455Z AUTO 04003KT 10SM SCT006 22/21 A3019 RMK AO2
KSMF 311453Z 09003KT 10SM FEW250 17/13 A2990 RMK AO2 SLP125 T01670128 53009
KSMN 311515Z AUTO 00000KT 10SM CLR 10/05 A3012 RMK AO1
KSMO 311451Z 00000KT 10SM OVC015 22/18 A2990 RMK AO2 SLP122 T02170178 53013
KSMQ 311453Z AUTO 00000KT 9SM CLR 27/19 A3004 RMK AO2 SLP169 T02720194 55000
KSMS 311515Z AUTO 35006KT 10SM 32/31 A3011 RMK AO2 LTG DSNT SE AND S
KSMX 311515Z 29007KT 6SM BR SCT007 17/15 A2993 RMK AO2 T01720150
KSNA 311453Z 13006KT 10SM OVC016 21/17 A2989 RMK AO2 SLP120 T02110172 53014
KSNC 311435Z AUTO 00000KT 10SM CLR 27/20 A3003 RMK AO2
KSNH 311515Z AUTO 00000KT 10SM CLR 26/00 A3014 RMK
KSNK 311455Z AUTO 19009KT 10SM CLR 24/16 A3008 RMK AO2 T02350162 TSNO
KSNL 311515Z AUTO 20006KT CLR 27/20 A3003 RMK AO2 PWINO
KSNS 311453Z 00000KT 6SM BR OVC009 16/14 A2996 RMK AO2 CIG 007V013 SLP154 6//// T01610144 53009 PNO $
KSNT 311451Z AUTO 00000KT 04/M01 A3021 RMK AO1 SLP180 T00391011 53005
KSNY 311453Z AUTO 34009KT 10SM FEW060 SCT090 BKN110 24/11 A3002 RMK AO2 SLP107 T02390111 51011
KSOA 311455Z AUTO 19007KT 10SM CLR 25/20 A3011 RMK AO2
KSOP 311515Z AUTO 02004KT 10SM OVC005 21/19 A3014 RMK AO1
KSOW 311515Z AUTO 20003KT 10SM SCT110 17/12 A3029 RMK AO2 LTG DSNT S
KSPA 311515Z AUTO 06004KT 10SM CLR 25/17 A3015 RMK AO2
KSPB 311453Z AUTO 16004KT 10SM OVC040 16/12 A3005 RMK AO2 SLP174 T01610122 53003
KSPF 311455Z AUTO 27006KT 10SM FEW020 15/12 A3006 RMK AO2
KSPG 311453Z 14007KT 10SM FEW012 SCT041 28/24 A3003 RMK AO2 SLP169 T02830244 51016
KSPI 311452Z 24005KT 10SM CLR 27/22 A3008 RMK AO2 SLP180 T02670222 51009
KSPL 311515Z AUTO 12006KT 10SM CLR 28/24 A2998 RMK AO1 LTG DSNT E
KSPR 311455Z AUTO 15006KT 10SM CLR 30/23 A3005 RMK A01
KSPS 311452Z 19008KT 10SM CLR 28/17 A3002 RMK AO2 SLP150 T02780167 51013
KSPW 311513Z AUTO 19008KT 3SM BR OVC004 22/20 A2996 RMK AO2 CIG 003V008 T02220200
KSQE 311455Z AUTO VRB05KT 10SM CLR 30/23 A3006 RMK A01
KSQL 311447Z 00000KT 10SM SKC 18/13 A2996
KSRB 311515Z AUTO 00000KT 10SM CLR 26/21 A3017 RMK
KSRC 311456Z AUTO VRB03KT 10SM CLR 25/22 A3010 RMK AO2 SLP196 T02500217 51013 TSNO
KSRQ 311453Z 14012KT 10SM FEW021 SCT027 31/24 A3002 RMK AO2 SLP165 T03060244 51014
KSRR 311455Z AUTO 10SM CLR 21/10 A3029 RMK AO2
KSSC 311458Z 35005KT 10SM FEW010 BKN030 23/20 A3009 RMK AO2A SLP189 T02290203 51012 $
KSSF 311514Z 14010KT 10SM BKN020 BKN028 29/22 A3002 RMK AO2 T02890222
KSSI 311501Z AUTO 00000KT 10SM SCT015 BKN021 OVC035 27/24 A3008 RMK AO2 T02720239
KSTC 311453Z 19012KT 7SM SCT012 22/19 A2989 RMK AO2 SLP124 T02170189 53003
KSTE 311455Z AUTO 00000KT 1 1/2SM BR OVC003 17/17 A3005 RMK AO2 T01720172
KSTF 311515Z AUTO 09003KT 10SM CLR 26/21 A3012 RMK AO2
KSTJ 311453Z 18004KT 5SM BR CLR 25/23 A2999 RMK AO2 SLP147 T02500228 51006
KSTK 311505Z AUTO 00000KT 10SM SCT060 SCT075 BKN110 21/14 A3001 RMK AO2
KSTL 311451Z 20007KT 10SM FEW085 SCT150 SCT250 29/21 A3008 RMK AO2 SLP170 T02890206 51007
KSTP 311453Z 18008G17KT 7SM BKN012 22/19 A2994 RMK AO2 SLP135 T02170194 53001
KSTS 311453Z 27003KT 10SM FEW150 14/11 A2992 RMK AO2 SLP124 T01440111 53005
KSUA 311447Z 14007KT 7SM SCT020 BKN030 29/24 A3007
KSUE 311515Z AUTO 26008KT 7SM OVC005 19/17 A3006 RMK AO1
KSUN 311447Z 30010KT 10SM FEW160 11/02 A3017
KSUS 311454Z 22006KT 10SM CLR 27/22 A3005 RMK AO2 SLP169 T02720217 51005
KSUT 311455Z AUTO 00000KT 10SM SCT060 24/23 A3011 RMK AO2 60029 T02420229
KSUU 311458Z AUTO 23010KT 10SM CLR 19/14 A2990 RMK AO2 SLP131 T01890135 53008 PWINO PNO $
KSUW 311455Z AUTO 21009KT 10SM SCT016 21/19 A2988 RMK AO2 T02140189
KSUX 311452Z 16011KT 2SM BR OVC002 21/19 A2994 RMK AO2 SFC VIS 3 SLP133 T02060194 52002
KSVC 311515Z AUTO 31005KT 10SM 24/12 A3022 RMK AO2
KSVH 311455Z AUTO 03005KT 10SM BKN023 24/19 A3015 RMK AO2 T02370186
KSVN 311458Z AUTO VRB05KT 10SM OVC008 26/26 A3005 RMK AO2 SLP179 T02640255 52019
KSWF 311445Z 25007KT 15SM BKN150 25/21 A3005
KSWO 311453Z 18008KT 10SM CLR 26/19 A2999 RMK AO2 SLP142 T02560189 51010
KSWW 311455Z AUTO 19015KT 10SM CLR 27/17 A3009 RMK AO2 T02660171
KSXS 311456Z AUTO 06002KT 10SM FEW180 29/22 A3011 RMK AO2 SLP194 T02910215 52015
KSXT 311456Z AUTO 12004KT 10SM -RA CLR 10/09 A3011 RMK AO2 RAB54 SLP181 P0000 60000 T01000089 53003
KSYF 311515Z AUTO 00000KT 10SM CLR 24/09 A2997 RMK AO2 T02350092
KSYI 311515Z AUTO 00000KT 10SM BKN022 26/20 A3017 RMK
KSYM 311510Z AUTO 31006KT 10SM CLR 26/18 A3020 RMK AO2
KSYN 311513Z AUTO 20005G14KT 7SM OVC010 23/20 A2995 RMK AO2 T02280198
KSYR 311514Z 25010KT 10SM BKN025 BKN035 27/21 A3003 RMK AO2 T02720206
KSZL 311458Z 22010KT 10SM CLR 27/21 A3001 RMK AO2A SLP157 T02680210 52008
KSZT 311515Z AUTO 22006KT 10SM SCT055 SCT120 12/07 A3004 RMK AO2
KT20 311455Z AUTO 00000KT 10SM CLR 27/24 A3003 RMK AO2 LTG DSNT S T02740240
KT35 311455Z AUTO 19005KT 10SM SCT016 28/23 A3005 RMK AO2 T02790227
KT65 311455Z AUTO 17008KT 10SM CLR 29/24 A2996 RMK AO2 T02900238
KT82 311455Z AUTO 23006KT 10SM CLR 26/19 A3006 RMK AO2 T02590191
KTAD 311454Z AUTO 34004KT 10SM CLR 24/09 A3013 RMK AO2 SLP107 T02440089 51019
KTAN 311452Z AUTO 29004KT 10SM CLR 28/19 A2997 RMK AO2 SLP148 T02830189 58003
KTAZ 311455Z AUTO 20006KT 10SM VCTS CLR 25/22 A3009 RMK AO2 LTG DSNT E THRU S
KTBN 311458Z AUTO 17007KT 10SM CLR 26/21 A3008 RMK AO2 SLP178 T02610212 52009
KTBR 311455Z AUTO 02004KT 10SM BKN007 OVC011 24/24 A3010 RMK AO2 LTG DSNT E AND SE T02390239
KTBX 311515Z AUTO 00000KT 10SM CLR 16/M01 A3026 RMK AO2
KTCC 311453Z AUTO 23014KT 10SM CLR 25/11 A3005 RMK AO2 SLP115 T02500106 53009
KTCL 311453Z 05003KT 9SM SCT016 26/21 A3012 RMK AO2 SLP197 T02560206 53006
KTCM 311458Z AUTO 19011G17KT 10SM SCT032 OVC050 17/11 A2998 RMK AO2 SLP155 T01730107 53003 CHINO RWY34 $
KTCS 311453Z AUTO 29006KT 10SM CLR 26/11 A3014 RMK AO2 SLP116 T02560106 51009 TSNO
KTDF 311455Z AUTO 00000KT 5SM RA OVC005 20/18 A3018 RMK AO2
KTDR 311456Z AUTO 01005KT 10SM CLR 30/24 A3006 RMK AO2 LTG DSNT SE SLP183 T02980242 52017 TSNO $
KTDZ 311453Z AUTO 24003KT 8SM CLR 26/20 A3012 RMK AO2 SLP193 T02560200 53009
KTEB 311451Z VRB04KT 10SM CLR 29/18 A3002 RMK AO2 SLP166 T02890183 56002
KTEW 311515Z AUTO 27003KT 5SM BR BKN005 20/18 A3012 RMK AO2 T01970183
KTEX 311515Z AUTO 00000KT 10SM OVC110 15/07 A3045 RMK AO2 T01450070
KTFP 311455Z AUTO 18006KT 10SM SCT015 OVC023 31/25 A2998 RMK AO2 LTG DSNT N THRU E T03140247
KTGI 311451Z AUTO 22007KT 10SM SCT110 27/22 A3011 RMK AO1
KTHA 311515Z AUTO VRB03KT 10SM SCT020 24/18 A3018 RMK
KTHV 311453Z AUTO 23003KT 10SM BKN095 27/21 A3010 RMK AO2 SLP191 60000 T02670211 53004
KTIF 311455Z AUTO 22010KT 10SM CLR 24/13 A2995 RMK AO2 T02430128
KTIK 311458Z AUTO 19014KT 10SM CLR 26/18 A3000 RMK AO2 SLP153 T02600176 51010 $
KTIP 311455Z AUTO 15003KT 7SM SCT009 26/23 A3010 RMK AO2 LTG DSNT S AND SW T02600228
KTIW 311453Z 20011G20KT 10SM BKN030 OVC034 17/11 A2997 RMK AO2 SLP147 T01670106 53005
KTIX 311450Z 19008KT 7SM BKN021 29/24 A3008
KTKC 311512Z AUTO 21017G27KT 7SM CLR 23/20 A2989 RMK AO2 T02260197
KTKI 311453Z 17006KT 10SM CLR 28/19 A3004 RMK AO2 SLP168 T02780194 51014
KTKV 311455Z AUTO 00000KT 1 3/4SM BR OVC003 18/18 A3004 RMK AO2 T01820177
KTLH 311507Z 00000KT 10SM OVC010 27/23 A3008 RMK AO2 T02720228
KTMA 311455Z AUTO 02005KT 10SM SCT015 OVC023 26/23 A3010 RMK AO2 LTG DSNT S T02580225
KTMB 311453Z 14009KT 10SM SCT026 BKN033 BKN044 31/25 RMK AO2 SLPNO T03060250 $
KTME 311515Z AUTO 16004KT 10SM FEW040 29/23 A3004 RMK AO2
KTMK 311515Z AUTO 16008KT 7SM SCT028 BKN032 OVC042 17/13 A3006 RMK AO2
KTNB 311455Z AUTO 00000KT 10SM CLR 21/13 A3025 RMK AO2 LTG DSNT S T02120131
KTNU 311455Z AUTO 16009KT 6SM BR CLR 23/22 A3001 RMK AO2
KTOA 311450Z VRB06KT 10SM OVC014 22/18 A2990
KTOB 311513Z AUTO 20013KT 7SM BKN006 21/19 A3000 RMK AO2
KTOC 311455Z AUTO 00000KT 10SM CLR 25/20 A3016 RMK AO2 T02480195
KTOI 311453Z AUTO VRB04KT 10SM SCT005 26/22 A3011 RMK AO2 SLP193 T02610222 51016
KTOL 311452Z VRB03KT 7SM CLR 25/21 A3011 RMK AO2 SLP191 T02500206 53008
KTOP 311453Z 18005KT 6SM HZ SCT030 25/22 A2999 RMK AO2 SLP146 T02500222 50007
KTOR 311453Z AUTO 36006KT 10SM OVC110 23/12 A2998 RMK AO2 SLP094 60000 T02280117 55001
KTPA 311453Z VRB06KT 10SM FEW018 BKN150 BKN250 29/24 A3006 RMK AO2 SLP177 T02890244 51016
KTPF 311455Z AUTO 15007KT 10SM CLR 30/26 A3005 RMK AO2
KTPH 311456Z AUTO 04009KT 10SM CLR 19/M04 A3013 RMK AO2 SLP128 T01891044 53012
KTPL 311515Z AUTO 18006KT 10SM CLR 27/20 A3005 RMK AO1
KTQE 311454Z AUTO 17006KT 5SM BR SCT004 22/21 A2995 RMK AO2 SLP134 T02170211 51003
KTQH 311515Z AUTO 17008KT 10SM CLR 28/20 A3006 RMK AO2
KTRI 311453Z 00000KT 10SM FEW012 SCT065 SCT110 23/18 A3019 RMK AO2 SLP199 T02330178 53008
KTRK 311455Z 00000KT 10SM SKC 02/M03 A3019 RMK NOSPECI
KTRL 311453Z AUTO 20005KT 10SM CLR 28/21 A3005 RMK AO2 SLP168 T02780211 51012
KTRM 311452Z AUTO 00000KT 10SM CLR 26/16 A2975 RMK AO2 SLP077 T02610156 53017 TSNO
KTSP 311515Z AUTO 00000KT 8SM CLR 18/07 A3006 RMK AO2
KTTA 311515Z AUTO 03003KT 10SM OVC008 A3012 RMK AO2
KTTD 311453Z 08003KT 10SM OVC055 16/12 A3007 RMK AO2 SLP182 T01560122 53004
KTTF 311454Z AUTO 30004KT 7SM SCT014 25/20 A3009 RMK AO2 T02450203
KTTN 311453Z 27006KT 9SM CLR 28/20 A3005 RMK AO2 SLP169 T02780200 58002
KTTS 311458Z AUTO 20006KT 10SM BKN024 BKN031 29/24 A3006 RMK AO2 SLP184 T02930237 52016
KTUL 311453Z 19012G17KT 10SM FEW100 27/20 A2999 RMK AO2 SLP146 ACC W T02720200 51010
KTUP 311453Z 00000KT 10SM CLR 26/20 A3012 RMK AO2 SLP195 T02560200 51013
KTUS 311453Z 14010KT 10SM CLR 27/16 A3003 RMK AO2 SLP119 T02720156 53014
KTVC 311453Z VRB05KT 7SM OVC009 21/18 A3004 RMK AO2 SLP170 T02110178 53005
KTVF 311515Z AUTO 22011G17KT 10SM OVC024 A2970 RMK AO1
KTVI 311455Z AUTO 06004KT 10SM OVC017 27/23 A3010 RMK AO2
KTVK 311455Z AUTO 16005KT 10SM CLR 25/22 A3004 RMK AO2
KTVL 311453Z AUTO 00000KT 10SM CLR 06/M01 A3018 RMK AO2 SLP178 T00611011 51005
KTVR 311453Z AUTO 00000KT 10SM CLR 29/20 A3009 RMK AO2 SLP195 T02940200 51014
KTWF 311453Z 20008KT 10SM CLR 17/01 A3014 RMK AO2 SLP158 T01670011 51010
KTWM 311514Z AUTO 20009G15KT 141V221 10SM SCT015 23/19 A2988 RMK AO2
KTXK 311453Z 17003KT 10SM CLR 28/19 A3007 RMK AO2 SLP177 T02830194 51017
KTYQ 311515Z AUTO 25004KT 10SM CLR 27/20 A3014 RMK AO2 LTG DSNT SW T02680203
KTYR 311453Z AUTO 20007KT 10SM CLR 28/21 A3007 RMK AO2 SLP174 T02780211 51016
KTYS 311453Z 00000KT 10SM FEW032 BKN060 OVC180 25/18 A3017 RMK AO2 SLP207 T02500183 51014 $
KTZR 311450Z 29003KT 10SM SKC 26/22 A3015
KU16 311358Z AUTO 06006KT 10SM CLR 18/M03 A3008 RMK AO2 SLP805 T01781028 $
KU42 311515Z AUTO 25004KT 10SM CLR 21/03 A3011 RMK AO1 T02080029
KU68 311455Z AUTO 00000KT 10SM CLR 15/04 A3002 RMK AO2
KUAO 311453Z AUTO 20005KT 10SM BKN050 OVC080 16/12 A3008 RMK AO2 SLP185 T01560117 53004
KUBE 311455Z AUTO 18007KT 1 1/2SM BR OVC002 18/18 A2998 RMK AO2
KUCP 311456Z AUTO 00000KT 10SM CLR 27/22 A3013 RMK AO2 51003 T02720216 SLP209
KUCY 311515Z AUTO VRB03KT 10SM CLR 26/22 A3012 RMK
KUDG 311515Z AUTO 33005KT 10SM OVC008 23/20 A3013 RMK AO1
KUES 311445Z 24005KT 7SM SCT011 OVC016 20/18 A3008
KUGN 311455Z 00000KT 9SM CLR 22/19 A3008 RMK AO2 SLP178 T02170189 51006
KUIL 311453Z AUTO 20008G15KT M1/4SM -RA FG OVC005 15/15 A2990 RMK AO2 RAB00 SLP123 P0007 60012 T01500150 53003
KUIN 311454Z AUTO 21005KT 9SM CLR 27/22 A3005 RMK AO2 SLP168 T02670217 53002
KUKF 311455Z AUTO 02005KT 10SM CLR 25/17 A3022 RMK AO2 LTG DSNT S
KUKI 311456Z AUTO 00000KT 10SM CLR 14/10 A2997 RMK AO2 SLP142 T01390100 51004
KUKT 311515Z AUTO 23004KT 10SM SCT095 28/20 A3009 RMK AO1
KULM 311513Z AUTO 18008G14KT 5SM BR SCT007 22/21 A2992 RMK AO2
KUNI 311450Z AUTO 28003KT 10SM CLR 26/21 A3015 RMK AO2 T02600206
KUNO 311453Z AUTO 16005KT 10SM CLR 24/21 A3013 RMK AO2 SLP188 T02440206 51008
KUNU 311455Z AUTO 00000KT 7SM OVC016 18/17 A3009 RMK AO2 T01760173
KUNV 311453Z COR 29004KT 10SM SKC 26/20 A3012
KUOX 311515Z AUTO 09003KT 10SM CLR 25/19 A3013 RMK AO2 PWINO PNO
KUSE 311455Z AUTO 28005KT 6SM HZ FEW017 FEW044 25/23 A3012 RMK AO2
KUTA 311515Z AUTO 13006KT 10SM CLR 26/20 A3010 RMK AO2 TSNO
KUTS 311453Z AUTO 22004KT 10SM FEW060 28/22 A3006 RMK AO2 SLP174 T02830217 51017
KUUU 311453Z AUTO VRB05KT 10SM CLR 28/22 A2999 RMK AO2 SLP151 T02780217 58004
KUVA 311455Z AUTO 12006KT 10SM CLR 27/21 A3003 RMK AO2 T02690214
KUXL 311455Z AUTO 06005KT 10SM CLR 29/24 A3007 RMK AO2 T02910242
KUYF 311515Z AUTO 29006KT 10SM CLR 26/21 A3015 RMK AO2
KUZA 311454Z AUTO 02004KT 10SM CLR 26/19 A3015 RMK AO2 SLP197 T02560189 53008
KVAD 311458Z AUTO 36006KT 10SM FEW018 BKN028 28/22 A3008 RMK AO2 SLP186 T02760224 52015 $
KVAF 311455Z AUTO 18009KT 9SM CLR 29/22 A3003 RMK A01
KVAY 311454Z AUTO VRB03KT 8SM OVC110 27/21 A3007 RMK AO2 SLP180 60000 T02670206 55001
KVBG 311455Z 33004KT 6SM BR FEW001 SCT005 14/14 A2993 RMK AO2A SLP137 T01440144
KVBS 311455Z AUTO 09004KT 10SM CLR 29/24 A3004 RMK A01
KVBT 311515Z AUTO 22008KT 10SM CLR 27/19 A3009 RMK AO1
KVBW 311515Z AUTO 35003KT 10SM CLR 25/19 A3015 RMK AO2 T02460187
KVCB 311453Z AUTO 23003KT 10SM CLR 20/12 A2992 RMK AO2 SLP130 T02000117 53007
KVCT 311451Z 06003KT 10SM SCT055 28/25 A3001 RMK AO2 LTG DSNT S AND SW SLP161 T02830250 51013
KVCV 311455Z AUTO 00000KT 10SM CLR 20/09 A2998 RMK AO2
KVDF 311515Z AUTO 16004KT 10SM CLR 30/25 A3006 RMK AO2
KVDI 311455Z AUTO 36005KT 10SM OVC009 25/22 A3012 RMK AO2 LTG DSNT E AND S
KVEL 311453Z AUTO 00000KT 10SM CLR 19/10 A3018 RMK AO2 SLP161 T01890100 51015
KVER 311515Z AUTO 16006KT 10SM CLR 28/21 A3003 RMK AO2 T02790208
KVES 311455Z AUTO 27003KT 7SM CLR 26/22 A3014 RMK AO2
KVGT 311453Z 03003KT 10SM CLR 27/06 A2989 RMK AO2 SLP110 T02720061 51020
KVIH 311453Z AUTO 19008KT 10SM FEW065 27/21 A3007 RMK AO2 SLP171 T02670211 51007
KVJI 311455Z AUTO 00000KT 10SM CLR 24/16 A3022 RMK AO2 T02370159
KVKY 311455Z AUTO 04007KT 10SM CLR 28/20 A3009 RMK A01
KVLD 311453Z 02006KT 10SM OVC022 27/23 A3009 RMK AO2 SLP195 T02720228 53017
KVLL 311514Z AUTO 29006KT 10SM CLR 23/18 A3012 RMK AO2 T02260179
KVNC 311455Z AUTO 13008KT 10SM FEW015 28/25 A3005 RMK AO2 LTG DSNT S AND SW
KVNY 311451Z 17004KT 7SM BKN010 20/17 A2990 RMK AO2 SLP117 T02000172 51013
KVOA 311455Z AUTO 02006KT 10SM CLR 28/22 A3007 RMK A01
KVOK 311504Z 20006KT 5SM BR OVC008 20/20 A3004 RMK AO2A
KVPC 311453Z AUTO VRB03KT 10SM OVC031 23/19 A3016 RMK AO2 SLP201 T02330189 53011
KVPS 311455Z 05002KT 10SM FEW250 30/20 A3007 RMK AO2A SLP188 T03010202 52014 $
KVPZ 311513Z AUTO 20003KT 2SM BR OVC002 22/21 A3012 RMK AO2 VIS 1V3 T02170206 TSNO
KVQQ 311450Z 00000KT 7SM BKN012 27/25 A3008
KVQT 311455Z AUTO 15014KT 10SM CLR 30/23 A3005 RMK A01
KVRB 311453Z AUTO 14008KT 10SM SCT028 31/23 A3006 RMK AO2 SLP179 T03110233 52012 TSNO
KVSF 311454Z AUTO 00000KT 10SM BKN044 BKN055 25/18 A2998 RMK AO2 SLP150 T02500178 58009
KVTA 311454Z AUTO VRB03KT 10SM CLR 27/21 A3014 RMK AO2 SLP199 T02670211 53008
KVTI 311455Z AUTO 19006KT 7SM CLR 24/22 A3003 RMK AO2 T02440218
KVTN 311452Z AUTO 22009KT 10SM CLR 26/11 A2988 RMK AO2 SLP094 T02560106 51013
KVTP 311511Z AUTO 10SM SCT090 OVC110 13/04 A3046 RMK AO2
KVUJ 311455Z AUTO 06007KT 10SM BKN008 OVC021 23/22 A3018 RMK AO2 LTG DSNT E
KVUO 311453Z AUTO 18005KT 10SM OVC055 17/12 A3006 RMK AO2 SLP178 T01670117 53003
KVVG 311455Z AUTO 15005KT 10SM 28/25 A2998 RMK A01
KVVV 311441Z AUTO 15007KT 10SM CLR 23/18 A2978 RMK AO2
KVWU 311448Z AUTO 17010G15KT 10SM CLR 23/17 A2973 RMK AO2
KVYS 311455Z AUTO 00000KT 7SM CLR 24/20 A3008 RMK AO2 T02350201
KW13 311455Z AUTO 15004KT 10SM BKN110 26/17 A3017 RMK AO1 T02620171
KW22 311455Z AUTO 24004KT 10SM BKN023 BKN035 26/19 A3019 RMK AO2
KW29 311456Z AUTO 22005KT 10SM 26/18 A3010 RMK AO1
KW31 311515Z AUTO 17003KT 10SM SCT010 SCT043 BKN050 22/20 A3015 RMK AO1 T02200201
KW43 311455Z AUTO 00000KT 10SM CLR 16/10 A3007 RMK AO2
KW63 311515Z AUTO 00000KT 10SM BKN009 OVC021 22/20 A3016 RMK AO1
KW75 311450Z AUTO 22005KT 10SM SCT080 SCT110 25/21 A3012 RMK AO1 T02470210
KW78 311455Z AUTO 00000KT 10SM BKN010 BKN016 OVC023 23/20 A3015 RMK AO1 60006 T02300201
KW81 311515Z AUTO 16004KT 10SM SCT009 SCT033 BKN048 A3015 RMK AO1
KW96 311515Z AUTO 18005KT 10SM SCT042 SCT070 SCT095 24/20 A3012 RMK AO1 T02410200
KW99 311455Z AUTO 16003KT 10SM CLR 23/20 A3017 RMK AO2 T02280200
KWAL 311454Z 26008KT 10SM BKN095 29/20 A3012 RMK AO2 SLP195 T02890200 53003
KWDG 311450Z 16006KT 10 SM SKC 26/20 A2996
KWDR 311455Z AUTO 00000KT 10SM CLR 24/19 A3018 RMK AO1 LTG DSNT SE
KWHP 311447Z 00000KT 10SM SKC 20/17 A2994
KWJF 311456Z 14003KT 10SM CLR 21/07 A2996 RMK AO2 SLP127 T02110072 53013
KWLD 311454Z AUTO 17009KT 10SM CLR 25/19 A2999 RMK AO2 SLP145 T02500194 51010
KWMC 311456Z AUTO 14004KT 10SM CLR 11/M06 A3011 RMK AO2 SLP168 T01061061 51007
KWRB 311458Z AUTO VRB03KT 10SM OVC010 24/21 A3012 RMK AO2 SLP200 T02440211 52014
KWRI 311458Z AUTO 28004KT 10SM BKN100 26/22 A3004 RMK AO2 SLP171 60000 T02640215 55001 $
KWRL 311453Z AUTO 36003KT 9SM CLR 17/07 A3002 RMK AO2 SLP126 T01670072 51014
KWST 311453Z AUTO 23006KT 9SM CLR 27/21 A3000 RMK AO2 SLP159 T02670211 58001
KWVI 311453Z AUTO 02004KT 1/2SM FG OVC003 16/14 A2996 RMK AO2 SLP144 T01560139 53007
KWVL 311515Z AUTO 23009G14KT 10SM CLR 24/16 A2985 RMK AO1
KWWD 311515Z AUTO 23010G15KT 10SM CLR 28/21 A3010 RMK AO1
KWWR 311455Z AUTO 21010KT 10SM CLR 27/11 A3001 RMK AO2
KWYS 311505Z AUTO 23011G16KT 10SM CLR 12/M03 A3019 RMK AO2
KXBP 311455Z AUTO 24007KT 10SM CLR 28/20 A3005 RMK AO2 T02790195
KXIH 311455Z AUTO 14005KT 10SM 29/22 A3004 RMK A01
KXLL 311455Z AUTO 21005KT 10SM CLR 27/20 A3008 RMK AO2
KXMR 311458Z AUTO 17010KT 4SM HZ CLR 30/26 A3006 RMK AO2 SLP182 T03010261 52017 $
KXNA 311453Z 19009KT 10SM CLR 27/21 A3007 RMK AO2 SLP167 T02670211 51011
KXPY 311455Z AUTO 08006KT 10SM CLR 30/21 A3007 RMK A01
KXSA 311515Z AUTO 00000KT 10SM CLR 26/18 A3013 RMK AO2 T02570184
KXVG 311516Z AUTO 19008KT 10SM CLR 22/17 A2982 RMK AO2
KY19 311455Z AUTO 35014KT 10SM CLR 19/14 A2986 RMK AO2
KY23 311455Z AUTO 16005KT 4SM HZ OVC003 A2999 RMK AO2
KY49 311455Z AUTO 21005KT 10SM CLR 22/16 A2979 RMK AO2 T02160155
KY50 311456Z AUTO 00000KT 9SM OVC016 21/20 A3006 RMK AO2 TSNO 51004 T02050200 SLP173
KY51 311455Z AUTO 17003KT 3SM 20/20 A3005 RMK AO1 T01970197
KY63 311513Z AUTO 17013G20KT 10SM CLR 23/18 A2979 RMK AO2 T02250176
KY70 311514Z AUTO 25004KT 5SM BR OVC004 20/18 A3011 RMK AO2 T01960182
KYIP 311453Z 29007KT 7SM CLR 26/20 A3011 RMK AO2 SLP189 T02610200 51009
KYKM 311453Z COR VRB03KT 10SM SCT070 15/07 A3001 RMK AO2 SLP159 T01500067 53006
KYKN 311515Z AUTO 17008KT 10SM CLR 23/19 A2988 RMK AO1
KYNG 311451Z 24005KT 10SM FEW250 26/20 A3012 RMK AO2 SLP192 T02560200 53004
KZZV 311453Z AUTO VRB03KT 10SM CLR 27/19 A3014 RMK AO2 SLP200 T02720189 51009 TSNO